﻿<?xml version="1.0" encoding="utf-8"?><gpx creator="Garmin Desktop App" version="1.1" xsi:schemaLocation="http://www.topografix.com/GPX/1/1 http://www.topografix.com/GPX/1/1/gpx.xsd http://www.garmin.com/xmlschemas/WaypointExtension/v1 http://www8.garmin.com/xmlschemas/WaypointExtensionv1.xsd http://www.garmin.com/xmlschemas/TrackPointExtension/v1 http://www.garmin.com/xmlschemas/TrackPointExtensionv1.xsd http://www.garmin.com/xmlschemas/GpxExtensions/v3 http://www8.garmin.com/xmlschemas/GpxExtensionsv3.xsd http://www.garmin.com/xmlschemas/ActivityExtension/v1 http://www8.garmin.com/xmlschemas/ActivityExtensionv1.xsd http://www.garmin.com/xmlschemas/AdventuresExtensions/v1 http://www8.garmin.com/xmlschemas/AdventuresExtensionv1.xsd http://www.garmin.com/xmlschemas/PressureExtension/v1 http://www.garmin.com/xmlschemas/PressureExtensionv1.xsd http://www.garmin.com/xmlschemas/TripExtensions/v1 http://www.garmin.com/xmlschemas/TripExtensionsv1.xsd http://www.garmin.com/xmlschemas/TripMetaDataExtensions/v1 http://www.garmin.com/xmlschemas/TripMetaDataExtensionsv1.xsd http://www.garmin.com/xmlschemas/ViaPointTransportationModeExtensions/v1 http://www.garmin.com/xmlschemas/ViaPointTransportationModeExtensionsv1.xsd http://www.garmin.com/xmlschemas/CreationTimeExtension/v1 http://www.garmin.com/xmlschemas/CreationTimeExtensionsv1.xsd http://www.garmin.com/xmlschemas/AccelerationExtension/v1 http://www.garmin.com/xmlschemas/AccelerationExtensionv1.xsd http://www.garmin.com/xmlschemas/PowerExtension/v1 http://www.garmin.com/xmlschemas/PowerExtensionv1.xsd http://www.garmin.com/xmlschemas/VideoExtension/v1 http://www.garmin.com/xmlschemas/VideoExtensionv1.xsd" xmlns="http://www.topografix.com/GPX/1/1" xmlns:xsi="http://www.w3.org/2001/XMLSchema-instance" xmlns:wptx1="http://www.garmin.com/xmlschemas/WaypointExtension/v1" xmlns:gpxtrx="http://www.garmin.com/xmlschemas/GpxExtensions/v3" xmlns:gpxtpx="http://www.garmin.com/xmlschemas/TrackPointExtension/v1" xmlns:gpxx="http://www.garmin.com/xmlschemas/GpxExtensions/v3" xmlns:trp="http://www.garmin.com/xmlschemas/TripExtensions/v1" xmlns:adv="http://www.garmin.com/xmlschemas/AdventuresExtensions/v1" xmlns:prs="http://www.garmin.com/xmlschemas/PressureExtension/v1" xmlns:tmd="http://www.garmin.com/xmlschemas/TripMetaDataExtensions/v1" xmlns:vptm="http://www.garmin.com/xmlschemas/ViaPointTransportationModeExtensions/v1" xmlns:ctx="http://www.garmin.com/xmlschemas/CreationTimeExtension/v1" xmlns:gpxacc="http://www.garmin.com/xmlschemas/AccelerationExtension/v1" xmlns:gpxpx="http://www.garmin.com/xmlschemas/PowerExtension/v1" xmlns:vidx1="http://www.garmin.com/xmlschemas/VideoExtension/v1">

  <metadata>
    <link href="http://www.garmin.com">
      <text>Garmin International</text>
    </link>
    <time>2023-06-02T18:48:50Z</time>
    <bounds maxlat="45.882916320115328" maxlon="9.786852383986116" minlat="45.871143266558647" minlon="9.777004485949874" />
  </metadata>

  <trk>
    <name>ferrata.maurizio2023-06-02</name>
    <extensions>
      <gpxx:TrackExtension>
        <gpxx:DisplayColor>Yellow</gpxx:DisplayColor>
      </gpxx:TrackExtension>
      <gpxtrkx:TrackStatsExtension xmlns:gpxtrkx="http://www.garmin.com/xmlschemas/TrackStatsExtension/v1">
        <gpxtrkx:Distance>7327</gpxtrkx:Distance>
        <gpxtrkx:TotalElapsedTime>19226</gpxtrkx:TotalElapsedTime>
        <gpxtrkx:MovingTime>12519</gpxtrkx:MovingTime>
        <gpxtrkx:StoppedTime>6698</gpxtrkx:StoppedTime>
        <gpxtrkx:MovingSpeed>0.585</gpxtrkx:MovingSpeed>
        <gpxtrkx:MaxSpeed>2.729</gpxtrkx:MaxSpeed>
        <gpxtrkx:MaxElevation>1934.3</gpxtrkx:MaxElevation>
        <gpxtrkx:MinElevation>1333.284</gpxtrkx:MinElevation>
        <gpxtrkx:Ascent>714</gpxtrkx:Ascent>
        <gpxtrkx:Descent>723.294</gpxtrkx:Descent>
        <gpxtrkx:AvgAscentRate>0.054</gpxtrkx:AvgAscentRate>
        <gpxtrkx:MaxAscentRate>0.677</gpxtrkx:MaxAscentRate>
        <gpxtrkx:AvgDescentRate>0.065</gpxtrkx:AvgDescentRate>
        <gpxtrkx:MaxDescentRate>-0.524</gpxtrkx:MaxDescentRate>
      </gpxtrkx:TrackStatsExtension>
    </extensions>
    <trkseg>
      <trkpt lat="45.8828797750175" lon="9.777040779590607">
        <ele>1344.77</ele>
        <time>2023-06-02T06:23:58Z</time>
      </trkpt>
      <trkpt lat="45.882862340658903" lon="9.777067098766565">
        <ele>1345.1600000000001</ele>
        <time>2023-06-02T06:24:29Z</time>
      </trkpt>
      <trkpt lat="45.882903076708317" lon="9.777049161493778">
        <ele>1344.78</ele>
        <time>2023-06-02T06:24:55Z</time>
      </trkpt>
      <trkpt lat="45.882916320115328" lon="9.77703994140029">
        <ele>1344.1900000000001</ele>
        <time>2023-06-02T06:25:11Z</time>
      </trkpt>
      <trkpt lat="45.88287441059947" lon="9.777077911421657">
        <ele>1343.6700000000001</ele>
        <time>2023-06-02T06:25:29Z</time>
      </trkpt>
      <trkpt lat="45.882836943492293" lon="9.77707514539361">
        <ele>1343.97</ele>
        <time>2023-06-02T06:25:48Z</time>
      </trkpt>
      <trkpt lat="45.882840799167752" lon="9.777033235877752">
        <ele>1344.0899999999999</ele>
        <time>2023-06-02T06:26:08Z</time>
      </trkpt>
      <trkpt lat="45.882814396172762" lon="9.777077324688435">
        <ele>1343.72</ele>
        <time>2023-06-02T06:26:26Z</time>
      </trkpt>
      <trkpt lat="45.882801320403814" lon="9.777082689106464">
        <ele>1343.5599999999999</ele>
        <time>2023-06-02T06:26:29Z</time>
      </trkpt>
      <trkpt lat="45.882778521627188" lon="9.777085790410638">
        <ele>1343.29</ele>
        <time>2023-06-02T06:26:31Z</time>
      </trkpt>
      <trkpt lat="45.882493956014514" lon="9.777088891714811">
        <ele>1341.8199999999999</ele>
        <time>2023-06-02T06:26:52Z</time>
      </trkpt>
      <trkpt lat="45.882256245240569" lon="9.777116635814309">
        <ele>1342.52</ele>
        <time>2023-06-02T06:27:12Z</time>
      </trkpt>
      <trkpt lat="45.882053235545754" lon="9.777131974697113">
        <ele>1344.97</ele>
        <time>2023-06-02T06:27:30Z</time>
      </trkpt>
      <trkpt lat="45.881863385438919" lon="9.777172291651368">
        <ele>1345.5599999999999</ele>
        <time>2023-06-02T06:27:47Z</time>
      </trkpt>
      <trkpt lat="45.881718043237925" lon="9.777207663282752">
        <ele>1348.7</ele>
        <time>2023-06-02T06:28:03Z</time>
      </trkpt>
      <trkpt lat="45.881599942222238" lon="9.777243537828326">
        <ele>1350.3699999999999</ele>
        <time>2023-06-02T06:28:18Z</time>
      </trkpt>
      <trkpt lat="45.881476728245616" lon="9.777266755700111">
        <ele>1352.6199999999999</ele>
        <time>2023-06-02T06:28:32Z</time>
      </trkpt>
      <trkpt lat="45.881318477913737" lon="9.777329787611961">
        <ele>1357.1900000000001</ele>
        <time>2023-06-02T06:28:51Z</time>
      </trkpt>
      <trkpt lat="45.881188055500388" lon="9.777375301346183">
        <ele>1359.74</ele>
        <time>2023-06-02T06:29:07Z</time>
      </trkpt>
      <trkpt lat="45.881042713299394" lon="9.777417797595263">
        <ele>1361.49</ele>
        <time>2023-06-02T06:29:25Z</time>
      </trkpt>
      <trkpt lat="45.880881194025278" lon="9.777472196146846">
        <ele>1364.3699999999999</ele>
        <time>2023-06-02T06:29:43Z</time>
      </trkpt>
      <trkpt lat="45.880729900673032" lon="9.777511339634657">
        <ele>1367.0899999999999</ele>
        <time>2023-06-02T06:30:02Z</time>
      </trkpt>
      <trkpt lat="45.880589252337813" lon="9.777574790641666">
        <ele>1369.8599999999999</ele>
        <time>2023-06-02T06:30:19Z</time>
      </trkpt>
      <trkpt lat="45.880483388900757" lon="9.777630949392915">
        <ele>1372.22</ele>
        <time>2023-06-02T06:30:34Z</time>
      </trkpt>
      <trkpt lat="45.8803706523031" lon="9.777731113135815">
        <ele>1375.51</ele>
        <time>2023-06-02T06:30:51Z</time>
      </trkpt>
      <trkpt lat="45.880222376435995" lon="9.777831947430968">
        <ele>1379.1300000000001</ele>
        <time>2023-06-02T06:31:09Z</time>
      </trkpt>
      <trkpt lat="45.880079297348857" lon="9.777968740090728">
        <ele>1382.23</ele>
        <time>2023-06-02T06:31:30Z</time>
      </trkpt>
      <trkpt lat="45.880036130547523" lon="9.778018947690725">
        <ele>1383.79</ele>
        <time>2023-06-02T06:31:39Z</time>
      </trkpt>
      <trkpt lat="45.880011571571231" lon="9.778042333200574">
        <ele>1384.26</ele>
        <time>2023-06-02T06:31:42Z</time>
      </trkpt>
      <trkpt lat="45.879896236583591" lon="9.778165798634291">
        <ele>1386.23</ele>
        <time>2023-06-02T06:32:00Z</time>
      </trkpt>
      <trkpt lat="45.879778722301126" lon="9.778288677334786">
        <ele>1388.98</ele>
        <time>2023-06-02T06:32:22Z</time>
      </trkpt>
      <trkpt lat="45.879704542458057" lon="9.778377776965499">
        <ele>1390.6300000000001</ele>
        <time>2023-06-02T06:32:39Z</time>
      </trkpt>
      <trkpt lat="45.879630530253053" lon="9.778467295691371">
        <ele>1391.23</ele>
        <time>2023-06-02T06:32:56Z</time>
      </trkpt>
      <trkpt lat="45.879592141136527" lon="9.778589671477675">
        <ele>1394.77</ele>
        <time>2023-06-02T06:33:15Z</time>
      </trkpt>
      <trkpt lat="45.879561044275761" lon="9.778674161061645">
        <ele>1398.0799999999999</ele>
        <time>2023-06-02T06:33:36Z</time>
      </trkpt>
      <trkpt lat="45.87949943728745" lon="9.778742473572493">
        <ele>1400.77</ele>
        <time>2023-06-02T06:33:54Z</time>
      </trkpt>
      <trkpt lat="45.879439422860742" lon="9.778827633708715">
        <ele>1403.3</ele>
        <time>2023-06-02T06:34:11Z</time>
      </trkpt>
      <trkpt lat="45.879370020702481" lon="9.778879517689347">
        <ele>1405.23</ele>
        <time>2023-06-02T06:34:31Z</time>
      </trkpt>
      <trkpt lat="45.879295589402318" lon="9.778912123292685">
        <ele>1406.71</ele>
        <time>2023-06-02T06:34:49Z</time>
      </trkpt>
      <trkpt lat="45.87920087389648" lon="9.778943136334419">
        <ele>1408.3299999999999</ele>
        <time>2023-06-02T06:35:04Z</time>
      </trkpt>
      <trkpt lat="45.879074223339558" lon="9.77895881049335">
        <ele>1410.3</ele>
        <time>2023-06-02T06:35:24Z</time>
      </trkpt>
      <trkpt lat="45.879013203084469" lon="9.778912710025907">
        <ele>1412.7</ele>
        <time>2023-06-02T06:35:36Z</time>
      </trkpt>
      <trkpt lat="45.87891161441803" lon="9.778838362544775">
        <ele>1416.96</ele>
        <time>2023-06-02T06:35:57Z</time>
      </trkpt>
      <trkpt lat="45.878865262493491" lon="9.778780862689018">
        <ele>1419.51</ele>
        <time>2023-06-02T06:36:09Z</time>
      </trkpt>
      <trkpt lat="45.878803906962276" lon="9.778733756393194">
        <ele>1422.8</ele>
        <time>2023-06-02T06:36:23Z</time>
      </trkpt>
      <trkpt lat="45.878768283873796" lon="9.778658570721746">
        <ele>1428.3199999999999</ele>
        <time>2023-06-02T06:36:37Z</time>
      </trkpt>
      <trkpt lat="45.878719920292497" lon="9.778586737811565">
        <ele>1432.21</ele>
        <time>2023-06-02T06:36:52Z</time>
      </trkpt>
      <trkpt lat="45.878657894209027" lon="9.778527393937111">
        <ele>1435.4400000000001</ele>
        <time>2023-06-02T06:37:08Z</time>
      </trkpt>
      <trkpt lat="45.878601651638746" lon="9.778474168851972">
        <ele>1437.73</ele>
        <time>2023-06-02T06:37:22Z</time>
      </trkpt>
      <trkpt lat="45.878512132912874" lon="9.778392612934113">
        <ele>1441.0799999999999</ele>
        <time>2023-06-02T06:37:43Z</time>
      </trkpt>
      <trkpt lat="45.878454213961959" lon="9.778329161927104">
        <ele>1443.1800000000001</ele>
        <time>2023-06-02T06:37:58Z</time>
      </trkpt>
      <trkpt lat="45.878386572003365" lon="9.778311559930444">
        <ele>1445.3199999999999</ele>
        <time>2023-06-02T06:38:13Z</time>
      </trkpt>
      <trkpt lat="45.878312308341265" lon="9.778303429484367">
        <ele>1447.8299999999999</ele>
        <time>2023-06-02T06:38:28Z</time>
      </trkpt>
      <trkpt lat="45.878267716616392" lon="9.778262190520763">
        <ele>1449.97</ele>
        <time>2023-06-02T06:38:39Z</time>
      </trkpt>
      <trkpt lat="45.878220777958632" lon="9.778229165822268">
        <ele>1451.8599999999999</ele>
        <time>2023-06-02T06:38:51Z</time>
      </trkpt>
      <trkpt lat="45.878179622814059" lon="9.778179544955492">
        <ele>1453.95</ele>
        <time>2023-06-02T06:39:02Z</time>
      </trkpt>
      <trkpt lat="45.878121200948954" lon="9.778140317648649">
        <ele>1455.6400000000001</ele>
        <time>2023-06-02T06:39:15Z</time>
      </trkpt>
      <trkpt lat="45.878060851246119" lon="9.778129504993558">
        <ele>1457.53</ele>
        <time>2023-06-02T06:39:27Z</time>
      </trkpt>
      <trkpt lat="45.878005865961313" lon="9.778096145018935">
        <ele>1459.5899999999999</ele>
        <time>2023-06-02T06:39:40Z</time>
      </trkpt>
      <trkpt lat="45.877954317256808" lon="9.778052223846316">
        <ele>1461.6199999999999</ele>
        <time>2023-06-02T06:39:53Z</time>
      </trkpt>
      <trkpt lat="45.877869995310903" lon="9.77799765765667">
        <ele>1464.77</ele>
        <time>2023-06-02T06:40:12Z</time>
      </trkpt>
      <trkpt lat="45.877828169614077" lon="9.777965135872364">
        <ele>1466.8299999999999</ele>
        <time>2023-06-02T06:40:24Z</time>
      </trkpt>
      <trkpt lat="45.8777716755867" lon="9.777956334874034">
        <ele>1468.3399999999999</ele>
        <time>2023-06-02T06:40:38Z</time>
      </trkpt>
      <trkpt lat="45.877717779949307" lon="9.777906630188227">
        <ele>1470.47</ele>
        <time>2023-06-02T06:40:52Z</time>
      </trkpt>
      <trkpt lat="45.877669332548976" lon="9.777878969907761">
        <ele>1472.1199999999999</ele>
        <time>2023-06-02T06:41:05Z</time>
      </trkpt>
      <trkpt lat="45.877611497417092" lon="9.77782666683197">
        <ele>1474.96</ele>
        <time>2023-06-02T06:41:19Z</time>
      </trkpt>
      <trkpt lat="45.877566318958998" lon="9.777753408998251">
        <ele>1477.3099999999999</ele>
        <time>2023-06-02T06:41:34Z</time>
      </trkpt>
      <trkpt lat="45.87753614410758" lon="9.777675038203597">
        <ele>1478.8299999999999</ele>
        <time>2023-06-02T06:41:49Z</time>
      </trkpt>
      <trkpt lat="45.877538742497563" lon="9.777661710977554">
        <ele>1478.8299999999999</ele>
        <time>2023-06-02T06:42:02Z</time>
      </trkpt>
      <trkpt lat="45.877566235139966" lon="9.777650563046336">
        <ele>1478.6500000000001</ele>
        <time>2023-06-02T06:42:41Z</time>
      </trkpt>
      <trkpt lat="45.877575371414423" lon="9.777646204456687">
        <ele>1479.8199999999999</ele>
        <time>2023-06-02T06:43:22Z</time>
      </trkpt>
      <trkpt lat="45.877566821873188" lon="9.77764050476253">
        <ele>1479.25</ele>
        <time>2023-06-02T06:43:34Z</time>
      </trkpt>
      <trkpt lat="45.877555590122938" lon="9.777618041262031">
        <ele>1480.6099999999999</ele>
        <time>2023-06-02T06:43:49Z</time>
      </trkpt>
      <trkpt lat="45.877477638423443" lon="9.777626004070044">
        <ele>1481.3499999999999</ele>
        <time>2023-06-02T06:44:06Z</time>
      </trkpt>
      <trkpt lat="45.877447295933962" lon="9.777681995183229">
        <ele>1481.9400000000001</ele>
        <time>2023-06-02T06:44:21Z</time>
      </trkpt>
      <trkpt lat="45.877405470237136" lon="9.777697920799255">
        <ele>1484.1600000000001</ele>
        <time>2023-06-02T06:44:34Z</time>
      </trkpt>
      <trkpt lat="45.877384096384048" lon="9.777749553322792">
        <ele>1485.1800000000001</ele>
        <time>2023-06-02T06:44:48Z</time>
      </trkpt>
      <trkpt lat="45.87738418020308" lon="9.777824068441987">
        <ele>1485.95</ele>
        <time>2023-06-02T06:45:01Z</time>
      </trkpt>
      <trkpt lat="45.877374457195401" lon="9.777887603268027">
        <ele>1485.9000000000001</ele>
        <time>2023-06-02T06:45:15Z</time>
      </trkpt>
      <trkpt lat="45.877357022836804" lon="9.778027413412929">
        <ele>1488.3900000000001</ele>
        <time>2023-06-02T06:45:30Z</time>
      </trkpt>
      <trkpt lat="45.877366662025452" lon="9.778137635439634">
        <ele>1491.02</ele>
        <time>2023-06-02T06:45:45Z</time>
      </trkpt>
      <trkpt lat="45.877392562106252" lon="9.778249952942133">
        <ele>1493.6900000000001</ele>
        <time>2023-06-02T06:45:59Z</time>
      </trkpt>
      <trkpt lat="45.877418126910925" lon="9.778347769752145">
        <ele>1497.21</ele>
        <time>2023-06-02T06:46:14Z</time>
      </trkpt>
      <trkpt lat="45.877439165487885" lon="9.778429744765163">
        <ele>1499.71</ele>
        <time>2023-06-02T06:46:27Z</time>
      </trkpt>
      <trkpt lat="45.877457438036799" lon="9.778532590717077">
        <ele>1502.5599999999999</ele>
        <time>2023-06-02T06:46:42Z</time>
      </trkpt>
      <trkpt lat="45.877502365037799" lon="9.778666449710727">
        <ele>1505.1700000000001</ele>
        <time>2023-06-02T06:46:59Z</time>
      </trkpt>
      <trkpt lat="45.877525163814425" lon="9.778796453028917">
        <ele>1506.6099999999999</ele>
        <time>2023-06-02T06:47:14Z</time>
      </trkpt>
      <trkpt lat="45.87753807194531" lon="9.778956966474652">
        <ele>1508.1099999999999</ele>
        <time>2023-06-02T06:47:31Z</time>
      </trkpt>
      <trkpt lat="45.877537569031119" lon="9.778969958424568">
        <ele>1508.0799999999999</ele>
        <time>2023-06-02T06:47:32Z</time>
      </trkpt>
      <trkpt lat="45.877530192956328" lon="9.779129801318049">
        <ele>1510.5999999999999</ele>
        <time>2023-06-02T06:47:47Z</time>
      </trkpt>
      <trkpt lat="45.87752927094698" lon="9.779326105490327">
        <ele>1512.1099999999999</ele>
        <time>2023-06-02T06:48:04Z</time>
      </trkpt>
      <trkpt lat="45.877508483827114" lon="9.779389807954431">
        <ele>1512.6500000000001</ele>
        <time>2023-06-02T06:48:23Z</time>
      </trkpt>
      <trkpt lat="45.877505717799067" lon="9.779398441314697">
        <ele>1513.1099999999999</ele>
        <time>2023-06-02T06:48:42Z</time>
      </trkpt>
      <trkpt lat="45.877502029761672" lon="9.779402883723378">
        <ele>1513.3</ele>
        <time>2023-06-02T06:49:18Z</time>
      </trkpt>
      <trkpt lat="45.877485182136297" lon="9.779440518468618">
        <ele>1513.3399999999999</ele>
        <time>2023-06-02T06:49:48Z</time>
      </trkpt>
      <trkpt lat="45.877478057518601" lon="9.779404643923044">
        <ele>1513.9100000000001</ele>
        <time>2023-06-02T06:50:14Z</time>
      </trkpt>
      <trkpt lat="45.877499766647816" lon="9.779402045533061">
        <ele>1515.3</ele>
        <time>2023-06-02T06:50:38Z</time>
      </trkpt>
      <trkpt lat="45.877468250691891" lon="9.779415791854262">
        <ele>1516.25</ele>
        <time>2023-06-02T06:50:56Z</time>
      </trkpt>
      <trkpt lat="45.877419216558337" lon="9.779441943392158">
        <ele>1518.49</ele>
        <time>2023-06-02T06:51:09Z</time>
      </trkpt>
      <trkpt lat="45.877381497994065" lon="9.779426855966449">
        <ele>1521.8299999999999</ele>
        <time>2023-06-02T06:51:23Z</time>
      </trkpt>
      <trkpt lat="45.877359872683883" lon="9.779344461858273">
        <ele>1525.8800000000001</ele>
        <time>2023-06-02T06:51:39Z</time>
      </trkpt>
      <trkpt lat="45.87731134146452" lon="9.779372960329056">
        <ele>1527.2</ele>
        <time>2023-06-02T06:51:52Z</time>
      </trkpt>
      <trkpt lat="45.877256020903587" lon="9.779287967830896">
        <ele>1530.5599999999999</ele>
        <time>2023-06-02T06:52:10Z</time>
      </trkpt>
      <trkpt lat="45.877199107781053" lon="9.779267515987158">
        <ele>1532.1400000000001</ele>
        <time>2023-06-02T06:52:25Z</time>
      </trkpt>
      <trkpt lat="45.877150241285563" lon="9.779241196811199">
        <ele>1534.52</ele>
        <time>2023-06-02T06:52:43Z</time>
      </trkpt>
      <trkpt lat="45.877101039513946" lon="9.779193922877312">
        <ele>1537.0899999999999</ele>
        <time>2023-06-02T06:52:58Z</time>
      </trkpt>
      <trkpt lat="45.877050245180726" lon="9.779157964512706">
        <ele>1539.5</ele>
        <time>2023-06-02T06:53:14Z</time>
      </trkpt>
      <trkpt lat="45.876973299309611" lon="9.779154444113374">
        <ele>1541.6099999999999</ele>
        <time>2023-06-02T06:53:33Z</time>
      </trkpt>
      <trkpt lat="45.876935916021466" lon="9.779099458828569">
        <ele>1543.24</ele>
        <time>2023-06-02T06:53:49Z</time>
      </trkpt>
      <trkpt lat="45.87687011808157" lon="9.77909660898149">
        <ele>1543.9300000000001</ele>
        <time>2023-06-02T06:54:06Z</time>
      </trkpt>
      <trkpt lat="45.876831393688917" lon="9.779045647010207">
        <ele>1545.0599999999999</ele>
        <time>2023-06-02T06:54:25Z</time>
      </trkpt>
      <trkpt lat="45.876837512478232" lon="9.778995607048273">
        <ele>1547.99</ele>
        <time>2023-06-02T06:54:40Z</time>
      </trkpt>
      <trkpt lat="45.876802895218134" lon="9.778986051678658">
        <ele>1549.6099999999999</ele>
        <time>2023-06-02T06:54:55Z</time>
      </trkpt>
      <trkpt lat="45.876783197745681" lon="9.778947914019227">
        <ele>1551.0999999999999</ele>
        <time>2023-06-02T06:55:05Z</time>
      </trkpt>
      <trkpt lat="45.876733828336" lon="9.778940286487341">
        <ele>1551.96</ele>
        <time>2023-06-02T06:55:20Z</time>
      </trkpt>
      <trkpt lat="45.876714885234833" lon="9.778846241533756">
        <ele>1554.55</ele>
        <time>2023-06-02T06:55:45Z</time>
      </trkpt>
      <trkpt lat="45.876682698726654" lon="9.778767535462976">
        <ele>1555.29</ele>
        <time>2023-06-02T06:56:06Z</time>
      </trkpt>
      <trkpt lat="45.876683201640844" lon="9.778752196580172">
        <ele>1555.71</ele>
        <time>2023-06-02T06:56:28Z</time>
      </trkpt>
      <trkpt lat="45.876656882464886" lon="9.778727050870657">
        <ele>1556.6099999999999</ele>
        <time>2023-06-02T06:56:51Z</time>
      </trkpt>
      <trkpt lat="45.876651769503951" lon="9.778687236830592">
        <ele>1557.3399999999999</ele>
        <time>2023-06-02T06:57:12Z</time>
      </trkpt>
      <trkpt lat="45.876642717048526" lon="9.778614733368158">
        <ele>1558.1500000000001</ele>
        <time>2023-06-02T06:57:34Z</time>
      </trkpt>
      <trkpt lat="45.87662436068058" lon="9.778586821630597">
        <ele>1560.2</ele>
        <time>2023-06-02T06:57:53Z</time>
      </trkpt>
      <trkpt lat="45.876648752018809" lon="9.778577014803886">
        <ele>1562.51</ele>
        <time>2023-06-02T06:58:14Z</time>
      </trkpt>
      <trkpt lat="45.876650931313634" lon="9.778532506898046">
        <ele>1564.6800000000001</ele>
        <time>2023-06-02T06:58:39Z</time>
      </trkpt>
      <trkpt lat="45.876644058153033" lon="9.778505768626928">
        <ele>1566.6400000000001</ele>
        <time>2023-06-02T06:58:57Z</time>
      </trkpt>
      <trkpt lat="45.876637687906623" lon="9.778503254055977">
        <ele>1568.5699999999999</ele>
        <time>2023-06-02T06:59:12Z</time>
      </trkpt>
      <trkpt lat="45.876643555238843" lon="9.778477353975177">
        <ele>1570.4000000000001</ele>
        <time>2023-06-02T06:59:35Z</time>
      </trkpt>
      <trkpt lat="45.876654786989093" lon="9.778442904353142">
        <ele>1572.3800000000001</ele>
        <time>2023-06-02T07:00:01Z</time>
      </trkpt>
      <trkpt lat="45.876624025404453" lon="9.778425637632608">
        <ele>1573.95</ele>
        <time>2023-06-02T07:00:24Z</time>
      </trkpt>
      <trkpt lat="45.876631401479244" lon="9.778408957645297">
        <ele>1576.8</ele>
        <time>2023-06-02T07:00:48Z</time>
      </trkpt>
      <trkpt lat="45.876651937142015" lon="9.778385404497385">
        <ele>1578.97</ele>
        <time>2023-06-02T07:01:04Z</time>
      </trkpt>
      <trkpt lat="45.876628635451198" lon="9.77835581637919">
        <ele>1581.2</ele>
        <time>2023-06-02T07:01:24Z</time>
      </trkpt>
      <trkpt lat="45.876628300175071" lon="9.778339136391878">
        <ele>1582.96</ele>
        <time>2023-06-02T07:01:46Z</time>
      </trkpt>
      <trkpt lat="45.876598209142685" lon="9.778343243524432">
        <ele>1585.3900000000001</ele>
        <time>2023-06-02T07:02:10Z</time>
      </trkpt>
      <trkpt lat="45.876579349860549" lon="9.778335364535451">
        <ele>1587.6099999999999</ele>
        <time>2023-06-02T07:02:30Z</time>
      </trkpt>
      <trkpt lat="45.87655495852232" lon="9.778333101421595">
        <ele>1589.52</ele>
        <time>2023-06-02T07:02:52Z</time>
      </trkpt>
      <trkpt lat="45.876540038734674" lon="9.778352966532111">
        <ele>1596.4300000000001</ele>
        <time>2023-06-02T07:03:12Z</time>
      </trkpt>
      <trkpt lat="45.876519000157714" lon="9.778355062007904">
        <ele>1599.27</ele>
        <time>2023-06-02T07:03:27Z</time>
      </trkpt>
      <trkpt lat="45.876498632133007" lon="9.778392193838954">
        <ele>1602.8599999999999</ele>
        <time>2023-06-02T07:03:40Z</time>
      </trkpt>
      <trkpt lat="45.876488825306296" lon="9.778424380347133">
        <ele>1605.1700000000001</ele>
        <time>2023-06-02T07:03:52Z</time>
      </trkpt>
      <trkpt lat="45.876441551372409" lon="9.77842764928937">
        <ele>1608.5999999999999</ele>
        <time>2023-06-02T07:04:08Z</time>
      </trkpt>
      <trkpt lat="45.876413136720657" lon="9.778448017314076">
        <ele>1611.9100000000001</ele>
        <time>2023-06-02T07:04:30Z</time>
      </trkpt>
      <trkpt lat="45.876361420378089" lon="9.778438964858651">
        <ele>1614.5899999999999</ele>
        <time>2023-06-02T07:04:52Z</time>
      </trkpt>
      <trkpt lat="45.8763228636235" lon="9.778418680652976">
        <ele>1616.4300000000001</ele>
        <time>2023-06-02T07:05:09Z</time>
      </trkpt>
      <trkpt lat="45.876321522518992" lon="9.77846528403461">
        <ele>1619.22</ele>
        <time>2023-06-02T07:05:23Z</time>
      </trkpt>
      <trkpt lat="45.876348931342363" lon="9.77845991961658">
        <ele>1624.51</ele>
        <time>2023-06-02T07:05:51Z</time>
      </trkpt>
      <trkpt lat="45.876365778967738" lon="9.778460673987865">
        <ele>1626.3399999999999</ele>
        <time>2023-06-02T07:06:07Z</time>
      </trkpt>
      <trkpt lat="45.876377513632178" lon="9.778456315398216">
        <ele>1627.71</ele>
        <time>2023-06-02T07:06:35Z</time>
      </trkpt>
      <trkpt lat="45.876381117850542" lon="9.778458746150136">
        <ele>1628.05</ele>
        <time>2023-06-02T07:07:03Z</time>
      </trkpt>
      <trkpt lat="45.876397378742695" lon="9.77845648303628">
        <ele>1629.05</ele>
        <time>2023-06-02T07:07:34Z</time>
      </trkpt>
      <trkpt lat="45.876388661563396" lon="9.778452543541789">
        <ele>1630.3900000000001</ele>
        <time>2023-06-02T07:08:03Z</time>
      </trkpt>
      <trkpt lat="45.876405173912644" lon="9.77845748886466">
        <ele>1631.3099999999999</ele>
        <time>2023-06-02T07:08:18Z</time>
      </trkpt>
      <trkpt lat="45.876422692090273" lon="9.778460338711739">
        <ele>1632.8800000000001</ele>
        <time>2023-06-02T07:08:45Z</time>
      </trkpt>
      <trkpt lat="45.87643132545054" lon="9.778471989557147">
        <ele>1633.3499999999999</ele>
        <time>2023-06-02T07:09:14Z</time>
      </trkpt>
      <trkpt lat="45.876447502523661" lon="9.778484394773841">
        <ele>1633.5599999999999</ele>
        <time>2023-06-02T07:09:37Z</time>
      </trkpt>
      <trkpt lat="45.876463176682591" lon="9.778536362573504">
        <ele>1634.6199999999999</ele>
        <time>2023-06-02T07:09:58Z</time>
      </trkpt>
      <trkpt lat="45.876466948539019" lon="9.778596963733435">
        <ele>1635.9400000000001</ele>
        <time>2023-06-02T07:10:14Z</time>
      </trkpt>
      <trkpt lat="45.876449765637517" lon="9.778621941804886">
        <ele>1635.3599999999999</ele>
        <time>2023-06-02T07:10:27Z</time>
      </trkpt>
      <trkpt lat="45.876448759809136" lon="9.778630994260311">
        <ele>1635.6900000000001</ele>
        <time>2023-06-02T07:10:44Z</time>
      </trkpt>
      <trkpt lat="45.876429229974747" lon="9.778658403083682">
        <ele>1635.4300000000001</ele>
        <time>2023-06-02T07:10:59Z</time>
      </trkpt>
      <trkpt lat="45.876433588564396" lon="9.778680196031928">
        <ele>1636.5899999999999</ele>
        <time>2023-06-02T07:11:17Z</time>
      </trkpt>
      <trkpt lat="45.876410873606801" lon="9.778679106384516">
        <ele>1637.72</ele>
        <time>2023-06-02T07:11:38Z</time>
      </trkpt>
      <trkpt lat="45.876418836414814" lon="9.778686566278338">
        <ele>1638.3800000000001</ele>
        <time>2023-06-02T07:12:03Z</time>
      </trkpt>
      <trkpt lat="45.876397881656885" lon="9.778679944574833">
        <ele>1638.71</ele>
        <time>2023-06-02T07:12:18Z</time>
      </trkpt>
      <trkpt lat="45.876413136720657" lon="9.778673490509391">
        <ele>1638.8699999999999</ele>
        <time>2023-06-02T07:12:39Z</time>
      </trkpt>
      <trkpt lat="45.87636929936707" lon="9.778679106384516">
        <ele>1638.73</ele>
        <time>2023-06-02T07:12:56Z</time>
      </trkpt>
      <trkpt lat="45.876305513083935" lon="9.778699390590191">
        <ele>1640.75</ele>
        <time>2023-06-02T07:13:13Z</time>
      </trkpt>
      <trkpt lat="45.876282546669245" lon="9.77865731343627">
        <ele>1643.5899999999999</ele>
        <time>2023-06-02T07:13:27Z</time>
      </trkpt>
      <trkpt lat="45.876275338232517" lon="9.778635185211897">
        <ele>1645.6600000000001</ele>
        <time>2023-06-02T07:13:40Z</time>
      </trkpt>
      <trkpt lat="45.876255724579096" lon="9.778597550466657">
        <ele>1646.8399999999999</ele>
        <time>2023-06-02T07:13:55Z</time>
      </trkpt>
      <trkpt lat="45.876226723194122" lon="9.778557065874338">
        <ele>1648.98</ele>
        <time>2023-06-02T07:14:11Z</time>
      </trkpt>
      <trkpt lat="45.87621389888227" lon="9.778541726991534">
        <ele>1650.75</ele>
        <time>2023-06-02T07:14:27Z</time>
      </trkpt>
      <trkpt lat="45.876165451481938" lon="9.778578775003552">
        <ele>1652.9300000000001</ele>
        <time>2023-06-02T07:14:41Z</time>
      </trkpt>
      <trkpt lat="45.876159751787782" lon="9.778585815802217">
        <ele>1654.98</ele>
        <time>2023-06-02T07:14:59Z</time>
      </trkpt>
      <trkpt lat="45.876130079850554" lon="9.77857667952776">
        <ele>1655.52</ele>
        <time>2023-06-02T07:15:16Z</time>
      </trkpt>
      <trkpt lat="45.876098480075598" lon="9.778549186885357">
        <ele>1656.0699999999999</ele>
        <time>2023-06-02T07:15:35Z</time>
      </trkpt>
      <trkpt lat="45.876066545024514" lon="9.778523538261652">
        <ele>1657.1500000000001</ele>
        <time>2023-06-02T07:15:55Z</time>
      </trkpt>
      <trkpt lat="45.876033017411828" lon="9.778486238792539">
        <ele>1658.0999999999999</ele>
        <time>2023-06-02T07:16:18Z</time>
      </trkpt>
      <trkpt lat="45.875971745699644" lon="9.778485065326095">
        <ele>1660.77</ele>
        <time>2023-06-02T07:16:40Z</time>
      </trkpt>
      <trkpt lat="45.875923298299313" lon="9.778525969013572">
        <ele>1663.47</ele>
        <time>2023-06-02T07:16:58Z</time>
      </trkpt>
      <trkpt lat="45.875856997445226" lon="9.7785400506109">
        <ele>1665.6700000000001</ele>
        <time>2023-06-02T07:17:15Z</time>
      </trkpt>
      <trkpt lat="45.875798994675279" lon="9.778581960126758">
        <ele>1668.47</ele>
        <time>2023-06-02T07:17:30Z</time>
      </trkpt>
      <trkpt lat="45.875748535618186" lon="9.778580870479345">
        <ele>1669.96</ele>
        <time>2023-06-02T07:17:48Z</time>
      </trkpt>
      <trkpt lat="45.875712996348739" lon="9.778571482747793">
        <ele>1672.6099999999999</ele>
        <time>2023-06-02T07:18:05Z</time>
      </trkpt>
      <trkpt lat="45.875647030770779" lon="9.778543906286359">
        <ele>1675.5599999999999</ele>
        <time>2023-06-02T07:18:21Z</time>
      </trkpt>
      <trkpt lat="45.875598499551415" lon="9.778507528826594">
        <ele>1678.73</ele>
        <time>2023-06-02T07:18:38Z</time>
      </trkpt>
      <trkpt lat="45.875559356063604" lon="9.778495291247964">
        <ele>1680.9300000000001</ele>
        <time>2023-06-02T07:18:55Z</time>
      </trkpt>
      <trkpt lat="45.875490959733725" lon="9.778523957356811">
        <ele>1682.5999999999999</ele>
        <time>2023-06-02T07:19:14Z</time>
      </trkpt>
      <trkpt lat="45.875430861487985" lon="9.778588498011231">
        <ele>1684.1400000000001</ele>
        <time>2023-06-02T07:19:32Z</time>
      </trkpt>
      <trkpt lat="45.875403704121709" lon="9.77862655185163">
        <ele>1685.5599999999999</ele>
        <time>2023-06-02T07:19:48Z</time>
      </trkpt>
      <trkpt lat="45.875422898679972" lon="9.778704838827252">
        <ele>1688.1900000000001</ele>
        <time>2023-06-02T07:20:05Z</time>
      </trkpt>
      <trkpt lat="45.87546925060451" lon="9.778758650645614">
        <ele>1691.49</ele>
        <time>2023-06-02T07:20:20Z</time>
      </trkpt>
      <trkpt lat="45.875465981662273" lon="9.778759740293026">
        <ele>1693.6099999999999</ele>
        <time>2023-06-02T07:20:42Z</time>
      </trkpt>
      <trkpt lat="45.875483248382807" lon="9.778783041983843">
        <ele>1695.7</ele>
        <time>2023-06-02T07:21:07Z</time>
      </trkpt>
      <trkpt lat="45.875514931976795" lon="9.778805002570152">
        <ele>1697.54</ele>
        <time>2023-06-02T07:21:21Z</time>
      </trkpt>
      <trkpt lat="45.875511160120368" lon="9.778822269290686">
        <ele>1699.3699999999999</ele>
        <time>2023-06-02T07:21:36Z</time>
      </trkpt>
      <trkpt lat="45.875566732138395" lon="9.778805002570152">
        <ele>1703.0799999999999</ele>
        <time>2023-06-02T07:21:50Z</time>
      </trkpt>
      <trkpt lat="45.875592129305005" lon="9.778818497434259">
        <ele>1705.1600000000001</ele>
        <time>2023-06-02T07:22:00Z</time>
      </trkpt>
      <trkpt lat="45.875672847032547" lon="9.778881529346108">
        <ele>1710.28</ele>
        <time>2023-06-02T07:22:16Z</time>
      </trkpt>
      <trkpt lat="45.875704949721694" lon="9.77891044691205">
        <ele>1713.54</ele>
        <time>2023-06-02T07:22:30Z</time>
      </trkpt>
      <trkpt lat="45.875730682164431" lon="9.778932239860296">
        <ele>1714.95</ele>
        <time>2023-06-02T07:22:41Z</time>
      </trkpt>
      <trkpt lat="45.875724898651242" lon="9.778932072222233">
        <ele>1715.5799999999999</ele>
        <time>2023-06-02T07:22:59Z</time>
      </trkpt>
      <trkpt lat="45.875706458464265" lon="9.778930060565472">
        <ele>1717.1600000000001</ele>
        <time>2023-06-02T07:23:26Z</time>
      </trkpt>
      <trkpt lat="45.875724731013179" lon="9.778940621763468">
        <ele>1718.46</ele>
        <time>2023-06-02T07:24:05Z</time>
      </trkpt>
      <trkpt lat="45.875749373808503" lon="9.778963169082999">
        <ele>1717.74</ele>
        <time>2023-06-02T07:24:23Z</time>
      </trkpt>
      <trkpt lat="45.875756749883294" lon="9.778957469388843">
        <ele>1717.5899999999999</ele>
        <time>2023-06-02T07:25:16Z</time>
      </trkpt>
      <trkpt lat="45.875759851187468" lon="9.778952524065971">
        <ele>1717.8599999999999</ele>
        <time>2023-06-02T07:25:49Z</time>
      </trkpt>
      <trkpt lat="45.875745937228203" lon="9.778945818543434">
        <ele>1718.0599999999999</ele>
        <time>2023-06-02T07:26:16Z</time>
      </trkpt>
      <trkpt lat="45.875713499262929" lon="9.778956547379494">
        <ele>1718.55</ele>
        <time>2023-06-02T07:26:45Z</time>
      </trkpt>
      <trkpt lat="45.875720540061593" lon="9.778940621763468">
        <ele>1718.71</ele>
        <time>2023-06-02T07:27:01Z</time>
      </trkpt>
      <trkpt lat="45.875717606395483" lon="9.778938945382834">
        <ele>1718.1500000000001</ele>
        <time>2023-06-02T07:27:24Z</time>
      </trkpt>
      <trkpt lat="45.875718025490642" lon="9.778955457732081">
        <ele>1716.3</ele>
        <time>2023-06-02T07:27:45Z</time>
      </trkpt>
      <trkpt lat="45.875682150945067" lon="9.779004072770476">
        <ele>1715.1700000000001</ele>
        <time>2023-06-02T07:28:13Z</time>
      </trkpt>
      <trkpt lat="45.875657927244902" lon="9.779052687808871">
        <ele>1716.26</ele>
        <time>2023-06-02T07:28:26Z</time>
      </trkpt>
      <trkpt lat="45.875640828162432" lon="9.779081186279655">
        <ele>1716.8800000000001</ele>
        <time>2023-06-02T07:28:49Z</time>
      </trkpt>
      <trkpt lat="45.875627752393484" lon="9.779094429686666">
        <ele>1716.28</ele>
        <time>2023-06-02T07:29:01Z</time>
      </trkpt>
      <trkpt lat="45.875619538128376" lon="9.779125191271305">
        <ele>1716.9400000000001</ele>
        <time>2023-06-02T07:29:21Z</time>
      </trkpt>
      <trkpt lat="45.875584501773119" lon="9.779157713055611">
        <ele>1716.9300000000001</ele>
        <time>2023-06-02T07:29:39Z</time>
      </trkpt>
      <trkpt lat="45.875576874241233" lon="9.77917330339551">
        <ele>1717.03</ele>
        <time>2023-06-02T07:29:43Z</time>
      </trkpt>
      <trkpt lat="45.875498000532389" lon="9.779233736917377">
        <ele>1718.1500000000001</ele>
        <time>2023-06-02T07:30:02Z</time>
      </trkpt>
      <trkpt lat="45.875455336645246" lon="9.779224265366793">
        <ele>1717.96</ele>
        <time>2023-06-02T07:30:24Z</time>
      </trkpt>
      <trkpt lat="45.875452402979136" lon="9.779224852100015">
        <ele>1717.95</ele>
        <time>2023-06-02T07:30:25Z</time>
      </trkpt>
      <trkpt lat="45.87538031861186" lon="9.779279166832566">
        <ele>1716.96</ele>
        <time>2023-06-02T07:30:55Z</time>
      </trkpt>
      <trkpt lat="45.875299768522382" lon="9.779363237321377">
        <ele>1715.74</ele>
        <time>2023-06-02T07:31:14Z</time>
      </trkpt>
      <trkpt lat="45.875206477940083" lon="9.779469268396497">
        <ele>1715.8099999999999</ele>
        <time>2023-06-02T07:31:21Z</time>
      </trkpt>
      <trkpt lat="45.875122658908367" lon="9.779583429917693">
        <ele>1715.96</ele>
        <time>2023-06-02T07:31:31Z</time>
      </trkpt>
      <trkpt lat="45.87507831864059" lon="9.77963020093739">
        <ele>1717.54</ele>
        <time>2023-06-02T07:32:00Z</time>
      </trkpt>
      <trkpt lat="45.875072786584496" lon="9.779647048562765">
        <ele>1717.4300000000001</ele>
        <time>2023-06-02T07:32:04Z</time>
      </trkpt>
      <trkpt lat="45.875150570645928" lon="9.77959306910634">
        <ele>1716.6900000000001</ele>
        <time>2023-06-02T07:32:19Z</time>
      </trkpt>
      <trkpt lat="45.875206142663956" lon="9.779539844021201">
        <ele>1714.73</ele>
        <time>2023-06-02T07:32:48Z</time>
      </trkpt>
      <trkpt lat="45.875175716355443" lon="9.779575802385807">
        <ele>1713.6199999999999</ele>
        <time>2023-06-02T07:33:15Z</time>
      </trkpt>
      <trkpt lat="45.875005815178156" lon="9.779815189540386">
        <ele>1712.8099999999999</ele>
        <time>2023-06-02T07:33:29Z</time>
      </trkpt>
      <trkpt lat="45.875045796856284" lon="9.779739584773779">
        <ele>1711.79</ele>
        <time>2023-06-02T07:34:00Z</time>
      </trkpt>
      <trkpt lat="45.875099105760455" lon="9.779726509004831">
        <ele>1712.4200000000001</ele>
        <time>2023-06-02T07:34:24Z</time>
      </trkpt>
      <trkpt lat="45.875143865123391" lon="9.779696417972446">
        <ele>1712.47</ele>
        <time>2023-06-02T07:34:36Z</time>
      </trkpt>
      <trkpt lat="45.875197760760784" lon="9.779668170958757">
        <ele>1712.8599999999999</ele>
        <time>2023-06-02T07:34:59Z</time>
      </trkpt>
      <trkpt lat="45.875158868730068" lon="9.7797073982656">
        <ele>1712.72</ele>
        <time>2023-06-02T07:35:07Z</time>
      </trkpt>
      <trkpt lat="45.875171525403857" lon="9.779751319438219">
        <ele>1712.3499999999999</ele>
        <time>2023-06-02T07:35:30Z</time>
      </trkpt>
      <trkpt lat="45.875138333067298" lon="9.779622489586473">
        <ele>1710.3099999999999</ele>
        <time>2023-06-02T07:36:01Z</time>
      </trkpt>
      <trkpt lat="45.875169513747096" lon="9.779625842347741">
        <ele>1710.03</ele>
        <time>2023-06-02T07:36:07Z</time>
      </trkpt>
      <trkpt lat="45.875166328623891" lon="9.779628273099661">
        <ele>1709.99</ele>
        <time>2023-06-02T07:36:10Z</time>
      </trkpt>
      <trkpt lat="45.875060297548771" lon="9.779695998877287">
        <ele>1706.03</ele>
        <time>2023-06-02T07:36:36Z</time>
      </trkpt>
      <trkpt lat="45.875075720250607" lon="9.779628021642566">
        <ele>1704.8900000000001</ele>
        <time>2023-06-02T07:36:55Z</time>
      </trkpt>
      <trkpt lat="45.875061806291342" lon="9.779632464051247">
        <ele>1704.1099999999999</ele>
        <time>2023-06-02T07:37:00Z</time>
      </trkpt>
      <trkpt lat="45.875072032213211" lon="9.779627183452249">
        <ele>1703.9400000000001</ele>
        <time>2023-06-02T07:37:02Z</time>
      </trkpt>
      <trkpt lat="45.875064404681325" lon="9.779676217585802">
        <ele>1700.4300000000001</ele>
        <time>2023-06-02T07:37:21Z</time>
      </trkpt>
      <trkpt lat="45.8750622253865" lon="9.779682420194149">
        <ele>1700.25</ele>
        <time>2023-06-02T07:37:22Z</time>
      </trkpt>
      <trkpt lat="45.875068595632911" lon="9.779673870652914">
        <ele>1699.8800000000001</ele>
        <time>2023-06-02T07:37:25Z</time>
      </trkpt>
      <trkpt lat="45.875074295327067" lon="9.779656520113349">
        <ele>1700.0899999999999</ele>
        <time>2023-06-02T07:37:27Z</time>
      </trkpt>
      <trkpt lat="45.87516138330102" lon="9.779493073001504">
        <ele>1700.0999999999999</ele>
        <time>2023-06-02T07:37:45Z</time>
      </trkpt>
      <trkpt lat="45.875145038589835" lon="9.779517212882638">
        <ele>1699.0899999999999</ele>
        <time>2023-06-02T07:38:02Z</time>
      </trkpt>
      <trkpt lat="45.875168424099684" lon="9.779471782967448">
        <ele>1699.1400000000001</ele>
        <time>2023-06-02T07:38:20Z</time>
      </trkpt>
      <trkpt lat="45.875199353322387" lon="9.779432807117701">
        <ele>1699.78</ele>
        <time>2023-06-02T07:38:40Z</time>
      </trkpt>
      <trkpt lat="45.875223828479648" lon="9.77941713295877">
        <ele>1701</ele>
        <time>2023-06-02T07:38:59Z</time>
      </trkpt>
      <trkpt lat="45.875223409384489" lon="9.779406907036901">
        <ele>1701.3399999999999</ele>
        <time>2023-06-02T07:39:17Z</time>
      </trkpt>
      <trkpt lat="45.875225756317377" lon="9.779413361102343">
        <ele>1702.3199999999999</ele>
        <time>2023-06-02T07:39:35Z</time>
      </trkpt>
      <trkpt lat="45.875237239524722" lon="9.779450828209519">
        <ele>1703.4000000000001</ele>
        <time>2023-06-02T07:39:54Z</time>
      </trkpt>
      <trkpt lat="45.875238999724388" lon="9.779469184577465">
        <ele>1704.52</ele>
        <time>2023-06-02T07:40:11Z</time>
      </trkpt>
      <trkpt lat="45.875241179019213" lon="9.779508160427213">
        <ele>1704.7</ele>
        <time>2023-06-02T07:40:19Z</time>
      </trkpt>
      <trkpt lat="45.875272024422884" lon="9.77954906411469">
        <ele>1705.6800000000001</ele>
        <time>2023-06-02T07:40:38Z</time>
      </trkpt>
      <trkpt lat="45.875338073819876" lon="9.779558703303337">
        <ele>1707.3299999999999</ele>
        <time>2023-06-02T07:40:55Z</time>
      </trkpt>
      <trkpt lat="45.875366069376469" lon="9.779562558978796">
        <ele>1708.5</ele>
        <time>2023-06-02T07:41:11Z</time>
      </trkpt>
      <trkpt lat="45.875417785719037" lon="9.779567504301667">
        <ele>1708.5899999999999</ele>
        <time>2023-06-02T07:41:30Z</time>
      </trkpt>
      <trkpt lat="45.875423988327384" lon="9.779579406604171">
        <ele>1708.1400000000001</ele>
        <time>2023-06-02T07:41:46Z</time>
      </trkpt>
      <trkpt lat="45.875429604202509" lon="9.779578484594822">
        <ele>1706.8099999999999</ele>
        <time>2023-06-02T07:42:05Z</time>
      </trkpt>
      <trkpt lat="45.875422982499003" lon="9.779576892033219">
        <ele>1707.3800000000001</ele>
        <time>2023-06-02T07:42:25Z</time>
      </trkpt>
      <trkpt lat="45.875426586717367" lon="9.779568761587143">
        <ele>1709.54</ele>
        <time>2023-06-02T07:42:55Z</time>
      </trkpt>
      <trkpt lat="45.875414600595832" lon="9.779578233137727">
        <ele>1709.5999999999999</ele>
        <time>2023-06-02T07:43:16Z</time>
      </trkpt>
      <trkpt lat="45.875430358573794" lon="9.779582759365439">
        <ele>1710.25</ele>
        <time>2023-06-02T07:43:37Z</time>
      </trkpt>
      <trkpt lat="45.875429352745414" lon="9.779610671103001">
        <ele>1710.6700000000001</ele>
        <time>2023-06-02T07:43:55Z</time>
      </trkpt>
      <trkpt lat="45.875442009419203" lon="9.779633805155754">
        <ele>1711.3399999999999</ele>
        <time>2023-06-02T07:44:18Z</time>
      </trkpt>
      <trkpt lat="45.875439997762442" lon="9.779654927551746">
        <ele>1711.48</ele>
        <time>2023-06-02T07:44:27Z</time>
      </trkpt>
      <trkpt lat="45.875419210642576" lon="9.779668841511011">
        <ele>1711.8499999999999</ele>
        <time>2023-06-02T07:44:47Z</time>
      </trkpt>
      <trkpt lat="45.875456761568785" lon="9.779707565903664">
        <ele>1712.1500000000001</ele>
        <time>2023-06-02T07:45:09Z</time>
      </trkpt>
      <trkpt lat="45.875474950298667" lon="9.77978459559381">
        <ele>1712.55</ele>
        <time>2023-06-02T07:45:27Z</time>
      </trkpt>
      <trkpt lat="45.875483918935061" lon="9.779780572280288">
        <ele>1712.8599999999999</ele>
        <time>2023-06-02T07:45:48Z</time>
      </trkpt>
      <trkpt lat="45.875476626679301" lon="9.779811836779118">
        <ele>1712.6900000000001</ele>
        <time>2023-06-02T07:46:06Z</time>
      </trkpt>
      <trkpt lat="45.875445445999503" lon="9.779814938083291">
        <ele>1715.49</ele>
        <time>2023-06-02T07:46:27Z</time>
      </trkpt>
      <trkpt lat="45.875405380502343" lon="9.779833797365427">
        <ele>1717.99</ele>
        <time>2023-06-02T07:46:47Z</time>
      </trkpt>
      <trkpt lat="45.875446535646915" lon="9.779819883406162">
        <ele>1721.1600000000001</ele>
        <time>2023-06-02T07:47:14Z</time>
      </trkpt>
      <trkpt lat="45.87547947652638" lon="9.779823739081621">
        <ele>1721.3</ele>
        <time>2023-06-02T07:47:38Z</time>
      </trkpt>
      <trkpt lat="45.875471848994493" lon="9.779820386320353">
        <ele>1721.1500000000001</ele>
        <time>2023-06-02T07:47:51Z</time>
      </trkpt>
      <trkpt lat="45.875476291403174" lon="9.779805550351739">
        <ele>1721.25</ele>
        <time>2023-06-02T07:48:11Z</time>
      </trkpt>
      <trkpt lat="45.875481320545077" lon="9.779802029952407">
        <ele>1721.25</ele>
        <time>2023-06-02T07:48:34Z</time>
      </trkpt>
      <trkpt lat="45.87546044960618" lon="9.779814351350069">
        <ele>1721.3800000000001</ele>
        <time>2023-06-02T07:48:58Z</time>
      </trkpt>
      <trkpt lat="45.87544527836144" lon="9.779830779880285">
        <ele>1722.8299999999999</ele>
        <time>2023-06-02T07:49:27Z</time>
      </trkpt>
      <trkpt lat="45.875438572838902" lon="9.779836060479283">
        <ele>1722.8199999999999</ele>
        <time>2023-06-02T07:49:29Z</time>
      </trkpt>
      <trkpt lat="45.875431029126048" lon="9.77984712459147">
        <ele>1722.1300000000001</ele>
        <time>2023-06-02T07:49:53Z</time>
      </trkpt>
      <trkpt lat="45.875438069924712" lon="9.779862798750401">
        <ele>1721.9200000000001</ele>
        <time>2023-06-02T07:50:14Z</time>
      </trkpt>
      <trkpt lat="45.875425413250923" lon="9.779888950288296">
        <ele>1723</ele>
        <time>2023-06-02T07:50:38Z</time>
      </trkpt>
      <trkpt lat="45.875432370230556" lon="9.779903450980783">
        <ele>1724.5899999999999</ele>
        <time>2023-06-02T07:51:01Z</time>
      </trkpt>
      <trkpt lat="45.875470172613859" lon="9.779909402132034">
        <ele>1726.4100000000001</ele>
        <time>2023-06-02T07:51:27Z</time>
      </trkpt>
      <trkpt lat="45.875459192320704" lon="9.779877802357078">
        <ele>1727.6700000000001</ele>
        <time>2023-06-02T07:51:51Z</time>
      </trkpt>
      <trkpt lat="45.875426838174462" lon="9.779848465695977">
        <ele>1730.77</ele>
        <time>2023-06-02T07:52:15Z</time>
      </trkpt>
      <trkpt lat="45.875397082418203" lon="9.779846454039216">
        <ele>1732.73</ele>
        <time>2023-06-02T07:52:32Z</time>
      </trkpt>
      <trkpt lat="45.875418120995164" lon="9.779840419068933">
        <ele>1735.0599999999999</ele>
        <time>2023-06-02T07:52:53Z</time>
      </trkpt>
      <trkpt lat="45.875421725213528" lon="9.779844023287296">
        <ele>1736.03</ele>
        <time>2023-06-02T07:53:12Z</time>
      </trkpt>
      <trkpt lat="45.875414600595832" lon="9.779844107106328">
        <ele>1735.24</ele>
        <time>2023-06-02T07:53:30Z</time>
      </trkpt>
      <trkpt lat="45.875394064933062" lon="9.77983639575541">
        <ele>1734.6400000000001</ele>
        <time>2023-06-02T07:53:48Z</time>
      </trkpt>
      <trkpt lat="45.875382414087653" lon="9.77982415817678">
        <ele>1736.1099999999999</ele>
        <time>2023-06-02T07:54:07Z</time>
      </trkpt>
      <trkpt lat="45.875385347753763" lon="9.77981292642653">
        <ele>1738.0599999999999</ele>
        <time>2023-06-02T07:54:35Z</time>
      </trkpt>
      <trkpt lat="45.875387107953429" lon="9.779811669141054">
        <ele>1738.1500000000001</ele>
        <time>2023-06-02T07:54:36Z</time>
      </trkpt>
      <trkpt lat="45.875355256721377" lon="9.779836311936379">
        <ele>1737.8599999999999</ele>
        <time>2023-06-02T07:54:52Z</time>
      </trkpt>
      <trkpt lat="45.875340839847922" lon="9.779837066307664">
        <ele>1738.01</ele>
        <time>2023-06-02T07:54:57Z</time>
      </trkpt>
      <trkpt lat="45.875289542600513" lon="9.779852153733373">
        <ele>1737.8900000000001</ele>
        <time>2023-06-02T07:55:19Z</time>
      </trkpt>
      <trkpt lat="45.875256350263953" lon="9.779797084629536">
        <ele>1737.6500000000001</ele>
        <time>2023-06-02T07:55:42Z</time>
      </trkpt>
      <trkpt lat="45.875287698581815" lon="9.779819548130035">
        <ele>1737.72</ele>
        <time>2023-06-02T07:56:04Z</time>
      </trkpt>
      <trkpt lat="45.875298092141747" lon="9.779833629727364">
        <ele>1737.8</ele>
        <time>2023-06-02T07:56:10Z</time>
      </trkpt>
      <trkpt lat="45.875255009159446" lon="9.779837150126696">
        <ele>1737.8199999999999</ele>
        <time>2023-06-02T07:56:13Z</time>
      </trkpt>
      <trkpt lat="45.875196922570467" lon="9.779857685789466">
        <ele>1737.96</ele>
        <time>2023-06-02T07:56:20Z</time>
      </trkpt>
      <trkpt lat="45.875177476555109" lon="9.779897416010499">
        <ele>1737.79</ele>
        <time>2023-06-02T07:56:26Z</time>
      </trkpt>
      <trkpt lat="45.875200359150767" lon="9.779914012178779">
        <ele>1737.9100000000001</ele>
        <time>2023-06-02T07:56:32Z</time>
      </trkpt>
      <trkpt lat="45.875208238139749" lon="9.779890375211835">
        <ele>1738.1600000000001</ele>
        <time>2023-06-02T07:56:38Z</time>
      </trkpt>
      <trkpt lat="45.875225504860282" lon="9.779824744910002">
        <ele>1738.5</ele>
        <time>2023-06-02T07:56:46Z</time>
      </trkpt>
      <trkpt lat="45.875248722732067" lon="9.779835138469935">
        <ele>1739.1600000000001</ele>
        <time>2023-06-02T07:57:12Z</time>
      </trkpt>
      <trkpt lat="45.87531141936779" lon="9.779868330806494">
        <ele>1741.78</ele>
        <time>2023-06-02T07:57:30Z</time>
      </trkpt>
      <trkpt lat="45.875313598662615" lon="9.779878472909331">
        <ele>1743.8900000000001</ele>
        <time>2023-06-02T07:57:50Z</time>
      </trkpt>
      <trkpt lat="45.875340085476637" lon="9.77985885925591">
        <ele>1746.45</ele>
        <time>2023-06-02T07:58:07Z</time>
      </trkpt>
      <trkpt lat="45.87529968470335" lon="9.779871180653572">
        <ele>1747.51</ele>
        <time>2023-06-02T07:58:20Z</time>
      </trkpt>
      <trkpt lat="45.87532457895577" lon="9.779858691617847">
        <ele>1749.4200000000001</ele>
        <time>2023-06-02T07:58:41Z</time>
      </trkpt>
      <trkpt lat="45.875355424359441" lon="9.779859110713005">
        <ele>1751.3399999999999</ele>
        <time>2023-06-02T07:58:59Z</time>
      </trkpt>
      <trkpt lat="45.875354250892997" lon="9.779877634719014">
        <ele>1752.6700000000001</ele>
        <time>2023-06-02T07:59:20Z</time>
      </trkpt>
      <trkpt lat="45.875379061326385" lon="9.779880065470934">
        <ele>1754.5899999999999</ele>
        <time>2023-06-02T07:59:51Z</time>
      </trkpt>
      <trkpt lat="45.875376295298338" lon="9.779893476516008">
        <ele>1755.4100000000001</ele>
        <time>2023-06-02T08:00:19Z</time>
      </trkpt>
      <trkpt lat="45.875384425744414" lon="9.77990479208529">
        <ele>1755.8399999999999</ele>
        <time>2023-06-02T08:00:49Z</time>
      </trkpt>
      <trkpt lat="45.875373696908355" lon="9.779906636103988">
        <ele>1755.99</ele>
        <time>2023-06-02T08:01:15Z</time>
      </trkpt>
      <trkpt lat="45.875372271984816" lon="9.779899511486292">
        <ele>1754.8099999999999</ele>
        <time>2023-06-02T08:01:34Z</time>
      </trkpt>
      <trkpt lat="45.875372439622879" lon="9.77989649400115">
        <ele>1755.1300000000001</ele>
        <time>2023-06-02T08:01:57Z</time>
      </trkpt>
      <trkpt lat="45.875313933938742" lon="9.779902612790465">
        <ele>1755.27</ele>
        <time>2023-06-02T08:02:19Z</time>
      </trkpt>
      <trkpt lat="45.875315358862281" lon="9.779905881732702">
        <ele>1755.6800000000001</ele>
        <time>2023-06-02T08:02:43Z</time>
      </trkpt>
      <trkpt lat="45.875297337770462" lon="9.77991065941751">
        <ele>1756.23</ele>
        <time>2023-06-02T08:03:07Z</time>
      </trkpt>
      <trkpt lat="45.875264061614871" lon="9.779935469850898">
        <ele>1755.7</ele>
        <time>2023-06-02T08:03:28Z</time>
      </trkpt>
      <trkpt lat="45.875240257009864" lon="9.779940331354737">
        <ele>1755.3900000000001</ele>
        <time>2023-06-02T08:03:54Z</time>
      </trkpt>
      <trkpt lat="45.875215278938413" lon="9.779960112646222">
        <ele>1755.4100000000001</ele>
        <time>2023-06-02T08:04:20Z</time>
      </trkpt>
      <trkpt lat="45.875199269503355" lon="9.779947707429528">
        <ele>1755.8199999999999</ele>
        <time>2023-06-02T08:04:41Z</time>
      </trkpt>
      <trkpt lat="45.875180158764124" lon="9.779973272234201">
        <ele>1756.5999999999999</ele>
        <time>2023-06-02T08:05:01Z</time>
      </trkpt>
      <trkpt lat="45.87516775354743" lon="9.779959358274937">
        <ele>1757.3699999999999</ele>
        <time>2023-06-02T08:05:21Z</time>
      </trkpt>
      <trkpt lat="45.875175045803189" lon="9.779951646924019">
        <ele>1758.0999999999999</ele>
        <time>2023-06-02T08:05:44Z</time>
      </trkpt>
      <trkpt lat="45.875162472948432" lon="9.779955837875605">
        <ele>1759.0699999999999</ele>
        <time>2023-06-02T08:06:08Z</time>
      </trkpt>
      <trkpt lat="45.875136237591505" lon="9.779955418780446">
        <ele>1759.8699999999999</ele>
        <time>2023-06-02T08:06:32Z</time>
      </trkpt>
      <trkpt lat="45.875120898708701" lon="9.779981821775436">
        <ele>1760.5</ele>
        <time>2023-06-02T08:06:55Z</time>
      </trkpt>
      <trkpt lat="45.875108493492007" lon="9.779979474842548">
        <ele>1761.3199999999999</ele>
        <time>2023-06-02T08:07:17Z</time>
      </trkpt>
      <trkpt lat="45.875098016113043" lon="9.779974445700645">
        <ele>1762.75</ele>
        <time>2023-06-02T08:07:41Z</time>
      </trkpt>
      <trkpt lat="45.875098099932075" lon="9.779981821775436">
        <ele>1763.29</ele>
        <time>2023-06-02T08:08:01Z</time>
      </trkpt>
      <trkpt lat="45.875134561210871" lon="9.779962543398142">
        <ele>1764.21</ele>
        <time>2023-06-02T08:08:23Z</time>
      </trkpt>
      <trkpt lat="45.87513942271471" lon="9.779964303597808">
        <ele>1764.3699999999999</ele>
        <time>2023-06-02T08:08:47Z</time>
      </trkpt>
      <trkpt lat="45.875140763819218" lon="9.779981821775436">
        <ele>1764.04</ele>
        <time>2023-06-02T08:09:16Z</time>
      </trkpt>
      <trkpt lat="45.875108661130071" lon="9.780001183971763">
        <ele>1763.6900000000001</ele>
        <time>2023-06-02T08:09:37Z</time>
      </trkpt>
      <trkpt lat="45.875117545947433" lon="9.779997915029526">
        <ele>1764.77</ele>
        <time>2023-06-02T08:09:57Z</time>
      </trkpt>
      <trkpt lat="45.875126598402858" lon="9.77998785674572">
        <ele>1765.6099999999999</ele>
        <time>2023-06-02T08:10:21Z</time>
      </trkpt>
      <trkpt lat="45.875116288661957" lon="9.779999256134033">
        <ele>1766.76</ele>
        <time>2023-06-02T08:10:42Z</time>
      </trkpt>
      <trkpt lat="45.875115031376481" lon="9.779993975535035">
        <ele>1767.5699999999999</ele>
        <time>2023-06-02T08:11:04Z</time>
      </trkpt>
      <trkpt lat="45.875115115195513" lon="9.779997663572431">
        <ele>1768.6300000000001</ele>
        <time>2023-06-02T08:11:26Z</time>
      </trkpt>
      <trkpt lat="45.875116037204862" lon="9.779999926686287">
        <ele>1770.0899999999999</ele>
        <time>2023-06-02T08:11:49Z</time>
      </trkpt>
      <trkpt lat="45.875144200399518" lon="9.779985593631864">
        <ele>1771.1700000000001</ele>
        <time>2023-06-02T08:12:14Z</time>
      </trkpt>
      <trkpt lat="45.875123161822557" lon="9.779994478449225">
        <ele>1772.0699999999999</ele>
        <time>2023-06-02T08:12:38Z</time>
      </trkpt>
      <trkpt lat="45.875125844031572" lon="9.780004452914">
        <ele>1773.25</ele>
        <time>2023-06-02T08:13:00Z</time>
      </trkpt>
      <trkpt lat="45.875130956992507" lon="9.780001770704985">
        <ele>1774.6199999999999</ele>
        <time>2023-06-02T08:13:23Z</time>
      </trkpt>
      <trkpt lat="45.875173872336745" lon="9.77999615482986">
        <ele>1775.8800000000001</ele>
        <time>2023-06-02T08:13:46Z</time>
      </trkpt>
      <trkpt lat="45.875182170420885" lon="9.779987689107657">
        <ele>1776.78</ele>
        <time>2023-06-02T08:13:57Z</time>
      </trkpt>
      <trkpt lat="45.875194910913706" lon="9.779988527297974">
        <ele>1776.01</ele>
        <time>2023-06-02T08:14:09Z</time>
      </trkpt>
      <trkpt lat="45.875196000561118" lon="9.779998753219843">
        <ele>1776.45</ele>
        <time>2023-06-02T08:14:19Z</time>
      </trkpt>
      <trkpt lat="45.875201364979148" lon="9.779999172315002">
        <ele>1776.8</ele>
        <time>2023-06-02T08:14:39Z</time>
      </trkpt>
      <trkpt lat="45.875191139057279" lon="9.779995987191796">
        <ele>1777.0599999999999</ele>
        <time>2023-06-02T08:15:04Z</time>
      </trkpt>
      <trkpt lat="45.875205053016543" lon="9.779968410730362">
        <ele>1779.24</ele>
        <time>2023-06-02T08:15:29Z</time>
      </trkpt>
      <trkpt lat="45.875235144048929" lon="9.779954832047224">
        <ele>1781.21</ele>
        <time>2023-06-02T08:15:58Z</time>
      </trkpt>
      <trkpt lat="45.875233383849263" lon="9.779956005513668">
        <ele>1782.5699999999999</ele>
        <time>2023-06-02T08:16:22Z</time>
      </trkpt>
      <trkpt lat="45.875227097421885" lon="9.779971763491631">
        <ele>1782.02</ele>
        <time>2023-06-02T08:16:51Z</time>
      </trkpt>
      <trkpt lat="45.875192983075976" lon="9.779993304982781">
        <ele>1781.5</ele>
        <time>2023-06-02T08:17:18Z</time>
      </trkpt>
      <trkpt lat="45.875217961147428" lon="9.779965812340379">
        <ele>1783.04</ele>
        <time>2023-06-02T08:17:44Z</time>
      </trkpt>
      <trkpt lat="45.875230198726058" lon="9.779953407123685">
        <ele>1784.3</ele>
        <time>2023-06-02T08:18:10Z</time>
      </trkpt>
      <trkpt lat="45.875248052179813" lon="9.779962291941047">
        <ele>1785.01</ele>
        <time>2023-06-02T08:18:35Z</time>
      </trkpt>
      <trkpt lat="45.875249058008194" lon="9.779958939179778">
        <ele>1785.3599999999999</ele>
        <time>2023-06-02T08:18:46Z</time>
      </trkpt>
      <trkpt lat="45.875248890370131" lon="9.779961286112666">
        <ele>1785.53</ele>
        <time>2023-06-02T08:18:58Z</time>
      </trkpt>
      <trkpt lat="45.875255595892668" lon="9.779966985806823">
        <ele>1785.9300000000001</ele>
        <time>2023-06-02T08:19:21Z</time>
      </trkpt>
      <trkpt lat="45.875275041908026" lon="9.77997318841517">
        <ele>1785.3099999999999</ele>
        <time>2023-06-02T08:19:38Z</time>
      </trkpt>
      <trkpt lat="45.875275628641248" lon="9.779966985806823">
        <ele>1785.52</ele>
        <time>2023-06-02T08:20:10Z</time>
      </trkpt>
      <trkpt lat="45.875252410769463" lon="9.779974361881614">
        <ele>1785.4200000000001</ele>
        <time>2023-06-02T08:20:28Z</time>
      </trkpt>
      <trkpt lat="45.875252075493336" lon="9.779970087110996">
        <ele>1785.8699999999999</ele>
        <time>2023-06-02T08:20:51Z</time>
      </trkpt>
      <trkpt lat="45.875265067443252" lon="9.779972182586789">
        <ele>1785.53</ele>
        <time>2023-06-02T08:21:15Z</time>
      </trkpt>
      <trkpt lat="45.875264396890998" lon="9.779973607510328">
        <ele>1784.9400000000001</ele>
        <time>2023-06-02T08:21:34Z</time>
      </trkpt>
      <trkpt lat="45.875263893976808" lon="9.779975535348058">
        <ele>1784.8099999999999</ele>
        <time>2023-06-02T08:22:02Z</time>
      </trkpt>
      <trkpt lat="45.8752400893718" lon="9.779980564489961">
        <ele>1784.6099999999999</ele>
        <time>2023-06-02T08:22:33Z</time>
      </trkpt>
      <trkpt lat="45.875249225646257" lon="9.779973523691297">
        <ele>1785.4100000000001</ele>
        <time>2023-06-02T08:22:59Z</time>
      </trkpt>
      <trkpt lat="45.875222571194172" lon="9.779987605288625">
        <ele>1785.5599999999999</ele>
        <time>2023-06-02T08:23:23Z</time>
      </trkpt>
      <trkpt lat="45.875222655013204" lon="9.779968746006489">
        <ele>1784.6700000000001</ele>
        <time>2023-06-02T08:23:46Z</time>
      </trkpt>
      <trkpt lat="45.875208154320717" lon="9.779978133738041">
        <ele>1784.0999999999999</ele>
        <time>2023-06-02T08:24:07Z</time>
      </trkpt>
      <trkpt lat="45.875175213441253" lon="9.779965644702315">
        <ele>1784.6300000000001</ele>
        <time>2023-06-02T08:24:28Z</time>
      </trkpt>
      <trkpt lat="45.875141015276313" lon="9.779988275840879">
        <ele>1784.52</ele>
        <time>2023-06-02T08:24:52Z</time>
      </trkpt>
      <trkpt lat="45.875139003619552" lon="9.779986934736371">
        <ele>1784.0899999999999</ele>
        <time>2023-06-02T08:25:13Z</time>
      </trkpt>
      <trkpt lat="45.875122994184494" lon="9.780017780140042">
        <ele>1783.45</ele>
        <time>2023-06-02T08:25:37Z</time>
      </trkpt>
      <trkpt lat="45.875133136287332" lon="9.780009482055903">
        <ele>1783.3699999999999</ele>
        <time>2023-06-02T08:25:41Z</time>
      </trkpt>
      <trkpt lat="45.875118635594845" lon="9.78000151924789">
        <ele>1783.55</ele>
        <time>2023-06-02T08:26:00Z</time>
      </trkpt>
      <trkpt lat="45.875118635594845" lon="9.780014511197805">
        <ele>1783.26</ele>
        <time>2023-06-02T08:26:23Z</time>
      </trkpt>
      <trkpt lat="45.875153923407197" lon="9.780001351609826">
        <ele>1784.1700000000001</ele>
        <time>2023-06-02T08:26:47Z</time>
      </trkpt>
      <trkpt lat="45.87519851513207" lon="9.779979307204485">
        <ele>1786.8299999999999</ele>
        <time>2023-06-02T08:26:55Z</time>
      </trkpt>
      <trkpt lat="45.875210501253605" lon="9.77997369132936">
        <ele>1787.3299999999999</ele>
        <time>2023-06-02T08:26:56Z</time>
      </trkpt>
      <trkpt lat="45.875265067443252" lon="9.779952401295304">
        <ele>1789.9100000000001</ele>
        <time>2023-06-02T08:26:59Z</time>
      </trkpt>
      <trkpt lat="45.875291638076305" lon="9.779937732964754">
        <ele>1791.5799999999999</ele>
        <time>2023-06-02T08:27:02Z</time>
      </trkpt>
      <trkpt lat="45.875302869826555" lon="9.779932452365756">
        <ele>1792.1700000000001</ele>
        <time>2023-06-02T08:27:03Z</time>
      </trkpt>
      <trkpt lat="45.875326506793499" lon="9.779924741014838">
        <ele>1793.51</ele>
        <time>2023-06-02T08:27:06Z</time>
      </trkpt>
      <trkpt lat="45.875378223136067" lon="9.77993312291801">
        <ele>1797.4200000000001</ele>
        <time>2023-06-02T08:27:29Z</time>
      </trkpt>
      <trkpt lat="45.875378223136067" lon="9.779939744621515">
        <ele>1798.04</ele>
        <time>2023-06-02T08:27:55Z</time>
      </trkpt>
      <trkpt lat="45.875375205650926" lon="9.779938235878944">
        <ele>1799.22</ele>
        <time>2023-06-02T08:28:27Z</time>
      </trkpt>
      <trkpt lat="45.8753851801157" lon="9.779928093776107">
        <ele>1799.6400000000001</ele>
        <time>2023-06-02T08:28:58Z</time>
      </trkpt>
      <trkpt lat="45.875374283641577" lon="9.779930524528027">
        <ele>1800.96</ele>
        <time>2023-06-02T08:29:22Z</time>
      </trkpt>
      <trkpt lat="45.875345282256603" lon="9.779948545619845">
        <ele>1802.4000000000001</ele>
        <time>2023-06-02T08:29:40Z</time>
      </trkpt>
      <trkpt lat="45.875325333327055" lon="9.779945276677609">
        <ele>1803.1600000000001</ele>
        <time>2023-06-02T08:30:02Z</time>
      </trkpt>
      <trkpt lat="45.875297086313367" lon="9.779919795691967">
        <ele>1806.04</ele>
        <time>2023-06-02T08:30:17Z</time>
      </trkpt>
      <trkpt lat="45.875285267829895" lon="9.779909988865256">
        <ele>1806.21</ele>
        <time>2023-06-02T08:30:35Z</time>
      </trkpt>
      <trkpt lat="45.875284345820546" lon="9.779893141239882">
        <ele>1807.4000000000001</ele>
        <time>2023-06-02T08:30:44Z</time>
      </trkpt>
      <trkpt lat="45.875280909240246" lon="9.77989062666893">
        <ele>1807.47</ele>
        <time>2023-06-02T08:30:45Z</time>
      </trkpt>
      <trkpt lat="45.875275377184153" lon="9.779886100441217">
        <ele>1808.46</ele>
        <time>2023-06-02T08:30:52Z</time>
      </trkpt>
      <trkpt lat="45.87527428753674" lon="9.779885597527027">
        <ele>1808.5</ele>
        <time>2023-06-02T08:30:53Z</time>
      </trkpt>
      <trkpt lat="45.875260205939412" lon="9.77987696416676">
        <ele>1809.51</ele>
        <time>2023-06-02T08:31:03Z</time>
      </trkpt>
      <trkpt lat="45.875246878713369" lon="9.779865816235542">
        <ele>1811.4400000000001</ele>
        <time>2023-06-02T08:31:21Z</time>
      </trkpt>
      <trkpt lat="45.875242268666625" lon="9.779854333028197">
        <ele>1812.1500000000001</ele>
        <time>2023-06-02T08:31:36Z</time>
      </trkpt>
      <trkpt lat="45.875228773802519" lon="9.779862212017179">
        <ele>1813.04</ele>
        <time>2023-06-02T08:31:50Z</time>
      </trkpt>
      <trkpt lat="45.875231875106692" lon="9.779858691617847">
        <ele>1813.9000000000001</ele>
        <time>2023-06-02T08:32:11Z</time>
      </trkpt>
      <trkpt lat="45.875233970582485" lon="9.779855757951737">
        <ele>1814.3399999999999</ele>
        <time>2023-06-02T08:32:31Z</time>
      </trkpt>
      <trkpt lat="45.875232545658946" lon="9.77985056117177">
        <ele>1814.51</ele>
        <time>2023-06-02T08:32:59Z</time>
      </trkpt>
      <trkpt lat="45.875234976410866" lon="9.779845783486962">
        <ele>1815.01</ele>
        <time>2023-06-02T08:33:32Z</time>
      </trkpt>
      <trkpt lat="45.875234641134739" lon="9.779846118763089">
        <ele>1815.1199999999999</ele>
        <time>2023-06-02T08:33:56Z</time>
      </trkpt>
      <trkpt lat="45.875232545658946" lon="9.779844777658582">
        <ele>1814.8499999999999</ele>
        <time>2023-06-02T08:34:20Z</time>
      </trkpt>
      <trkpt lat="45.875233886763453" lon="9.77984813041985">
        <ele>1815.54</ele>
        <time>2023-06-02T08:35:02Z</time>
      </trkpt>
      <trkpt lat="45.875232042744756" lon="9.779841927811503">
        <ele>1815.4400000000001</ele>
        <time>2023-06-02T08:35:28Z</time>
      </trkpt>
      <trkpt lat="45.875230534002185" lon="9.779843771830201">
        <ele>1815.22</ele>
        <time>2023-06-02T08:35:48Z</time>
      </trkpt>
      <trkpt lat="45.875232545658946" lon="9.779845112934709">
        <ele>1814.96</ele>
        <time>2023-06-02T08:36:10Z</time>
      </trkpt>
      <trkpt lat="45.875222822651267" lon="9.779844526201487">
        <ele>1815.25</ele>
        <time>2023-06-02T08:36:31Z</time>
      </trkpt>
      <trkpt lat="45.8751882892102" lon="9.779804963618517">
        <ele>1817.3900000000001</ele>
        <time>2023-06-02T08:36:47Z</time>
      </trkpt>
      <trkpt lat="45.875169262290001" lon="9.779797168448567">
        <ele>1818.71</ele>
        <time>2023-06-02T08:37:15Z</time>
      </trkpt>
      <trkpt lat="45.875138668343425" lon="9.779801610857248">
        <ele>1817.5999999999999</ele>
        <time>2023-06-02T08:37:31Z</time>
      </trkpt>
      <trkpt lat="45.875120311975479" lon="9.779806388542056">
        <ele>1817.5999999999999</ele>
        <time>2023-06-02T08:37:57Z</time>
      </trkpt>
      <trkpt lat="45.875087957829237" lon="9.779799766838551">
        <ele>1818.0699999999999</ele>
        <time>2023-06-02T08:38:15Z</time>
      </trkpt>
      <trkpt lat="45.875084688887" lon="9.779806639999151">
        <ele>1817.2</ele>
        <time>2023-06-02T08:38:25Z</time>
      </trkpt>
      <trkpt lat="45.875059626996517" lon="9.779792642220855">
        <ele>1814.1300000000001</ele>
        <time>2023-06-02T08:38:37Z</time>
      </trkpt>
      <trkpt lat="45.875048227608204" lon="9.779797419905663">
        <ele>1814.8399999999999</ele>
        <time>2023-06-02T08:38:51Z</time>
      </trkpt>
      <trkpt lat="45.875040600076318" lon="9.779795072972775">
        <ele>1815.9400000000001</ele>
        <time>2023-06-02T08:39:00Z</time>
      </trkpt>
      <trkpt lat="45.875028865411878" lon="9.779777806252241">
        <ele>1817.8499999999999</ele>
        <time>2023-06-02T08:39:15Z</time>
      </trkpt>
      <trkpt lat="45.875022830441594" lon="9.779769675806165">
        <ele>1817.25</ele>
        <time>2023-06-02T08:39:32Z</time>
      </trkpt>
      <trkpt lat="45.875014448538423" lon="9.779776046052575">
        <ele>1817.7</ele>
        <time>2023-06-02T08:39:45Z</time>
      </trkpt>
      <trkpt lat="45.87502408772707" lon="9.779762299731374">
        <ele>1818.6199999999999</ele>
        <time>2023-06-02T08:39:57Z</time>
      </trkpt>
      <trkpt lat="45.875009587034583" lon="9.779753834009171">
        <ele>1819.02</ele>
        <time>2023-06-02T08:40:14Z</time>
      </trkpt>
      <trkpt lat="45.874996930360794" lon="9.779755678027868">
        <ele>1819.8499999999999</ele>
        <time>2023-06-02T08:40:36Z</time>
      </trkpt>
      <trkpt lat="45.874957200139761" lon="9.779753917828202">
        <ele>1819.8499999999999</ele>
        <time>2023-06-02T08:40:58Z</time>
      </trkpt>
      <trkpt lat="45.874925432726741" lon="9.779776548966765">
        <ele>1819.73</ele>
        <time>2023-06-02T08:41:21Z</time>
      </trkpt>
      <trkpt lat="45.874932557344437" lon="9.779765401035547">
        <ele>1819.1199999999999</ele>
        <time>2023-06-02T08:41:36Z</time>
      </trkpt>
      <trkpt lat="45.874947812408209" lon="9.779771436005831">
        <ele>1817.9400000000001</ele>
        <time>2023-06-02T08:41:57Z</time>
      </trkpt>
      <trkpt lat="45.874957535415888" lon="9.779763054102659">
        <ele>1816.8499999999999</ele>
        <time>2023-06-02T08:42:18Z</time>
      </trkpt>
      <trkpt lat="45.874936496838927" lon="9.779771519824863">
        <ele>1815.6300000000001</ele>
        <time>2023-06-02T08:42:34Z</time>
      </trkpt>
      <trkpt lat="45.874950829893351" lon="9.779766742140055">
        <ele>1815.1500000000001</ele>
        <time>2023-06-02T08:42:56Z</time>
      </trkpt>
      <trkpt lat="45.874960217624903" lon="9.779738830402494">
        <ele>1814.05</ele>
        <time>2023-06-02T08:43:21Z</time>
      </trkpt>
      <trkpt lat="45.874923169612885" lon="9.779779566451907">
        <ele>1813.3699999999999</ele>
        <time>2023-06-02T08:43:43Z</time>
      </trkpt>
      <trkpt lat="45.874889055266976" lon="9.779834300279617">
        <ele>1813.5899999999999</ele>
        <time>2023-06-02T08:43:59Z</time>
      </trkpt>
      <trkpt lat="45.874876147136092" lon="9.779861122369766">
        <ele>1813.74</ele>
        <time>2023-06-02T08:44:18Z</time>
      </trkpt>
      <trkpt lat="45.87487162090838" lon="9.77988819591701">
        <ele>1814.3099999999999</ele>
        <time>2023-06-02T08:44:44Z</time>
      </trkpt>
      <trkpt lat="45.874881092458963" lon="9.779858104884625">
        <ele>1815.1099999999999</ele>
        <time>2023-06-02T08:45:08Z</time>
      </trkpt>
      <trkpt lat="45.874854773283005" lon="9.779908647760749">
        <ele>1815.03</ele>
        <time>2023-06-02T08:45:27Z</time>
      </trkpt>
      <trkpt lat="45.874886540696025" lon="9.779870845377445">
        <ele>1814.96</ele>
        <time>2023-06-02T08:45:41Z</time>
      </trkpt>
      <trkpt lat="45.874898694455624" lon="9.77985005825758">
        <ele>1814.51</ele>
        <time>2023-06-02T08:46:04Z</time>
      </trkpt>
      <trkpt lat="45.874901544302702" lon="9.779832120984793">
        <ele>1814.25</ele>
        <time>2023-06-02T08:46:27Z</time>
      </trkpt>
      <trkpt lat="45.874920655041933" lon="9.779803706333041">
        <ele>1814.48</ele>
        <time>2023-06-02T08:46:34Z</time>
      </trkpt>
      <trkpt lat="45.874915374442935" lon="9.779810830950737">
        <ele>1814.9400000000001</ele>
        <time>2023-06-02T08:46:57Z</time>
      </trkpt>
      <trkpt lat="45.874903807416558" lon="9.779824409633875">
        <ele>1815</ele>
        <time>2023-06-02T08:47:03Z</time>
      </trkpt>
      <trkpt lat="45.874932138249278" lon="9.779793228954077">
        <ele>1814.74</ele>
        <time>2023-06-02T08:47:13Z</time>
      </trkpt>
      <trkpt lat="45.874909339472651" lon="9.779807310551405">
        <ele>1814.22</ele>
        <time>2023-06-02T08:47:29Z</time>
      </trkpt>
      <trkpt lat="45.874909004196525" lon="9.779793983325362">
        <ele>1813.6500000000001</ele>
        <time>2023-06-02T08:47:51Z</time>
      </trkpt>
      <trkpt lat="45.874871369451284" lon="9.779854249209166">
        <ele>1814.3699999999999</ele>
        <time>2023-06-02T08:48:05Z</time>
      </trkpt>
      <trkpt lat="45.87487312965095" lon="9.779863134026527">
        <ele>1814.8800000000001</ele>
        <time>2023-06-02T08:48:27Z</time>
      </trkpt>
      <trkpt lat="45.874879667535424" lon="9.779860535636544">
        <ele>1814.6199999999999</ele>
        <time>2023-06-02T08:48:49Z</time>
      </trkpt>
      <trkpt lat="45.874876482412219" lon="9.77982759475708">
        <ele>1814.79</ele>
        <time>2023-06-02T08:49:11Z</time>
      </trkpt>
      <trkpt lat="45.874883607029915" lon="9.779787864536047">
        <ele>1814.53</ele>
        <time>2023-06-02T08:49:31Z</time>
      </trkpt>
      <trkpt lat="45.874874386936426" lon="9.779794905334711">
        <ele>1815.2</ele>
        <time>2023-06-02T08:49:55Z</time>
      </trkpt>
      <trkpt lat="45.874881176277995" lon="9.779824912548065">
        <ele>1816.3299999999999</ele>
        <time>2023-06-02T08:50:16Z</time>
      </trkpt>
      <trkpt lat="45.874870866537094" lon="9.779823906719685">
        <ele>1816.1800000000001</ele>
        <time>2023-06-02T08:50:38Z</time>
      </trkpt>
      <trkpt lat="45.874853432178497" lon="9.77983639575541">
        <ele>1816.27</ele>
        <time>2023-06-02T08:50:59Z</time>
      </trkpt>
      <trkpt lat="45.874846475198865" lon="9.779834803193808">
        <ele>1816.0699999999999</ele>
        <time>2023-06-02T08:51:19Z</time>
      </trkpt>
      <trkpt lat="45.874847816303372" lon="9.779810076579452">
        <ele>1816.1400000000001</ele>
        <time>2023-06-02T08:51:43Z</time>
      </trkpt>
      <trkpt lat="45.874850498512387" lon="9.779824241995812">
        <ele>1816.1800000000001</ele>
        <time>2023-06-02T08:51:52Z</time>
      </trkpt>
      <trkpt lat="45.87486726231873" lon="9.779827175661922">
        <ele>1816.45</ele>
        <time>2023-06-02T08:52:07Z</time>
      </trkpt>
      <trkpt lat="45.874877907335758" lon="9.779845615848899">
        <ele>1816.48</ele>
        <time>2023-06-02T08:52:28Z</time>
      </trkpt>
      <trkpt lat="45.874879164621234" lon="9.779854668304324">
        <ele>1816.47</ele>
        <time>2023-06-02T08:52:33Z</time>
      </trkpt>
      <trkpt lat="45.874882349744439" lon="9.779873946681619">
        <ele>1816.53</ele>
        <time>2023-06-02T08:52:51Z</time>
      </trkpt>
      <trkpt lat="45.874874722212553" lon="9.779877215623856">
        <ele>1816.72</ele>
        <time>2023-06-02T08:53:15Z</time>
      </trkpt>
      <trkpt lat="45.874871369451284" lon="9.779925746843219">
        <ele>1816.6600000000001</ele>
        <time>2023-06-02T08:53:41Z</time>
      </trkpt>
      <trkpt lat="45.874887797981501" lon="9.779897164553404">
        <ele>1816.6600000000001</ele>
        <time>2023-06-02T08:54:03Z</time>
      </trkpt>
      <trkpt lat="45.874915039166808" lon="9.779928345233202">
        <ele>1817.0799999999999</ele>
        <time>2023-06-02T08:54:27Z</time>
      </trkpt>
      <trkpt lat="45.874907411634922" lon="9.779955334961414">
        <ele>1817.21</ele>
        <time>2023-06-02T08:54:53Z</time>
      </trkpt>
      <trkpt lat="45.874915709719062" lon="9.77997318841517">
        <ele>1817.0899999999999</ele>
        <time>2023-06-02T08:55:18Z</time>
      </trkpt>
      <trkpt lat="45.87491755373776" lon="9.779974864795804">
        <ele>1817.0899999999999</ele>
        <time>2023-06-02T08:55:20Z</time>
      </trkpt>
      <trkpt lat="45.874883271753788" lon="9.779869252815843">
        <ele>1816.8099999999999</ele>
        <time>2023-06-02T08:55:48Z</time>
      </trkpt>
      <trkpt lat="45.874872794374824" lon="9.779850980266929">
        <ele>1816.8399999999999</ele>
        <time>2023-06-02T08:56:03Z</time>
      </trkpt>
      <trkpt lat="45.874890061095357" lon="9.779920550063252">
        <ele>1816.8</ele>
        <time>2023-06-02T08:56:29Z</time>
      </trkpt>
      <trkpt lat="45.874890564009547" lon="9.779918538406491">
        <ele>1816.8499999999999</ele>
        <time>2023-06-02T08:56:31Z</time>
      </trkpt>
      <trkpt lat="45.874913027510047" lon="9.779949635267258">
        <ele>1817.96</ele>
        <time>2023-06-02T08:56:56Z</time>
      </trkpt>
      <trkpt lat="45.874893413856626" lon="9.779915269464254">
        <ele>1818.1400000000001</ele>
        <time>2023-06-02T08:57:21Z</time>
      </trkpt>
      <trkpt lat="45.874869525432587" lon="9.7799336258322">
        <ele>1818.0599999999999</ele>
        <time>2023-06-02T08:57:50Z</time>
      </trkpt>
      <trkpt lat="45.87486332282424" lon="9.779929015785456">
        <ele>1818.0699999999999</ele>
        <time>2023-06-02T08:58:13Z</time>
      </trkpt>
      <trkpt lat="45.874885367229581" lon="9.779922729358077">
        <ele>1818.01</ele>
        <time>2023-06-02T08:58:39Z</time>
      </trkpt>
      <trkpt lat="45.874869022518396" lon="9.779964806511998">
        <ele>1816.95</ele>
        <time>2023-06-02T08:59:07Z</time>
      </trkpt>
      <trkpt lat="45.87485795840621" lon="9.77993605658412">
        <ele>1816.5</ele>
        <time>2023-06-02T08:59:33Z</time>
      </trkpt>
      <trkpt lat="45.874865334481001" lon="9.779932871460915">
        <ele>1814.6500000000001</ele>
        <time>2023-06-02T09:00:03Z</time>
      </trkpt>
      <trkpt lat="45.874863574281335" lon="9.779933206737042">
        <ele>1812.8399999999999</ele>
        <time>2023-06-02T09:00:31Z</time>
      </trkpt>
      <trkpt lat="45.874863490462303" lon="9.7799077257514">
        <ele>1810.9000000000001</ele>
        <time>2023-06-02T09:00:57Z</time>
      </trkpt>
      <trkpt lat="45.87486868724227" lon="9.779960867017508">
        <ele>1810.3599999999999</ele>
        <time>2023-06-02T09:01:17Z</time>
      </trkpt>
      <trkpt lat="45.874868435785174" lon="9.779946031048894">
        <ele>1808.6400000000001</ele>
        <time>2023-06-02T09:02:01Z</time>
      </trkpt>
      <trkpt lat="45.874855276197195" lon="9.779967488721013">
        <ele>1808.3599999999999</ele>
        <time>2023-06-02T09:02:29Z</time>
      </trkpt>
      <trkpt lat="45.874848151579499" lon="9.779998837038875">
        <ele>1807.29</ele>
        <time>2023-06-02T09:02:53Z</time>
      </trkpt>
      <trkpt lat="45.874837338924408" lon="9.780056839808822">
        <ele>1805.97</ele>
        <time>2023-06-02T09:03:17Z</time>
      </trkpt>
      <trkpt lat="45.874845888465643" lon="9.780063293874264">
        <ele>1806.3199999999999</ele>
        <time>2023-06-02T09:03:37Z</time>
      </trkpt>
      <trkpt lat="45.87485795840621" lon="9.780110064893961">
        <ele>1806.78</ele>
        <time>2023-06-02T09:03:52Z</time>
      </trkpt>
      <trkpt lat="45.874866843223572" lon="9.780135462060571">
        <ele>1807.0899999999999</ele>
        <time>2023-06-02T09:04:10Z</time>
      </trkpt>
      <trkpt lat="45.874871956184506" lon="9.780143173411489">
        <ele>1807</ele>
        <time>2023-06-02T09:04:33Z</time>
      </trkpt>
      <trkpt lat="45.874862484633923" lon="9.780144849792123">
        <ele>1806.97</ele>
        <time>2023-06-02T09:04:41Z</time>
      </trkpt>
      <trkpt lat="45.874860556796193" lon="9.780123308300972">
        <ele>1806.5</ele>
        <time>2023-06-02T09:05:07Z</time>
      </trkpt>
      <trkpt lat="45.874858209863305" lon="9.780096402391791">
        <ele>1805.97</ele>
        <time>2023-06-02T09:05:27Z</time>
      </trkpt>
      <trkpt lat="45.874856617301702" lon="9.780130349099636">
        <ele>1805.49</ele>
        <time>2023-06-02T09:05:53Z</time>
      </trkpt>
      <trkpt lat="45.874844798818231" lon="9.78016815148294">
        <ele>1805.54</ele>
        <time>2023-06-02T09:06:15Z</time>
      </trkpt>
      <trkpt lat="45.874869776889682" lon="9.780088188126683">
        <ele>1807.3399999999999</ele>
        <time>2023-06-02T09:06:42Z</time>
      </trkpt>
      <trkpt lat="45.874882433563471" lon="9.779992466792464">
        <ele>1810.51</ele>
        <time>2023-06-02T09:07:06Z</time>
      </trkpt>
      <trkpt lat="45.874884780496359" lon="9.780042758211494">
        <ele>1811.7</ele>
        <time>2023-06-02T09:07:31Z</time>
      </trkpt>
      <trkpt lat="45.874855192378163" lon="9.780059941112995">
        <ele>1812.24</ele>
        <time>2023-06-02T09:07:59Z</time>
      </trkpt>
      <trkpt lat="45.874867765232921" lon="9.780042758211494">
        <ele>1813.0599999999999</ele>
        <time>2023-06-02T09:08:26Z</time>
      </trkpt>
      <trkpt lat="45.874874638393521" lon="9.780072933062911">
        <ele>1813.5799999999999</ele>
        <time>2023-06-02T09:08:53Z</time>
      </trkpt>
      <trkpt lat="45.874845217913389" lon="9.780090032145381">
        <ele>1813.76</ele>
        <time>2023-06-02T09:09:14Z</time>
      </trkpt>
      <trkpt lat="45.87484429590404" lon="9.780057594180107">
        <ele>1815.2</ele>
        <time>2023-06-02T09:09:39Z</time>
      </trkpt>
      <trkpt lat="45.874873716384172" lon="9.780000932514668">
        <ele>1816.3</ele>
        <time>2023-06-02T09:10:05Z</time>
      </trkpt>
      <trkpt lat="45.874876482412219" lon="9.779948964715004">
        <ele>1817.77</ele>
        <time>2023-06-02T09:10:29Z</time>
      </trkpt>
      <trkpt lat="45.874878410249949" lon="9.779948964715004">
        <ele>1818.5699999999999</ele>
        <time>2023-06-02T09:10:54Z</time>
      </trkpt>
      <trkpt lat="45.874905232340097" lon="9.779904540628195">
        <ele>1818.8699999999999</ele>
        <time>2023-06-02T09:11:19Z</time>
      </trkpt>
      <trkpt lat="45.874893832951784" lon="9.779923819005489">
        <ele>1819.5699999999999</ele>
        <time>2023-06-02T09:11:40Z</time>
      </trkpt>
      <trkpt lat="45.874887127429247" lon="9.779933542013168">
        <ele>1819.71</ele>
        <time>2023-06-02T09:12:03Z</time>
      </trkpt>
      <trkpt lat="45.874888971447945" lon="9.779959525913">
        <ele>1819.23</ele>
        <time>2023-06-02T09:12:21Z</time>
      </trkpt>
      <trkpt lat="45.874892575666308" lon="9.780006296932697">
        <ele>1820.0899999999999</ele>
        <time>2023-06-02T09:12:43Z</time>
      </trkpt>
      <trkpt lat="45.874903555959463" lon="9.780041333287954">
        <ele>1820.4200000000001</ele>
        <time>2023-06-02T09:13:04Z</time>
      </trkpt>
      <trkpt lat="45.874878242611885" lon="9.780065640807152">
        <ele>1820.6800000000001</ele>
        <time>2023-06-02T09:13:27Z</time>
      </trkpt>
      <trkpt lat="45.87487162090838" lon="9.780038399621844">
        <ele>1821.28</ele>
        <time>2023-06-02T09:13:53Z</time>
      </trkpt>
      <trkpt lat="45.874900119379163" lon="9.780031191185117">
        <ele>1820.8699999999999</ele>
        <time>2023-06-02T09:14:17Z</time>
      </trkpt>
      <trkpt lat="45.874914368614554" lon="9.780011074617505">
        <ele>1822.1300000000001</ele>
        <time>2023-06-02T09:14:41Z</time>
      </trkpt>
      <trkpt lat="45.874920068308711" lon="9.780024234205484">
        <ele>1822.0999999999999</ele>
        <time>2023-06-02T09:14:45Z</time>
      </trkpt>
      <trkpt lat="45.874912105500698" lon="9.780012415722013">
        <ele>1821.8</ele>
        <time>2023-06-02T09:14:51Z</time>
      </trkpt>
      <trkpt lat="45.874914117157459" lon="9.7800372261554">
        <ele>1823.23</ele>
        <time>2023-06-02T09:15:16Z</time>
      </trkpt>
      <trkpt lat="45.87491805665195" lon="9.780039489269257">
        <ele>1824.8800000000001</ele>
        <time>2023-06-02T09:15:34Z</time>
      </trkpt>
      <trkpt lat="45.874902969226241" lon="9.78007385507226">
        <ele>1825.23</ele>
        <time>2023-06-02T09:15:53Z</time>
      </trkpt>
      <trkpt lat="45.874892827123404" lon="9.780051056295633">
        <ele>1828.5599999999999</ele>
        <time>2023-06-02T09:16:16Z</time>
      </trkpt>
      <trkpt lat="45.874890396371484" lon="9.780038651078939">
        <ele>1829.0799999999999</ele>
        <time>2023-06-02T09:16:17Z</time>
      </trkpt>
      <trkpt lat="45.874876985326409" lon="9.780022976920009">
        <ele>1833.76</ele>
        <time>2023-06-02T09:16:40Z</time>
      </trkpt>
      <trkpt lat="45.874883774667978" lon="9.779957849532366">
        <ele>1839.1800000000001</ele>
        <time>2023-06-02T09:17:04Z</time>
      </trkpt>
      <trkpt lat="45.87489165365696" lon="9.779959609732032">
        <ele>1839.71</ele>
        <time>2023-06-02T09:17:18Z</time>
      </trkpt>
      <trkpt lat="45.874899532645941" lon="9.779949886724353">
        <ele>1840.3900000000001</ele>
        <time>2023-06-02T09:17:36Z</time>
      </trkpt>
      <trkpt lat="45.874878996983171" lon="9.779911832883954">
        <ele>1844.8800000000001</ele>
        <time>2023-06-02T09:18:06Z</time>
      </trkpt>
      <trkpt lat="45.874878074973822" lon="9.77989892475307">
        <ele>1848.49</ele>
        <time>2023-06-02T09:18:32Z</time>
      </trkpt>
      <trkpt lat="45.874887714162469" lon="9.779877383261919">
        <ele>1850.6099999999999</ele>
        <time>2023-06-02T09:18:56Z</time>
      </trkpt>
      <trkpt lat="45.874882768839598" lon="9.779848633334041">
        <ele>1851.8499999999999</ele>
        <time>2023-06-02T09:19:18Z</time>
      </trkpt>
      <trkpt lat="45.874879499897361" lon="9.779838658869267">
        <ele>1852.8800000000001</ele>
        <time>2023-06-02T09:19:36Z</time>
      </trkpt>
      <trkpt lat="45.87487849406898" lon="9.779855506494641">
        <ele>1854.4300000000001</ele>
        <time>2023-06-02T09:19:56Z</time>
      </trkpt>
      <trkpt lat="45.874865083023906" lon="9.779846705496311">
        <ele>1855.0999999999999</ele>
        <time>2023-06-02T09:20:15Z</time>
      </trkpt>
      <trkpt lat="45.874882517382503" lon="9.779815189540386">
        <ele>1857.1099999999999</ele>
        <time>2023-06-02T09:20:36Z</time>
      </trkpt>
      <trkpt lat="45.874881176277995" lon="9.779842346906662">
        <ele>1857.72</ele>
        <time>2023-06-02T09:20:57Z</time>
      </trkpt>
      <trkpt lat="45.874906573444605" lon="9.779928177595139">
        <ele>1857.95</ele>
        <time>2023-06-02T09:21:23Z</time>
      </trkpt>
      <trkpt lat="45.874910261482" lon="9.779920885339379">
        <ele>1858.1099999999999</ele>
        <time>2023-06-02T09:21:37Z</time>
      </trkpt>
      <trkpt lat="45.874934233725071" lon="9.779925663024187">
        <ele>1858.7</ele>
        <time>2023-06-02T09:22:00Z</time>
      </trkpt>
      <trkpt lat="45.874930210411549" lon="9.779950305819511">
        <ele>1858.3099999999999</ele>
        <time>2023-06-02T09:22:20Z</time>
      </trkpt>
      <trkpt lat="45.874942950904369" lon="9.780017947778106">
        <ele>1857.9100000000001</ele>
        <time>2023-06-02T09:22:43Z</time>
      </trkpt>
      <trkpt lat="45.874949069693685" lon="9.780048122629523">
        <ele>1857.5599999999999</ele>
        <time>2023-06-02T09:23:07Z</time>
      </trkpt>
      <trkpt lat="45.874911099672318" lon="9.779989616945386">
        <ele>1861.1600000000001</ele>
        <time>2023-06-02T09:23:32Z</time>
      </trkpt>
      <trkpt lat="45.874896682798862" lon="9.7800078894943">
        <ele>1864.6199999999999</ele>
        <time>2023-06-02T09:23:53Z</time>
      </trkpt>
      <trkpt lat="45.874879751354456" lon="9.780012331902981">
        <ele>1865.9000000000001</ele>
        <time>2023-06-02T09:24:12Z</time>
      </trkpt>
      <trkpt lat="45.874889558181167" lon="9.779995065182447">
        <ele>1867.78</ele>
        <time>2023-06-02T09:24:26Z</time>
      </trkpt>
      <trkpt lat="45.874897185713053" lon="9.779983749613166">
        <ele>1869.8399999999999</ele>
        <time>2023-06-02T09:24:43Z</time>
      </trkpt>
      <trkpt lat="45.874911518767476" lon="9.779990203678608">
        <ele>1871.7</ele>
        <time>2023-06-02T09:25:02Z</time>
      </trkpt>
      <trkpt lat="45.874913530424237" lon="9.779987102374435">
        <ele>1871.8699999999999</ele>
        <time>2023-06-02T09:25:05Z</time>
      </trkpt>
      <trkpt lat="45.874918643385172" lon="9.779993807896972">
        <ele>1872.6400000000001</ele>
        <time>2023-06-02T09:25:18Z</time>
      </trkpt>
      <trkpt lat="45.8749068249017" lon="9.779999172315002">
        <ele>1873.5</ele>
        <time>2023-06-02T09:25:37Z</time>
      </trkpt>
      <trkpt lat="45.874893330037594" lon="9.77999079041183">
        <ele>1874.3199999999999</ele>
        <time>2023-06-02T09:25:56Z</time>
      </trkpt>
      <trkpt lat="45.874911518767476" lon="9.779966399073601">
        <ele>1874.9000000000001</ele>
        <time>2023-06-02T09:26:16Z</time>
      </trkpt>
      <trkpt lat="45.874915542080998" lon="9.779959190636873">
        <ele>1875.6099999999999</ele>
        <time>2023-06-02T09:26:34Z</time>
      </trkpt>
      <trkpt lat="45.874924259260297" lon="9.779949635267258">
        <ele>1875.3800000000001</ele>
        <time>2023-06-02T09:27:05Z</time>
      </trkpt>
      <trkpt lat="45.874892408028245" lon="9.779922477900982">
        <ele>1876.8</ele>
        <time>2023-06-02T09:27:27Z</time>
      </trkpt>
      <trkpt lat="45.874887378886342" lon="9.779919711872935">
        <ele>1877.5699999999999</ele>
        <time>2023-06-02T09:27:45Z</time>
      </trkpt>
      <trkpt lat="45.874885283410549" lon="9.77992189116776">
        <ele>1877.3699999999999</ele>
        <time>2023-06-02T09:28:08Z</time>
      </trkpt>
      <trkpt lat="45.874881763011217" lon="9.77991946041584">
        <ele>1877.95</ele>
        <time>2023-06-02T09:28:27Z</time>
      </trkpt>
      <trkpt lat="45.874880254268646" lon="9.779928596690297">
        <ele>1878.24</ele>
        <time>2023-06-02T09:28:48Z</time>
      </trkpt>
      <trkpt lat="45.874828370288014" lon="9.779906384646893">
        <ele>1881.48</ele>
        <time>2023-06-02T09:29:09Z</time>
      </trkpt>
      <trkpt lat="45.874787215143442" lon="9.779894901439548">
        <ele>1883.48</ele>
        <time>2023-06-02T09:29:23Z</time>
      </trkpt>
      <trkpt lat="45.874731643125415" lon="9.779894817620516">
        <ele>1885.52</ele>
        <time>2023-06-02T09:29:40Z</time>
      </trkpt>
      <trkpt lat="45.874718986451626" lon="9.779899679124355">
        <ele>1887.78</ele>
        <time>2023-06-02T09:30:00Z</time>
      </trkpt>
      <trkpt lat="45.874680262058973" lon="9.779909234493971">
        <ele>1890.1600000000001</ele>
        <time>2023-06-02T09:30:17Z</time>
      </trkpt>
      <trkpt lat="45.874645477160811" lon="9.779911749064922">
        <ele>1893.5799999999999</ele>
        <time>2023-06-02T09:30:37Z</time>
      </trkpt>
      <trkpt lat="45.874639693647623" lon="9.77991409599781">
        <ele>1895.3399999999999</ele>
        <time>2023-06-02T09:30:59Z</time>
      </trkpt>
      <trkpt lat="45.874638939276338" lon="9.779921052977443">
        <ele>1896.6900000000001</ele>
        <time>2023-06-02T09:31:18Z</time>
      </trkpt>
      <trkpt lat="45.874637514352798" lon="9.779905797913671">
        <ele>1897.21</ele>
        <time>2023-06-02T09:31:58Z</time>
      </trkpt>
      <trkpt lat="45.874633323401213" lon="9.779904875904322">
        <ele>1897.8099999999999</ele>
        <time>2023-06-02T09:32:23Z</time>
      </trkpt>
      <trkpt lat="45.874625192955136" lon="9.779900517314673">
        <ele>1898.27</ele>
        <time>2023-06-02T09:33:09Z</time>
      </trkpt>
      <trkpt lat="45.87461513467133" lon="9.779886770993471">
        <ele>1896.3</ele>
        <time>2023-06-02T09:33:54Z</time>
      </trkpt>
      <trkpt lat="45.874623851850629" lon="9.779892051592469">
        <ele>1895.53</ele>
        <time>2023-06-02T09:34:41Z</time>
      </trkpt>
      <trkpt lat="45.874634580686688" lon="9.779912419617176">
        <ele>1896.5699999999999</ele>
        <time>2023-06-02T09:35:05Z</time>
      </trkpt>
      <trkpt lat="45.874625947326422" lon="9.779914263635874">
        <ele>1896.54</ele>
        <time>2023-06-02T09:35:19Z</time>
      </trkpt>
      <trkpt lat="45.874612787738442" lon="9.77991602383554">
        <ele>1897.79</ele>
        <time>2023-06-02T09:35:47Z</time>
      </trkpt>
      <trkpt lat="45.874618906527758" lon="9.779912335798144">
        <ele>1897.9100000000001</ele>
        <time>2023-06-02T09:36:13Z</time>
      </trkpt>
      <trkpt lat="45.874620750546455" lon="9.77991065941751">
        <ele>1898.3099999999999</ele>
        <time>2023-06-02T09:36:41Z</time>
      </trkpt>
      <trkpt lat="45.8746287971735" lon="9.779919376596808">
        <ele>1898.5899999999999</ele>
        <time>2023-06-02T09:37:05Z</time>
      </trkpt>
      <trkpt lat="45.874628378078341" lon="9.779918789863586">
        <ele>1899</ele>
        <time>2023-06-02T09:37:36Z</time>
      </trkpt>
      <trkpt lat="45.874622007831931" lon="9.77992189116776">
        <ele>1898.8299999999999</ele>
        <time>2023-06-02T09:38:02Z</time>
      </trkpt>
      <trkpt lat="45.874610105529428" lon="9.779920214787126">
        <ele>1898.45</ele>
        <time>2023-06-02T09:38:30Z</time>
      </trkpt>
      <trkpt lat="45.87461069226265" lon="9.779922310262919">
        <ele>1898.3599999999999</ele>
        <time>2023-06-02T09:38:52Z</time>
      </trkpt>
      <trkpt lat="45.874615805223584" lon="9.779918286949396">
        <ele>1897.98</ele>
        <time>2023-06-02T09:39:13Z</time>
      </trkpt>
      <trkpt lat="45.874617397785187" lon="9.779914682731032">
        <ele>1897.9200000000001</ele>
        <time>2023-06-02T09:40:04Z</time>
      </trkpt>
      <trkpt lat="45.874612787738442" lon="9.779913509264588">
        <ele>1897.5999999999999</ele>
        <time>2023-06-02T09:40:33Z</time>
      </trkpt>
      <trkpt lat="45.874606836587191" lon="9.779921052977443">
        <ele>1897.9100000000001</ele>
        <time>2023-06-02T09:41:06Z</time>
      </trkpt>
      <trkpt lat="45.87460926733911" lon="9.779920550063252">
        <ele>1898.04</ele>
        <time>2023-06-02T09:41:37Z</time>
      </trkpt>
      <trkpt lat="45.874608848243952" lon="9.77991702966392">
        <ele>1897.8800000000001</ele>
        <time>2023-06-02T09:42:06Z</time>
      </trkpt>
      <trkpt lat="45.874610776081681" lon="9.779919628053904">
        <ele>1897.9300000000001</ele>
        <time>2023-06-02T09:42:39Z</time>
      </trkpt>
      <trkpt lat="45.874610105529428" lon="9.779922142624855">
        <ele>1898.3399999999999</ele>
        <time>2023-06-02T09:43:02Z</time>
      </trkpt>
      <trkpt lat="45.874594263732433" lon="9.779966399073601">
        <ele>1898.47</ele>
        <time>2023-06-02T09:43:25Z</time>
      </trkpt>
      <trkpt lat="45.874594347551465" lon="9.779960950836539">
        <ele>1897.6900000000001</ele>
        <time>2023-06-02T09:43:42Z</time>
      </trkpt>
      <trkpt lat="45.87458923459053" lon="9.779962291941047">
        <ele>1896.4100000000001</ele>
        <time>2023-06-02T09:44:28Z</time>
      </trkpt>
      <trkpt lat="45.874592922627926" lon="9.779946366325021">
        <ele>1895.6500000000001</ele>
        <time>2023-06-02T09:44:39Z</time>
      </trkpt>
      <trkpt lat="45.874597448855639" lon="9.779952485114336">
        <ele>1896.0599999999999</ele>
        <time>2023-06-02T09:44:54Z</time>
      </trkpt>
      <trkpt lat="45.874591246247292" lon="9.779950054362416">
        <ele>1896.24</ele>
        <time>2023-06-02T09:45:06Z</time>
      </trkpt>
      <trkpt lat="45.874595269560814" lon="9.77995709516108">
        <ele>1897.0699999999999</ele>
        <time>2023-06-02T09:45:25Z</time>
      </trkpt>
      <trkpt lat="45.874601220712066" lon="9.779954496771097">
        <ele>1898.01</ele>
        <time>2023-06-02T09:45:59Z</time>
      </trkpt>
      <trkpt lat="45.87461119517684" lon="9.779942845925689">
        <ele>1898.04</ele>
        <time>2023-06-02T09:46:17Z</time>
      </trkpt>
      <trkpt lat="45.874607590958476" lon="9.779938068240881">
        <ele>1898.02</ele>
        <time>2023-06-02T09:46:45Z</time>
      </trkpt>
      <trkpt lat="45.874602477997541" lon="9.779928848147392">
        <ele>1897.97</ele>
        <time>2023-06-02T09:47:18Z</time>
      </trkpt>
      <trkpt lat="45.874604992568493" lon="9.779927926138043">
        <ele>1898.1700000000001</ele>
        <time>2023-06-02T09:47:44Z</time>
      </trkpt>
      <trkpt lat="45.874610021710396" lon="9.779914263635874">
        <ele>1898.8800000000001</ele>
        <time>2023-06-02T09:48:14Z</time>
      </trkpt>
      <trkpt lat="45.874605663120747" lon="9.779940415173769">
        <ele>1899.05</ele>
        <time>2023-06-02T09:48:35Z</time>
      </trkpt>
      <trkpt lat="45.874605495482683" lon="9.779932787641883">
        <ele>1899.03</ele>
        <time>2023-06-02T09:48:56Z</time>
      </trkpt>
      <trkpt lat="45.874603986740112" lon="9.779927590861917">
        <ele>1899.3</ele>
        <time>2023-06-02T09:49:22Z</time>
      </trkpt>
      <trkpt lat="45.874609937891364" lon="9.779930943623185">
        <ele>1899.3900000000001</ele>
        <time>2023-06-02T09:49:38Z</time>
      </trkpt>
      <trkpt lat="45.874613793566823" lon="9.77992432191968">
        <ele>1899.28</ele>
        <time>2023-06-02T09:50:04Z</time>
      </trkpt>
      <trkpt lat="45.874613793566823" lon="9.779895907267928">
        <ele>1899.4100000000001</ele>
        <time>2023-06-02T09:50:18Z</time>
      </trkpt>
      <trkpt lat="45.874599879607558" lon="9.779953490942717">
        <ele>1899.6300000000001</ele>
        <time>2023-06-02T09:50:30Z</time>
      </trkpt>
      <trkpt lat="45.874605411663651" lon="9.779954915866256">
        <ele>1899.0999999999999</ele>
        <time>2023-06-02T09:50:52Z</time>
      </trkpt>
      <trkpt lat="45.874608010053635" lon="9.779945444315672">
        <ele>1898.8699999999999</ele>
        <time>2023-06-02T09:51:17Z</time>
      </trkpt>
      <trkpt lat="45.874612368643284" lon="9.779957681894302">
        <ele>1899.4400000000001</ele>
        <time>2023-06-02T09:51:29Z</time>
      </trkpt>
      <trkpt lat="45.874580601230264" lon="9.780004452914">
        <ele>1899.9400000000001</ele>
        <time>2023-06-02T09:51:46Z</time>
      </trkpt>
      <trkpt lat="45.874541457742453" lon="9.780061282217503">
        <ele>1901.1099999999999</ele>
        <time>2023-06-02T09:52:02Z</time>
      </trkpt>
      <trkpt lat="45.874494099989533" lon="9.780097072944045">
        <ele>1900.0899999999999</ele>
        <time>2023-06-02T09:52:17Z</time>
      </trkpt>
      <trkpt lat="45.874457219615579" lon="9.780114172026515">
        <ele>1900.1600000000001</ele>
        <time>2023-06-02T09:52:37Z</time>
      </trkpt>
      <trkpt lat="45.874432912096381" lon="9.780162870883942">
        <ele>1900.77</ele>
        <time>2023-06-02T09:52:51Z</time>
      </trkpt>
      <trkpt lat="45.874400222674012" lon="9.780243672430515">
        <ele>1900.6199999999999</ele>
        <time>2023-06-02T09:53:03Z</time>
      </trkpt>
      <trkpt lat="45.874332496896386" lon="9.780336627736688">
        <ele>1900.7</ele>
        <time>2023-06-02T09:53:16Z</time>
      </trkpt>
      <trkpt lat="45.874298717826605" lon="9.780361019074917">
        <ele>1902.48</ele>
        <time>2023-06-02T09:53:29Z</time>
      </trkpt>
      <trkpt lat="45.874254209920764" lon="9.780371496453881">
        <ele>1903.72</ele>
        <time>2023-06-02T09:53:43Z</time>
      </trkpt>
      <trkpt lat="45.874231494963169" lon="9.780378537252545">
        <ele>1904.5699999999999</ele>
        <time>2023-06-02T09:53:59Z</time>
      </trkpt>
      <trkpt lat="45.874187238514423" lon="9.780395133420825">
        <ele>1905.6900000000001</ele>
        <time>2023-06-02T09:54:12Z</time>
      </trkpt>
      <trkpt lat="45.874177850782871" lon="9.780362863093615">
        <ele>1907.22</ele>
        <time>2023-06-02T09:54:25Z</time>
      </trkpt>
      <trkpt lat="45.874153040349483" lon="9.780347608029842">
        <ele>1908.9100000000001</ele>
        <time>2023-06-02T09:54:38Z</time>
      </trkpt>
      <trkpt lat="45.874104592949152" lon="9.780323216691613">
        <ele>1911.8499999999999</ele>
        <time>2023-06-02T09:54:55Z</time>
      </trkpt>
      <trkpt lat="45.874053630977869" lon="9.780264459550381">
        <ele>1914.54</ele>
        <time>2023-06-02T09:55:10Z</time>
      </trkpt>
      <trkpt lat="45.874042902141809" lon="9.780232943594456">
        <ele>1915.3599999999999</ele>
        <time>2023-06-02T09:55:25Z</time>
      </trkpt>
      <trkpt lat="45.873998729512095" lon="9.780179131776094">
        <ele>1917.3800000000001</ele>
        <time>2023-06-02T09:55:39Z</time>
      </trkpt>
      <trkpt lat="45.873946007341146" lon="9.780168402940035">
        <ele>1919.1400000000001</ele>
        <time>2023-06-02T09:55:53Z</time>
      </trkpt>
      <trkpt lat="45.873906025663018" lon="9.78011735714972">
        <ele>1921.74</ele>
        <time>2023-06-02T09:56:10Z</time>
      </trkpt>
      <trkpt lat="45.87384550832212" lon="9.780083075165749">
        <ele>1923.0799999999999</ele>
        <time>2023-06-02T09:56:25Z</time>
      </trkpt>
      <trkpt lat="45.873808460310102" lon="9.780067317187786">
        <ele>1921.3399999999999</ele>
        <time>2023-06-02T09:56:47Z</time>
      </trkpt>
      <trkpt lat="45.873776860535145" lon="9.780037477612495">
        <ele>1919.4300000000001</ele>
        <time>2023-06-02T09:57:09Z</time>
      </trkpt>
      <trkpt lat="45.873769149184227" lon="9.780016858130693">
        <ele>1918.9400000000001</ele>
        <time>2023-06-02T09:57:34Z</time>
      </trkpt>
      <trkpt lat="45.873748026788235" lon="9.780004033818841">
        <ele>1919.3</ele>
        <time>2023-06-02T09:57:55Z</time>
      </trkpt>
      <trkpt lat="45.873732855543494" lon="9.779963968321681">
        <ele>1918.73</ele>
        <time>2023-06-02T09:58:19Z</time>
      </trkpt>
      <trkpt lat="45.87370578199625" lon="9.779912922531366">
        <ele>1918.1400000000001</ele>
        <time>2023-06-02T09:58:36Z</time>
      </trkpt>
      <trkpt lat="45.873676277697086" lon="9.779872354120016">
        <ele>1918.27</ele>
        <time>2023-06-02T09:58:56Z</time>
      </trkpt>
      <trkpt lat="45.873676612973213" lon="9.779834551736713">
        <ele>1920.48</ele>
        <time>2023-06-02T09:59:19Z</time>
      </trkpt>
      <trkpt lat="45.873697567731142" lon="9.779830276966095">
        <ele>1920.8099999999999</ele>
        <time>2023-06-02T09:59:43Z</time>
      </trkpt>
      <trkpt lat="45.873680552467704" lon="9.779835725203157">
        <ele>1922.03</ele>
        <time>2023-06-02T10:00:06Z</time>
      </trkpt>
      <trkpt lat="45.873657250776887" lon="9.779840167611837">
        <ele>1926</ele>
        <time>2023-06-02T10:00:20Z</time>
      </trkpt>
      <trkpt lat="45.873652976006269" lon="9.779819967225194">
        <ele>1928.4200000000001</ele>
        <time>2023-06-02T10:00:36Z</time>
      </trkpt>
      <trkpt lat="45.873576868325472" lon="9.779801359400153">
        <ele>1929.96</ele>
        <time>2023-06-02T10:00:47Z</time>
      </trkpt>
      <trkpt lat="45.873552476987243" lon="9.779748637229204">
        <ele>1933.4100000000001</ele>
        <time>2023-06-02T10:01:00Z</time>
      </trkpt>
      <trkpt lat="45.873536048457026" lon="9.779728353023529">
        <ele>1934.26</ele>
        <time>2023-06-02T10:01:13Z</time>
      </trkpt>
      <trkpt lat="45.873552979901433" lon="9.779749726876617">
        <ele>1932.8699999999999</ele>
        <time>2023-06-02T10:01:30Z</time>
      </trkpt>
      <trkpt lat="45.873539987951517" lon="9.779740422964096">
        <ele>1933.3399999999999</ele>
        <time>2023-06-02T10:01:51Z</time>
      </trkpt>
      <trkpt lat="45.873534539714456" lon="9.779728772118688">
        <ele>1933.71</ele>
        <time>2023-06-02T10:02:09Z</time>
      </trkpt>
      <trkpt lat="45.873466981574893" lon="9.77974059060216">
        <ele>1931.3399999999999</ele>
        <time>2023-06-02T10:02:26Z</time>
      </trkpt>
      <trkpt lat="45.873453738167882" lon="9.779732879251242">
        <ele>1930.79</ele>
        <time>2023-06-02T10:02:28Z</time>
      </trkpt>
      <trkpt lat="45.873390957713127" lon="9.779656603932381">
        <ele>1928.1600000000001</ele>
        <time>2023-06-02T10:02:43Z</time>
      </trkpt>
      <trkpt lat="45.873379055410624" lon="9.779644785448909">
        <ele>1926.45</ele>
        <time>2023-06-02T10:02:55Z</time>
      </trkpt>
      <trkpt lat="45.873374613001943" lon="9.779605306684971">
        <ele>1924.0999999999999</ele>
        <time>2023-06-02T10:03:10Z</time>
      </trkpt>
      <trkpt lat="45.873359944671392" lon="9.779566498473287">
        <ele>1921.9000000000001</ele>
        <time>2023-06-02T10:03:25Z</time>
      </trkpt>
      <trkpt lat="45.87333781644702" lon="9.779536323621869">
        <ele>1920.55</ele>
        <time>2023-06-02T10:03:38Z</time>
      </trkpt>
      <trkpt lat="45.873298337683082" lon="9.779481841251254">
        <ele>1920.72</ele>
        <time>2023-06-02T10:03:51Z</time>
      </trkpt>
      <trkpt lat="45.873296912759542" lon="9.779458623379469">
        <ele>1922.0599999999999</ele>
        <time>2023-06-02T10:04:07Z</time>
      </trkpt>
      <trkpt lat="45.87327872402966" lon="9.779450492933393">
        <ele>1923.22</ele>
        <time>2023-06-02T10:04:23Z</time>
      </trkpt>
      <trkpt lat="45.873263888061047" lon="9.779408751055598">
        <ele>1924.99</ele>
        <time>2023-06-02T10:04:39Z</time>
      </trkpt>
      <trkpt lat="45.873277466744184" lon="9.779406236484647">
        <ele>1925.26</ele>
        <time>2023-06-02T10:04:59Z</time>
      </trkpt>
      <trkpt lat="45.873282579705119" lon="9.779402883723378">
        <ele>1925.4300000000001</ele>
        <time>2023-06-02T10:05:24Z</time>
      </trkpt>
      <trkpt lat="45.873283836990595" lon="9.779409086331725">
        <ele>1925.73</ele>
        <time>2023-06-02T10:05:47Z</time>
      </trkpt>
      <trkpt lat="45.873259529471397" lon="9.779378240928054">
        <ele>1926.1500000000001</ele>
        <time>2023-06-02T10:06:08Z</time>
      </trkpt>
      <trkpt lat="45.873244944959879" lon="9.779340773820877">
        <ele>1927.04</ele>
        <time>2023-06-02T10:06:14Z</time>
      </trkpt>
      <trkpt lat="45.873257517814636" lon="9.779220744967461">
        <ele>1926.6400000000001</ele>
        <time>2023-06-02T10:06:27Z</time>
      </trkpt>
      <trkpt lat="45.87325525470078" lon="9.779228959232569">
        <ele>1926.6700000000001</ele>
        <time>2023-06-02T10:06:41Z</time>
      </trkpt>
      <trkpt lat="45.87325282394886" lon="9.779236586764455">
        <ele>1927.53</ele>
        <time>2023-06-02T10:06:58Z</time>
      </trkpt>
      <trkpt lat="45.873255422338843" lon="9.779229713603854">
        <ele>1928.53</ele>
        <time>2023-06-02T10:07:11Z</time>
      </trkpt>
      <trkpt lat="45.873254332691431" lon="9.77922024205327">
        <ele>1929.0999999999999</ele>
        <time>2023-06-02T10:07:29Z</time>
      </trkpt>
      <trkpt lat="45.873196329921484" lon="9.779155449941754">
        <ele>1929.45</ele>
        <time>2023-06-02T10:07:39Z</time>
      </trkpt>
      <trkpt lat="45.873125502839684" lon="9.779059225693345">
        <ele>1929.05</ele>
        <time>2023-06-02T10:07:54Z</time>
      </trkpt>
      <trkpt lat="45.873117540031672" lon="9.779041791334748">
        <ele>1928.4000000000001</ele>
        <time>2023-06-02T10:07:57Z</time>
      </trkpt>
      <trkpt lat="45.873018717393279" lon="9.778988314792514">
        <ele>1930.8199999999999</ele>
        <time>2023-06-02T10:08:14Z</time>
      </trkpt>
      <trkpt lat="45.872962642461061" lon="9.778945399448276">
        <ele>1929.0599999999999</ele>
        <time>2023-06-02T10:08:28Z</time>
      </trkpt>
      <trkpt lat="45.872866837307811" lon="9.778849678114057">
        <ele>1929.5799999999999</ele>
        <time>2023-06-02T10:08:44Z</time>
      </trkpt>
      <trkpt lat="45.872828867286444" lon="9.778800727799535">
        <ele>1929.5799999999999</ele>
        <time>2023-06-02T10:08:57Z</time>
      </trkpt>
      <trkpt lat="45.872792741283774" lon="9.778751023113728">
        <ele>1927.22</ele>
        <time>2023-06-02T10:09:11Z</time>
      </trkpt>
      <trkpt lat="45.872780503705144" lon="9.778740461915731">
        <ele>1926.53</ele>
        <time>2023-06-02T10:09:13Z</time>
      </trkpt>
      <trkpt lat="45.872720824554563" lon="9.778680615127087">
        <ele>1923.27</ele>
        <time>2023-06-02T10:09:27Z</time>
      </trkpt>
      <trkpt lat="45.872693751007318" lon="9.778654044494033">
        <ele>1921.45</ele>
        <time>2023-06-02T10:09:37Z</time>
      </trkpt>
      <trkpt lat="45.872591407969594" lon="9.778665360063314">
        <ele>1917.3699999999999</ele>
        <time>2023-06-02T10:09:51Z</time>
      </trkpt>
      <trkpt lat="45.872547319158912" lon="9.778637364506722">
        <ele>1916.3099999999999</ele>
        <time>2023-06-02T10:10:09Z</time>
      </trkpt>
      <trkpt lat="45.872459979727864" lon="9.778565196320415">
        <ele>1915.0799999999999</ele>
        <time>2023-06-02T10:10:28Z</time>
      </trkpt>
      <trkpt lat="45.872436929494143" lon="9.778541224077344">
        <ele>1914.6400000000001</ele>
        <time>2023-06-02T10:10:32Z</time>
      </trkpt>
      <trkpt lat="45.872419243678451" lon="9.778499566018581">
        <ele>1914.8399999999999</ele>
        <time>2023-06-02T10:10:45Z</time>
      </trkpt>
      <trkpt lat="45.872423350811005" lon="9.778488082811236">
        <ele>1915.4200000000001</ele>
        <time>2023-06-02T10:11:06Z</time>
      </trkpt>
      <trkpt lat="45.87238747626543" lon="9.778478695079684">
        <ele>1914.0899999999999</ele>
        <time>2023-06-02T10:11:21Z</time>
      </trkpt>
      <trkpt lat="45.872293682768941" lon="9.778399066999555">
        <ele>1910.29</ele>
        <time>2023-06-02T10:11:34Z</time>
      </trkpt>
      <trkpt lat="45.872277589514852" lon="9.778391271829605">
        <ele>1909.3399999999999</ele>
        <time>2023-06-02T10:11:37Z</time>
      </trkpt>
      <trkpt lat="45.872231740504503" lon="9.778326144441962">
        <ele>1906.3499999999999</ele>
        <time>2023-06-02T10:11:48Z</time>
      </trkpt>
      <trkpt lat="45.872191423550248" lon="9.778375346213579">
        <ele>1902.4100000000001</ele>
        <time>2023-06-02T10:12:02Z</time>
      </trkpt>
      <trkpt lat="45.872158231213689" lon="9.778480874374509">
        <ele>1899.3900000000001</ele>
        <time>2023-06-02T10:12:15Z</time>
      </trkpt>
      <trkpt lat="45.872088745236397" lon="9.778521023690701">
        <ele>1895.53</ele>
        <time>2023-06-02T10:12:28Z</time>
      </trkpt>
      <trkpt lat="45.872029820457101" lon="9.778557820245624">
        <ele>1892.0799999999999</ele>
        <time>2023-06-02T10:12:40Z</time>
      </trkpt>
      <trkpt lat="45.871998220682144" lon="9.778470061719418">
        <ele>1890.6400000000001</ele>
        <time>2023-06-02T10:12:52Z</time>
      </trkpt>
      <trkpt lat="45.871945833787322" lon="9.77847752161324">
        <ele>1887.8399999999999</ele>
        <time>2023-06-02T10:13:05Z</time>
      </trkpt>
      <trkpt lat="45.871906774118543" lon="9.778497219085693">
        <ele>1884.3800000000001</ele>
        <time>2023-06-02T10:13:19Z</time>
      </trkpt>
      <trkpt lat="45.871883640065789" lon="9.778530495241284">
        <ele>1882.1400000000001</ele>
        <time>2023-06-02T10:13:27Z</time>
      </trkpt>
      <trkpt lat="45.871840557083488" lon="9.778644656762481">
        <ele>1878.5</ele>
        <time>2023-06-02T10:13:41Z</time>
      </trkpt>
      <trkpt lat="45.871788589283824" lon="9.778618337586522">
        <ele>1877</ele>
        <time>2023-06-02T10:13:53Z</time>
      </trkpt>
      <trkpt lat="45.871782302856445" lon="9.778571063652635">
        <ele>1876.3499999999999</ele>
        <time>2023-06-02T10:14:06Z</time>
      </trkpt>
      <trkpt lat="45.871778950095177" lon="9.778638873249292">
        <ele>1873.5999999999999</ele>
        <time>2023-06-02T10:14:22Z</time>
      </trkpt>
      <trkpt lat="45.87175271473825" lon="9.778634514659643">
        <ele>1871.6600000000001</ele>
        <time>2023-06-02T10:14:33Z</time>
      </trkpt>
      <trkpt lat="45.871717678382993" lon="9.778660582378507">
        <ele>1868.96</ele>
        <time>2023-06-02T10:14:45Z</time>
      </trkpt>
      <trkpt lat="45.871661519631743" lon="9.778716489672661">
        <ele>1866</ele>
        <time>2023-06-02T10:14:57Z</time>
      </trkpt>
      <trkpt lat="45.871623381972313" lon="9.778758902102709">
        <ele>1864.73</ele>
        <time>2023-06-02T10:15:09Z</time>
      </trkpt>
      <trkpt lat="45.87155238725245" lon="9.778730319812894">
        <ele>1862.6400000000001</ele>
        <time>2023-06-02T10:15:23Z</time>
      </trkpt>
      <trkpt lat="45.8715411555022" lon="9.778804751113057">
        <ele>1860.45</ele>
        <time>2023-06-02T10:15:34Z</time>
      </trkpt>
      <trkpt lat="45.871427832171321" lon="9.778805756941438">
        <ele>1856.5799999999999</ele>
        <time>2023-06-02T10:15:50Z</time>
      </trkpt>
      <trkpt lat="45.871356585994363" lon="9.778828052803874">
        <ele>1854.21</ele>
        <time>2023-06-02T10:15:59Z</time>
      </trkpt>
      <trkpt lat="45.871216021478176" lon="9.778863843530417">
        <ele>1850.6800000000001</ele>
        <time>2023-06-02T10:16:17Z</time>
      </trkpt>
      <trkpt lat="45.871168496087193" lon="9.778872979804874">
        <ele>1850.1800000000001</ele>
        <time>2023-06-02T10:16:31Z</time>
      </trkpt>
      <trkpt lat="45.871165478602052" lon="9.778879433870316">
        <ele>1851.1099999999999</ele>
        <time>2023-06-02T10:16:55Z</time>
      </trkpt>
      <trkpt lat="45.871164388954639" lon="9.778874404728413">
        <ele>1851.4100000000001</ele>
        <time>2023-06-02T10:17:14Z</time>
      </trkpt>
      <trkpt lat="45.871158353984356" lon="9.778901729732752">
        <ele>1851.8699999999999</ele>
        <time>2023-06-02T10:17:38Z</time>
      </trkpt>
      <trkpt lat="45.871163215488195" lon="9.778903322294354">
        <ele>1852.8699999999999</ele>
        <time>2023-06-02T10:18:12Z</time>
      </trkpt>
      <trkpt lat="45.871155504137278" lon="9.778889324516058">
        <ele>1853.4300000000001</ele>
        <time>2023-06-02T10:18:37Z</time>
      </trkpt>
      <trkpt lat="45.871158186346292" lon="9.778891671448946">
        <ele>1854.3299999999999</ele>
        <time>2023-06-02T10:19:07Z</time>
      </trkpt>
      <trkpt lat="45.8711560908705" lon="9.778890246525407">
        <ele>1854.79</ele>
        <time>2023-06-02T10:19:29Z</time>
      </trkpt>
      <trkpt lat="45.87116195820272" lon="9.778896700590849">
        <ele>1854.8399999999999</ele>
        <time>2023-06-02T10:19:49Z</time>
      </trkpt>
      <trkpt lat="45.871163215488195" lon="9.778887983411551">
        <ele>1854.47</ele>
        <time>2023-06-02T10:20:24Z</time>
      </trkpt>
      <trkpt lat="45.871164975687861" lon="9.77889334782958">
        <ele>1854.1400000000001</ele>
        <time>2023-06-02T10:20:55Z</time>
      </trkpt>
      <trkpt lat="45.871155587956309" lon="9.778894688934088">
        <ele>1854.0799999999999</ele>
        <time>2023-06-02T10:21:20Z</time>
      </trkpt>
      <trkpt lat="45.871158270165324" lon="9.778896449133754">
        <ele>1853.5</ele>
        <time>2023-06-02T10:21:42Z</time>
      </trkpt>
      <trkpt lat="45.871149552986026" lon="9.77889820933342">
        <ele>1854.3800000000001</ele>
        <time>2023-06-02T10:22:05Z</time>
      </trkpt>
      <trkpt lat="45.871143266558647" lon="9.778902987018228">
        <ele>1855.03</ele>
        <time>2023-06-02T10:22:29Z</time>
      </trkpt>
      <trkpt lat="45.871151145547628" lon="9.778916733339429">
        <ele>1855.05</ele>
        <time>2023-06-02T10:23:12Z</time>
      </trkpt>
      <trkpt lat="45.871156426146626" lon="9.77892117574811">
        <ele>1855.23</ele>
        <time>2023-06-02T10:23:25Z</time>
      </trkpt>
      <trkpt lat="45.871158186346292" lon="9.778919918462634">
        <ele>1853.4300000000001</ele>
        <time>2023-06-02T10:23:54Z</time>
      </trkpt>
      <trkpt lat="45.871165562421083" lon="9.778926707804203">
        <ele>1852.8499999999999</ele>
        <time>2023-06-02T10:24:14Z</time>
      </trkpt>
      <trkpt lat="45.871174111962318" lon="9.778906423598528">
        <ele>1851.2</ele>
        <time>2023-06-02T10:24:26Z</time>
      </trkpt>
      <trkpt lat="45.871181320399046" lon="9.778909776359797">
        <ele>1849.49</ele>
        <time>2023-06-02T10:24:49Z</time>
      </trkpt>
      <trkpt lat="45.871186852455139" lon="9.778922433033586">
        <ele>1848.03</ele>
        <time>2023-06-02T10:25:22Z</time>
      </trkpt>
      <trkpt lat="45.871192300692201" lon="9.778928719460964">
        <ele>1847.55</ele>
        <time>2023-06-02T10:25:40Z</time>
      </trkpt>
      <trkpt lat="45.871190624311566" lon="9.778923857957125">
        <ele>1847.0799999999999</ele>
        <time>2023-06-02T10:26:05Z</time>
      </trkpt>
      <trkpt lat="45.871195569634438" lon="9.778910027816892">
        <ele>1848.28</ele>
        <time>2023-06-02T10:26:31Z</time>
      </trkpt>
      <trkpt lat="45.871192049235106" lon="9.778928132727742">
        <ele>1849.99</ele>
        <time>2023-06-02T10:26:52Z</time>
      </trkpt>
      <trkpt lat="45.871197581291199" lon="9.778930647298694">
        <ele>1850.9100000000001</ele>
        <time>2023-06-02T10:27:05Z</time>
      </trkpt>
      <trkpt lat="45.871198754757643" lon="9.778918325901032">
        <ele>1851.45</ele>
        <time>2023-06-02T10:27:32Z</time>
      </trkpt>
      <trkpt lat="45.871184505522251" lon="9.778913715854287">
        <ele>1850.8199999999999</ele>
        <time>2023-06-02T10:28:00Z</time>
      </trkpt>
      <trkpt lat="45.871186517179012" lon="9.778913967311382">
        <ele>1850.8699999999999</ele>
        <time>2023-06-02T10:28:48Z</time>
      </trkpt>
      <trkpt lat="45.871186265721917" lon="9.778908686712384">
        <ele>1850.9400000000001</ele>
        <time>2023-06-02T10:29:20Z</time>
      </trkpt>
      <trkpt lat="45.871190037578344" lon="9.778917403891683">
        <ele>1851.0599999999999</ele>
        <time>2023-06-02T10:29:59Z</time>
      </trkpt>
      <trkpt lat="45.871192049235106" lon="9.778926372528076">
        <ele>1851.6500000000001</ele>
        <time>2023-06-02T10:30:31Z</time>
      </trkpt>
      <trkpt lat="45.87118785828352" lon="9.778914051130414">
        <ele>1851.77</ele>
        <time>2023-06-02T10:30:56Z</time>
      </trkpt>
      <trkpt lat="45.871190372854471" lon="9.778906423598528">
        <ele>1853.4300000000001</ele>
        <time>2023-06-02T10:31:42Z</time>
      </trkpt>
      <trkpt lat="45.871179141104221" lon="9.778891084715724">
        <ele>1851.48</ele>
        <time>2023-06-02T10:32:26Z</time>
      </trkpt>
      <trkpt lat="45.871188780292869" lon="9.778915727511048">
        <ele>1851.5999999999999</ele>
        <time>2023-06-02T10:33:04Z</time>
      </trkpt>
      <trkpt lat="45.871230689808726" lon="9.778987811878324">
        <ele>1848.98</ele>
        <time>2023-06-02T10:33:19Z</time>
      </trkpt>
      <trkpt lat="45.871247453615069" lon="9.779037600383163">
        <ele>1844.5599999999999</ele>
        <time>2023-06-02T10:33:32Z</time>
      </trkpt>
      <trkpt lat="45.871305959299207" lon="9.77907950989902">
        <ele>1840.8199999999999</ele>
        <time>2023-06-02T10:33:46Z</time>
      </trkpt>
      <trkpt lat="45.871357675641775" lon="9.779142793267965">
        <ele>1836.7</ele>
        <time>2023-06-02T10:34:02Z</time>
      </trkpt>
      <trkpt lat="45.871416851878166" lon="9.779234575107694">
        <ele>1833.26</ele>
        <time>2023-06-02T10:34:17Z</time>
      </trkpt>
      <trkpt lat="45.871397322043777" lon="9.77926273830235">
        <ele>1831.05</ele>
        <time>2023-06-02T10:34:29Z</time>
      </trkpt>
      <trkpt lat="45.871309898793697" lon="9.779312694445252">
        <ele>1826.46</ele>
        <time>2023-06-02T10:34:47Z</time>
      </trkpt>
      <trkpt lat="45.871213842183352" lon="9.779348652809858">
        <ele>1823.0899999999999</ele>
        <time>2023-06-02T10:35:03Z</time>
      </trkpt>
      <trkpt lat="45.871186014264822" lon="9.779402129352093">
        <ele>1820.99</ele>
        <time>2023-06-02T10:35:18Z</time>
      </trkpt>
      <trkpt lat="45.87122842669487" lon="9.779450073838234">
        <ele>1819.3499999999999</ele>
        <time>2023-06-02T10:35:31Z</time>
      </trkpt>
      <trkpt lat="45.87128265760839" lon="9.779477985575795">
        <ele>1817.0699999999999</ele>
        <time>2023-06-02T10:35:42Z</time>
      </trkpt>
      <trkpt lat="45.871325321495533" lon="9.779490390792489">
        <ele>1812.99</ele>
        <time>2023-06-02T10:35:54Z</time>
      </trkpt>
      <trkpt lat="45.87136966176331" lon="9.779583932831883">
        <ele>1810.0899999999999</ele>
        <time>2023-06-02T10:36:08Z</time>
      </trkpt>
      <trkpt lat="45.871395142748952" lon="9.779618214815855">
        <ele>1806.6300000000001</ele>
        <time>2023-06-02T10:36:20Z</time>
      </trkpt>
      <trkpt lat="45.871457001194358" lon="9.779702955856919">
        <ele>1805.5599999999999</ele>
        <time>2023-06-02T10:36:34Z</time>
      </trkpt>
      <trkpt lat="45.871462114155293" lon="9.779746625572443">
        <ele>1802.8599999999999</ele>
        <time>2023-06-02T10:36:48Z</time>
      </trkpt>
      <trkpt lat="45.871419366449118" lon="9.779768921434879">
        <ele>1801.6700000000001</ele>
        <time>2023-06-02T10:37:02Z</time>
      </trkpt>
      <trkpt lat="45.871428335085511" lon="9.779823152348399">
        <ele>1798.7</ele>
        <time>2023-06-02T10:37:16Z</time>
      </trkpt>
      <trkpt lat="45.87143998593092" lon="9.77989699691534">
        <ele>1795.6800000000001</ele>
        <time>2023-06-02T10:37:28Z</time>
      </trkpt>
      <trkpt lat="45.871481224894524" lon="9.77993848733604">
        <ele>1793.1400000000001</ele>
        <time>2023-06-02T10:37:40Z</time>
      </trkpt>
      <trkpt lat="45.871493546292186" lon="9.779955334961414">
        <ele>1792.6700000000001</ele>
        <time>2023-06-02T10:37:42Z</time>
      </trkpt>
      <trkpt lat="45.871532605960965" lon="9.78011442348361">
        <ele>1789.53</ele>
        <time>2023-06-02T10:37:59Z</time>
      </trkpt>
      <trkpt lat="45.871612066403031" lon="9.780123643577099">
        <ele>1788.8</ele>
        <time>2023-06-02T10:38:15Z</time>
      </trkpt>
      <trkpt lat="45.871657496318221" lon="9.780177706852555">
        <ele>1784.5799999999999</ele>
        <time>2023-06-02T10:38:29Z</time>
      </trkpt>
      <trkpt lat="45.871665710583329" lon="9.780203523114324">
        <ele>1783.72</ele>
        <time>2023-06-02T10:38:34Z</time>
      </trkpt>
      <trkpt lat="45.871700411662459" lon="9.780213078483939">
        <ele>1783.79</ele>
        <time>2023-06-02T10:38:52Z</time>
      </trkpt>
      <trkpt lat="45.871728155761957" lon="9.780292706564069">
        <ele>1781.28</ele>
        <time>2023-06-02T10:39:05Z</time>
      </trkpt>
      <trkpt lat="45.871762940660119" lon="9.780319193378091">
        <ele>1781.04</ele>
        <time>2023-06-02T10:39:19Z</time>
      </trkpt>
      <trkpt lat="45.871767047792673" lon="9.780379626899958">
        <ele>1777.47</ele>
        <time>2023-06-02T10:39:33Z</time>
      </trkpt>
      <trkpt lat="45.871822368353605" lon="9.780450537800789">
        <ele>1771.75</ele>
        <time>2023-06-02T10:39:48Z</time>
      </trkpt>
      <trkpt lat="45.871863691136241" lon="9.7804672177881">
        <ele>1770.8</ele>
        <time>2023-06-02T10:39:55Z</time>
      </trkpt>
      <trkpt lat="45.871905600652099" lon="9.780527483671904">
        <ele>1768.78</ele>
        <time>2023-06-02T10:40:07Z</time>
      </trkpt>
      <trkpt lat="45.871915407478809" lon="9.780528489500284">
        <ele>1768.27</ele>
        <time>2023-06-02T10:40:30Z</time>
      </trkpt>
      <trkpt lat="45.871921023353934" lon="9.780527148395777">
        <ele>1767.9200000000001</ele>
        <time>2023-06-02T10:40:52Z</time>
      </trkpt>
      <trkpt lat="45.87191398255527" lon="9.780538296326995">
        <ele>1767.3499999999999</ele>
        <time>2023-06-02T10:41:25Z</time>
      </trkpt>
      <trkpt lat="45.871909707784653" lon="9.780536955222487">
        <ele>1765.8900000000001</ele>
        <time>2023-06-02T10:41:56Z</time>
      </trkpt>
      <trkpt lat="45.871908282861114" lon="9.780551372095943">
        <ele>1765.6400000000001</ele>
        <time>2023-06-02T10:42:23Z</time>
      </trkpt>
      <trkpt lat="45.871912389993668" lon="9.780554138123989">
        <ele>1765.3</ele>
        <time>2023-06-02T10:42:46Z</time>
      </trkpt>
      <trkpt lat="45.871912892907858" lon="9.78056344203651">
        <ele>1765.3199999999999</ele>
        <time>2023-06-02T10:43:16Z</time>
      </trkpt>
      <trkpt lat="45.871912892907858" lon="9.780573751777411">
        <ele>1765.3299999999999</ele>
        <time>2023-06-02T10:43:50Z</time>
      </trkpt>
      <trkpt lat="45.871915994212031" lon="9.78056788444519">
        <ele>1765.1800000000001</ele>
        <time>2023-06-02T10:44:23Z</time>
      </trkpt>
      <trkpt lat="45.871916245669127" lon="9.780566291883588">
        <ele>1765.1900000000001</ele>
        <time>2023-06-02T10:44:54Z</time>
      </trkpt>
      <trkpt lat="45.87191347964108" lon="9.78056495077908">
        <ele>1765.6700000000001</ele>
        <time>2023-06-02T10:45:33Z</time>
      </trkpt>
      <trkpt lat="45.871918760240078" lon="9.780559670180082">
        <ele>1766.1400000000001</ele>
        <time>2023-06-02T10:46:16Z</time>
      </trkpt>
      <trkpt lat="45.871914401650429" lon="9.780559167265892">
        <ele>1765.8499999999999</ele>
        <time>2023-06-02T10:46:36Z</time>
      </trkpt>
      <trkpt lat="45.871916078031063" lon="9.78056101128459">
        <ele>1765.8199999999999</ele>
        <time>2023-06-02T10:47:05Z</time>
      </trkpt>
      <trkpt lat="45.871919514611363" lon="9.78056101128459">
        <ele>1766.4200000000001</ele>
        <time>2023-06-02T10:47:39Z</time>
      </trkpt>
      <trkpt lat="45.87192471139133" lon="9.78059227578342">
        <ele>1766.1199999999999</ele>
        <time>2023-06-02T10:47:48Z</time>
      </trkpt>
      <trkpt lat="45.871941642835736" lon="9.780611135065556">
        <ele>1765.46</ele>
        <time>2023-06-02T10:47:51Z</time>
      </trkpt>
      <trkpt lat="45.872006602585316" lon="9.780732588842511">
        <ele>1762.78</ele>
        <time>2023-06-02T10:48:02Z</time>
      </trkpt>
      <trkpt lat="45.872148759663105" lon="9.780831411480904">
        <ele>1759.1099999999999</ele>
        <time>2023-06-02T10:48:19Z</time>
      </trkpt>
      <trkpt lat="45.87224624119699" lon="9.780829735100269">
        <ele>1759.5799999999999</ele>
        <time>2023-06-02T10:48:34Z</time>
      </trkpt>
      <trkpt lat="45.872282451018691" lon="9.780935766175389">
        <ele>1760.52</ele>
        <time>2023-06-02T10:48:46Z</time>
      </trkpt>
      <trkpt lat="45.872309608384967" lon="9.780987231060863">
        <ele>1762.28</ele>
        <time>2023-06-02T10:48:52Z</time>
      </trkpt>
      <trkpt lat="45.872483868151903" lon="9.781160652637482">
        <ele>1762.77</ele>
        <time>2023-06-02T10:49:11Z</time>
      </trkpt>
      <trkpt lat="45.872594844549894" lon="9.781292835250497">
        <ele>1761.0899999999999</ele>
        <time>2023-06-02T10:49:26Z</time>
      </trkpt>
      <trkpt lat="45.872715124860406" lon="9.781518476083875">
        <ele>1757.47</ele>
        <time>2023-06-02T10:49:45Z</time>
      </trkpt>
      <trkpt lat="45.872731972485781" lon="9.781702207401395">
        <ele>1753.4300000000001</ele>
        <time>2023-06-02T10:50:00Z</time>
      </trkpt>
      <trkpt lat="45.872879410162568" lon="9.781907815486193">
        <ele>1749.9100000000001</ele>
        <time>2023-06-02T10:50:19Z</time>
      </trkpt>
      <trkpt lat="45.872893827036023" lon="9.781936481595039">
        <ele>1749.03</ele>
        <time>2023-06-02T10:50:22Z</time>
      </trkpt>
      <trkpt lat="45.872990302741528" lon="9.782223729416728">
        <ele>1747.5799999999999</ele>
        <time>2023-06-02T10:50:43Z</time>
      </trkpt>
      <trkpt lat="45.872991727665067" lon="9.782351721078157">
        <ele>1747.25</ele>
        <time>2023-06-02T10:50:52Z</time>
      </trkpt>
      <trkpt lat="45.873000780120492" lon="9.782497147098184">
        <ele>1745.4300000000001</ele>
        <time>2023-06-02T10:51:01Z</time>
      </trkpt>
      <trkpt lat="45.873013185337186" lon="9.782636789605022">
        <ele>1744.46</ele>
        <time>2023-06-02T10:51:09Z</time>
      </trkpt>
      <trkpt lat="45.873049730435014" lon="9.782869974151254">
        <ele>1745.7</ele>
        <time>2023-06-02T10:51:26Z</time>
      </trkpt>
      <trkpt lat="45.873071691021323" lon="9.782901741564274">
        <ele>1746.3599999999999</ele>
        <time>2023-06-02T10:51:31Z</time>
      </trkpt>
      <trkpt lat="45.873105889186263" lon="9.782941723242402">
        <ele>1746.25</ele>
        <time>2023-06-02T10:51:36Z</time>
      </trkpt>
      <trkpt lat="45.873146206140518" lon="9.782956223934889">
        <ele>1745.95</ele>
        <time>2023-06-02T10:51:40Z</time>
      </trkpt>
      <trkpt lat="45.873166490346193" lon="9.782948261126876">
        <ele>1745.99</ele>
        <time>2023-06-02T10:51:42Z</time>
      </trkpt>
      <trkpt lat="45.873228097334504" lon="9.782995115965605">
        <ele>1745.3</ele>
        <time>2023-06-02T10:51:51Z</time>
      </trkpt>
      <trkpt lat="45.873232623562217" lon="9.783004000782967">
        <ele>1744.8099999999999</ele>
        <time>2023-06-02T10:51:52Z</time>
      </trkpt>
      <trkpt lat="45.873377379029989" lon="9.7830955311656">
        <ele>1742.0899999999999</ele>
        <time>2023-06-02T10:52:09Z</time>
      </trkpt>
      <trkpt lat="45.873501347377896" lon="9.783131992444396">
        <ele>1737.75</ele>
        <time>2023-06-02T10:52:24Z</time>
      </trkpt>
      <trkpt lat="45.873591871932149" lon="9.783293511718512">
        <ele>1735.55</ele>
        <time>2023-06-02T10:52:38Z</time>
      </trkpt>
      <trkpt lat="45.873599667102098" lon="9.783368110656738">
        <ele>1735.8299999999999</ele>
        <time>2023-06-02T10:52:43Z</time>
      </trkpt>
      <trkpt lat="45.873587764799595" lon="9.783519571647048">
        <ele>1735.74</ele>
        <time>2023-06-02T10:52:58Z</time>
      </trkpt>
      <trkpt lat="45.873640822246671" lon="9.783727526664734">
        <ele>1729.3900000000001</ele>
        <time>2023-06-02T10:53:17Z</time>
      </trkpt>
      <trkpt lat="45.873704105615616" lon="9.783834898844361">
        <ele>1723.6300000000001</ele>
        <time>2023-06-02T10:53:32Z</time>
      </trkpt>
      <trkpt lat="45.873728664591908" lon="9.784017708152533">
        <ele>1719.9400000000001</ele>
        <time>2023-06-02T10:53:50Z</time>
      </trkpt>
      <trkpt lat="45.873755654320121" lon="9.784120973199606">
        <ele>1716.73</ele>
        <time>2023-06-02T10:54:04Z</time>
      </trkpt>
      <trkpt lat="45.873793959617615" lon="9.784128097817302">
        <ele>1714.6300000000001</ele>
        <time>2023-06-02T10:54:17Z</time>
      </trkpt>
      <trkpt lat="45.873799659311771" lon="9.784161876887083">
        <ele>1714.22</ele>
        <time>2023-06-02T10:54:22Z</time>
      </trkpt>
      <trkpt lat="45.873814160004258" lon="9.784165984019637">
        <ele>1714.73</ele>
        <time>2023-06-02T10:54:23Z</time>
      </trkpt>
      <trkpt lat="45.873843329027295" lon="9.784186268225312">
        <ele>1712.6500000000001</ele>
        <time>2023-06-02T10:54:33Z</time>
      </trkpt>
      <trkpt lat="45.873849196359515" lon="9.784172102808952">
        <ele>1712.3699999999999</ele>
        <time>2023-06-02T10:54:34Z</time>
      </trkpt>
      <trkpt lat="45.873856656253338" lon="9.784157769754529">
        <ele>1712.02</ele>
        <time>2023-06-02T10:54:35Z</time>
      </trkpt>
      <trkpt lat="45.873863194137812" lon="9.784144023433328">
        <ele>1711.8199999999999</ele>
        <time>2023-06-02T10:54:36Z</time>
      </trkpt>
      <trkpt lat="45.873867888003588" lon="9.784129271283746">
        <ele>1711.5799999999999</ele>
        <time>2023-06-02T10:54:37Z</time>
      </trkpt>
      <trkpt lat="45.873882891610265" lon="9.784015361219645">
        <ele>1709.1900000000001</ele>
        <time>2023-06-02T10:54:46Z</time>
      </trkpt>
      <trkpt lat="45.873867971822619" lon="9.783886866644025">
        <ele>1707.1800000000001</ele>
        <time>2023-06-02T10:55:00Z</time>
      </trkpt>
      <trkpt lat="45.873894710093737" lon="9.783857446163893">
        <ele>1705.4000000000001</ele>
        <time>2023-06-02T10:55:16Z</time>
      </trkpt>
      <trkpt lat="45.873949360102415" lon="9.783817883580923">
        <ele>1703.1600000000001</ele>
        <time>2023-06-02T10:55:32Z</time>
      </trkpt>
      <trkpt lat="45.87397450581193" lon="9.783801874145865">
        <ele>1701.74</ele>
        <time>2023-06-02T10:55:37Z</time>
      </trkpt>
      <trkpt lat="45.87400434538722" lon="9.783824253827334">
        <ele>1700.53</ele>
        <time>2023-06-02T10:55:45Z</time>
      </trkpt>
      <trkpt lat="45.874067125841975" lon="9.783795922994614">
        <ele>1696.24</ele>
        <time>2023-06-02T10:56:03Z</time>
      </trkpt>
      <trkpt lat="45.874138120561838" lon="9.783787624910474">
        <ele>1694.79</ele>
        <time>2023-06-02T10:56:19Z</time>
      </trkpt>
      <trkpt lat="45.874184891581535" lon="9.783820230513811">
        <ele>1691.2</ele>
        <time>2023-06-02T10:56:33Z</time>
      </trkpt>
      <trkpt lat="45.874224286526442" lon="9.783797934651375">
        <ele>1689.01</ele>
        <time>2023-06-02T10:56:44Z</time>
      </trkpt>
      <trkpt lat="45.87423836812377" lon="9.783796845003963">
        <ele>1688.04</ele>
        <time>2023-06-02T10:56:58Z</time>
      </trkpt>
      <trkpt lat="45.874301735311747" lon="9.783809585496783">
        <ele>1686.01</ele>
        <time>2023-06-02T10:57:15Z</time>
      </trkpt>
      <trkpt lat="45.874327551573515" lon="9.783854261040688">
        <ele>1683.77</ele>
        <time>2023-06-02T10:57:27Z</time>
      </trkpt>
      <trkpt lat="45.874366778880358" lon="9.783836239948869">
        <ele>1681.0599999999999</ele>
        <time>2023-06-02T10:57:40Z</time>
      </trkpt>
      <trkpt lat="45.874317744746804" lon="9.783951658755541">
        <ele>1676.28</ele>
        <time>2023-06-02T10:57:55Z</time>
      </trkpt>
      <trkpt lat="45.874288827180862" lon="9.784055342897773">
        <ele>1671.5799999999999</ele>
        <time>2023-06-02T10:58:08Z</time>
      </trkpt>
      <trkpt lat="45.874272482469678" lon="9.784105131402612">
        <ele>1670.8599999999999</ele>
        <time>2023-06-02T10:58:12Z</time>
      </trkpt>
      <trkpt lat="45.874267872422934" lon="9.784118793904781">
        <ele>1670.6400000000001</ele>
        <time>2023-06-02T10:58:13Z</time>
      </trkpt>
      <trkpt lat="45.874311290681362" lon="9.784150896593928">
        <ele>1666.4300000000001</ele>
        <time>2023-06-02T10:58:25Z</time>
      </trkpt>
      <trkpt lat="45.874326294288039" lon="9.784271260723472">
        <ele>1663.3599999999999</ele>
        <time>2023-06-02T10:58:38Z</time>
      </trkpt>
      <trkpt lat="45.87437960319221" lon="9.784324821084738">
        <ele>1659.26</ele>
        <time>2023-06-02T10:58:55Z</time>
      </trkpt>
      <trkpt lat="45.874396366998553" lon="9.784339824691415">
        <ele>1656.1300000000001</ele>
        <time>2023-06-02T10:59:04Z</time>
      </trkpt>
      <trkpt lat="45.874410700052977" lon="9.784411489963532">
        <ele>1653.8099999999999</ele>
        <time>2023-06-02T10:59:11Z</time>
      </trkpt>
      <trkpt lat="45.874456129968166" lon="9.78455750271678">
        <ele>1649.6300000000001</ele>
        <time>2023-06-02T10:59:26Z</time>
      </trkpt>
      <trkpt lat="45.874515557661653" lon="9.784508720040321">
        <ele>1644.23</ele>
        <time>2023-06-02T10:59:44Z</time>
      </trkpt>
      <trkpt lat="45.874528968706727" lon="9.784477623179555">
        <ele>1642.6600000000001</ele>
        <time>2023-06-02T10:59:47Z</time>
      </trkpt>
      <trkpt lat="45.874534249305725" lon="9.784500757232308">
        <ele>1641.74</ele>
        <time>2023-06-02T10:59:49Z</time>
      </trkpt>
      <trkpt lat="45.874535338953137" lon="9.78451550938189">
        <ele>1641.3399999999999</ele>
        <time>2023-06-02T10:59:50Z</time>
      </trkpt>
      <trkpt lat="45.87453693151474" lon="9.784529758617282">
        <ele>1641.05</ele>
        <time>2023-06-02T10:59:51Z</time>
      </trkpt>
      <trkpt lat="45.874552605673671" lon="9.784562448039651">
        <ele>1640.05</ele>
        <time>2023-06-02T10:59:54Z</time>
      </trkpt>
      <trkpt lat="45.87458336725831" lon="9.784638807177544">
        <ele>1639.3599999999999</ele>
        <time>2023-06-02T11:00:07Z</time>
      </trkpt>
      <trkpt lat="45.874633491039276" lon="9.784712065011263">
        <ele>1635.9300000000001</ele>
        <time>2023-06-02T11:00:22Z</time>
      </trkpt>
      <trkpt lat="45.874696355313063" lon="9.784561526030302">
        <ele>1633.4200000000001</ele>
        <time>2023-06-02T11:00:39Z</time>
      </trkpt>
      <trkpt lat="45.874716052785516" lon="9.784633023664355">
        <ele>1630.3399999999999</ele>
        <time>2023-06-02T11:00:51Z</time>
      </trkpt>
      <trkpt lat="45.874754106625915" lon="9.784711226820946">
        <ele>1626.3199999999999</ele>
        <time>2023-06-02T11:01:04Z</time>
      </trkpt>
      <trkpt lat="45.87479492649436" lon="9.784715501591563">
        <ele>1622.99</ele>
        <time>2023-06-02T11:01:20Z</time>
      </trkpt>
      <trkpt lat="45.874803140759468" lon="9.784788256511092">
        <ele>1621.45</ele>
        <time>2023-06-02T11:01:26Z</time>
      </trkpt>
      <trkpt lat="45.874849827960134" lon="9.784802170470357">
        <ele>1616.49</ele>
        <time>2023-06-02T11:01:41Z</time>
      </trkpt>
      <trkpt lat="45.874855611473322" lon="9.784788005053997">
        <ele>1616.1099999999999</ele>
        <time>2023-06-02T11:01:42Z</time>
      </trkpt>
      <trkpt lat="45.874874806031585" lon="9.784834440797567">
        <ele>1615.05</ele>
        <time>2023-06-02T11:01:47Z</time>
      </trkpt>
      <trkpt lat="45.874944124370813" lon="9.784936951473355">
        <ele>1611.75</ele>
        <time>2023-06-02T11:02:00Z</time>
      </trkpt>
      <trkpt lat="45.874984944239259" lon="9.78478666394949">
        <ele>1607.5899999999999</ele>
        <time>2023-06-02T11:02:14Z</time>
      </trkpt>
      <trkpt lat="45.874989973381162" lon="9.784860257059336">
        <ele>1610.76</ele>
        <time>2023-06-02T11:02:25Z</time>
      </trkpt>
      <trkpt lat="45.874999947845936" lon="9.784876685589552">
        <ele>1609.9100000000001</ele>
        <time>2023-06-02T11:02:27Z</time>
      </trkpt>
      <trkpt lat="45.875071613118052" lon="9.784836368635297">
        <ele>1606.3699999999999</ele>
        <time>2023-06-02T11:02:39Z</time>
      </trkpt>
      <trkpt lat="45.875142272561789" lon="9.784793872386217">
        <ele>1604.8299999999999</ele>
        <time>2023-06-02T11:02:53Z</time>
      </trkpt>
      <trkpt lat="45.875190300866961" lon="9.784864531829953">
        <ele>1604.29</ele>
        <time>2023-06-02T11:03:06Z</time>
      </trkpt>
      <trkpt lat="45.875224834308028" lon="9.784917337819934">
        <ele>1602.8399999999999</ele>
        <time>2023-06-02T11:03:18Z</time>
      </trkpt>
      <trkpt lat="45.875273868441582" lon="9.784978609532118">
        <ele>1602.02</ele>
        <time>2023-06-02T11:03:30Z</time>
      </trkpt>
      <trkpt lat="45.875310078263283" lon="9.785009035840631">
        <ele>1600.8699999999999</ele>
        <time>2023-06-02T11:03:44Z</time>
      </trkpt>
      <trkpt lat="45.875370595604181" lon="9.784988751634955">
        <ele>1599.3800000000001</ele>
        <time>2023-06-02T11:03:56Z</time>
      </trkpt>
      <trkpt lat="45.875414852052927" lon="9.785094279795885">
        <ele>1596.47</ele>
        <time>2023-06-02T11:04:11Z</time>
      </trkpt>
      <trkpt lat="45.875472771003842" lon="9.78507156483829">
        <ele>1593.6500000000001</ele>
        <time>2023-06-02T11:04:25Z</time>
      </trkpt>
      <trkpt lat="45.875528091564775" lon="9.785131495445967">
        <ele>1591.05</ele>
        <time>2023-06-02T11:04:39Z</time>
      </trkpt>
      <trkpt lat="45.875562122091651" lon="9.785149600356817">
        <ele>1590.01</ele>
        <time>2023-06-02T11:04:44Z</time>
      </trkpt>
      <trkpt lat="45.875571509823203" lon="9.785158988088369">
        <ele>1589.73</ele>
        <time>2023-06-02T11:04:45Z</time>
      </trkpt>
      <trkpt lat="45.875593470409513" lon="9.785186816006899">
        <ele>1589.02</ele>
        <time>2023-06-02T11:04:48Z</time>
      </trkpt>
      <trkpt lat="45.875606881454587" lon="9.785250183194876">
        <ele>1588.1199999999999</ele>
        <time>2023-06-02T11:05:03Z</time>
      </trkpt>
      <trkpt lat="45.875640325248241" lon="9.785274071618915">
        <ele>1588.8</ele>
        <time>2023-06-02T11:05:22Z</time>
      </trkpt>
      <trkpt lat="45.875696735456586" lon="9.785339199006558">
        <ele>1586.74</ele>
        <time>2023-06-02T11:05:36Z</time>
      </trkpt>
      <trkpt lat="45.875716852024198" lon="9.7853749897331">
        <ele>1586.3699999999999</ele>
        <time>2023-06-02T11:05:51Z</time>
      </trkpt>
      <trkpt lat="45.875771250575781" lon="9.785441374406219">
        <ele>1584.99</ele>
        <time>2023-06-02T11:06:05Z</time>
      </trkpt>
      <trkpt lat="45.87582346983254" lon="9.785492671653628">
        <ele>1582.54</ele>
        <time>2023-06-02T11:06:14Z</time>
      </trkpt>
      <trkpt lat="45.875834701582789" lon="9.785511530935764">
        <ele>1582.0599999999999</ele>
        <time>2023-06-02T11:06:16Z</time>
      </trkpt>
      <trkpt lat="45.875840988010168" lon="9.785520415753126">
        <ele>1581.99</ele>
        <time>2023-06-02T11:06:17Z</time>
      </trkpt>
      <trkpt lat="45.875863283872604" lon="9.785531060770154">
        <ele>1581.45</ele>
        <time>2023-06-02T11:06:21Z</time>
      </trkpt>
      <trkpt lat="45.875871246680617" lon="9.785537011921406">
        <ele>1581.24</ele>
        <time>2023-06-02T11:06:22Z</time>
      </trkpt>
      <trkpt lat="45.875877365469933" lon="9.785548914223909">
        <ele>1581.0699999999999</ele>
        <time>2023-06-02T11:06:23Z</time>
      </trkpt>
      <trkpt lat="45.875913659110665" lon="9.78558512404561">
        <ele>1580.1600000000001</ele>
        <time>2023-06-02T11:06:28Z</time>
      </trkpt>
      <trkpt lat="45.875922627747059" lon="9.785594176501036">
        <ele>1579.9400000000001</ele>
        <time>2023-06-02T11:06:29Z</time>
      </trkpt>
      <trkpt lat="45.875931344926357" lon="9.785604402422905">
        <ele>1579.55</ele>
        <time>2023-06-02T11:06:30Z</time>
      </trkpt>
      <trkpt lat="45.8760482724756" lon="9.785673301666975">
        <ele>1575.48</ele>
        <time>2023-06-02T11:06:45Z</time>
      </trkpt>
      <trkpt lat="45.876091523095965" lon="9.78571412153542">
        <ele>1573.8699999999999</ele>
        <time>2023-06-02T11:06:56Z</time>
      </trkpt>
      <trkpt lat="45.876106861978769" lon="9.78574438020587">
        <ele>1573.4400000000001</ele>
        <time>2023-06-02T11:07:12Z</time>
      </trkpt>
      <trkpt lat="45.876120189204812" lon="9.785763574764133">
        <ele>1574.98</ele>
        <time>2023-06-02T11:07:32Z</time>
      </trkpt>
      <trkpt lat="45.876129493117332" lon="9.785763407126069">
        <ele>1577.5699999999999</ele>
        <time>2023-06-02T11:08:01Z</time>
      </trkpt>
      <trkpt lat="45.876099318265915" lon="9.785758377984166">
        <ele>1578.51</ele>
        <time>2023-06-02T11:08:11Z</time>
      </trkpt>
      <trkpt lat="45.876040393486619" lon="9.785805903375149">
        <ele>1578.1800000000001</ele>
        <time>2023-06-02T11:08:23Z</time>
      </trkpt>
      <trkpt lat="45.876049445942044" lon="9.785901792347431">
        <ele>1574.4000000000001</ele>
        <time>2023-06-02T11:08:36Z</time>
      </trkpt>
      <trkpt lat="45.876092109829187" lon="9.785919142886996">
        <ele>1570.3499999999999</ele>
        <time>2023-06-02T11:08:51Z</time>
      </trkpt>
      <trkpt lat="45.876153716817498" lon="9.785924926400185">
        <ele>1566.6700000000001</ele>
        <time>2023-06-02T11:09:04Z</time>
      </trkpt>
      <trkpt lat="45.876142485067248" lon="9.785998603329063">
        <ele>1561.5799999999999</ele>
        <time>2023-06-02T11:09:17Z</time>
      </trkpt>
      <trkpt lat="45.876121949404478" lon="9.786073118448257">
        <ele>1558.3099999999999</ele>
        <time>2023-06-02T11:09:29Z</time>
      </trkpt>
      <trkpt lat="45.876156650483608" lon="9.786071442067623">
        <ele>1556.8399999999999</ele>
        <time>2023-06-02T11:09:35Z</time>
      </trkpt>
      <trkpt lat="45.876165283843875" lon="9.786078901961446">
        <ele>1556.47</ele>
        <time>2023-06-02T11:09:36Z</time>
      </trkpt>
      <trkpt lat="45.876198643818498" lon="9.786209911108017">
        <ele>1551.1099999999999</ele>
        <time>2023-06-02T11:09:48Z</time>
      </trkpt>
      <trkpt lat="45.87619436904788" lon="9.786262046545744">
        <ele>1548.47</ele>
        <time>2023-06-02T11:09:53Z</time>
      </trkpt>
      <trkpt lat="45.876196129247546" lon="9.78627554140985">
        <ele>1548.0699999999999</ele>
        <time>2023-06-02T11:09:54Z</time>
      </trkpt>
      <trkpt lat="45.876238038763404" lon="9.786318792030215">
        <ele>1545.48</ele>
        <time>2023-06-02T11:10:07Z</time>
      </trkpt>
      <trkpt lat="45.876285647973418" lon="9.786341926082969">
        <ele>1542.73</ele>
        <time>2023-06-02T11:10:18Z</time>
      </trkpt>
      <trkpt lat="45.876349182799459" lon="9.786427421495318">
        <ele>1538.7</ele>
        <time>2023-06-02T11:10:31Z</time>
      </trkpt>
      <trkpt lat="45.876395534723997" lon="9.786430522799492">
        <ele>1536.53</ele>
        <time>2023-06-02T11:10:43Z</time>
      </trkpt>
      <trkpt lat="45.876463428139687" lon="9.786466145887971">
        <ele>1533.51</ele>
        <time>2023-06-02T11:10:55Z</time>
      </trkpt>
      <trkpt lat="45.876536183059216" lon="9.786458099260926">
        <ele>1531.26</ele>
        <time>2023-06-02T11:11:07Z</time>
      </trkpt>
      <trkpt lat="45.876605585217476" lon="9.786471342667937">
        <ele>1529.4200000000001</ele>
        <time>2023-06-02T11:11:20Z</time>
      </trkpt>
      <trkpt lat="45.876640370115638" lon="9.786506295204163">
        <ele>1529.1099999999999</ele>
        <time>2023-06-02T11:11:27Z</time>
      </trkpt>
      <trkpt lat="45.876650679856539" lon="9.786517359316349">
        <ele>1528.8900000000001</ele>
        <time>2023-06-02T11:11:28Z</time>
      </trkpt>
      <trkpt lat="45.876700803637505" lon="9.786608219146729">
        <ele>1526.55</ele>
        <time>2023-06-02T11:11:39Z</time>
      </trkpt>
      <trkpt lat="45.876789065077901" lon="9.78665029630065">
        <ele>1523.75</ele>
        <time>2023-06-02T11:11:52Z</time>
      </trkpt>
      <trkpt lat="45.876861484721303" lon="9.786739898845553">
        <ele>1520.1800000000001</ele>
        <time>2023-06-02T11:12:05Z</time>
      </trkpt>
      <trkpt lat="45.876900712028146" lon="9.786826819181442">
        <ele>1517.47</ele>
        <time>2023-06-02T11:12:16Z</time>
      </trkpt>
      <trkpt lat="45.876933401450515" lon="9.786843163892627">
        <ele>1516.03</ele>
        <time>2023-06-02T11:12:31Z</time>
      </trkpt>
      <trkpt lat="45.87691999040544" lon="9.786765379831195">
        <ele>1516.1900000000001</ele>
        <time>2023-06-02T11:12:46Z</time>
      </trkpt>
      <trkpt lat="45.87700548581779" lon="9.786638393998146">
        <ele>1515.26</ele>
        <time>2023-06-02T11:13:03Z</time>
      </trkpt>
      <trkpt lat="45.877045383676887" lon="9.786600340157747">
        <ele>1513.8299999999999</ele>
        <time>2023-06-02T11:13:14Z</time>
      </trkpt>
      <trkpt lat="45.877042869105935" lon="9.786585755646229">
        <ele>1513.74</ele>
        <time>2023-06-02T11:13:15Z</time>
      </trkpt>
      <trkpt lat="45.877036079764366" lon="9.786412920802832">
        <ele>1511.1500000000001</ele>
        <time>2023-06-02T11:13:30Z</time>
      </trkpt>
      <trkpt lat="45.877010682597756" lon="9.786288952454925">
        <ele>1509.73</ele>
        <time>2023-06-02T11:13:42Z</time>
      </trkpt>
      <trkpt lat="45.877033397555351" lon="9.786146124824882">
        <ele>1506.97</ele>
        <time>2023-06-02T11:13:56Z</time>
      </trkpt>
      <trkpt lat="45.877032056450844" lon="9.785970356315374">
        <ele>1501.96</ele>
        <time>2023-06-02T11:14:13Z</time>
      </trkpt>
      <trkpt lat="45.877089388668537" lon="9.785803975537419">
        <ele>1497.0699999999999</ele>
        <time>2023-06-02T11:14:31Z</time>
      </trkpt>
      <trkpt lat="45.877180080860853" lon="9.785722168162465">
        <ele>1491.9400000000001</ele>
        <time>2023-06-02T11:14:44Z</time>
      </trkpt>
      <trkpt lat="45.877284351736307" lon="9.785640025511384">
        <ele>1488.03</ele>
        <time>2023-06-02T11:14:58Z</time>
      </trkpt>
      <trkpt lat="45.877377642318606" lon="9.785457886755467">
        <ele>1481.8599999999999</ele>
        <time>2023-06-02T11:15:15Z</time>
      </trkpt>
      <trkpt lat="45.877406224608421" lon="9.785575568675995">
        <ele>1479.0899999999999</ele>
        <time>2023-06-02T11:15:27Z</time>
      </trkpt>
      <trkpt lat="45.877464143559337" lon="9.785491162911058">
        <ele>1474.8099999999999</ele>
        <time>2023-06-02T11:15:40Z</time>
      </trkpt>
      <trkpt lat="45.877531366422772" lon="9.785491665825248">
        <ele>1472.46</ele>
        <time>2023-06-02T11:15:53Z</time>
      </trkpt>
      <trkpt lat="45.87758107110858" lon="9.785567186772823">
        <ele>1468.2</ele>
        <time>2023-06-02T11:16:06Z</time>
      </trkpt>
      <trkpt lat="45.877652484923601" lon="9.785608509555459">
        <ele>1463.1199999999999</ele>
        <time>2023-06-02T11:16:18Z</time>
      </trkpt>
      <trkpt lat="45.877743512392044" lon="9.785715127363801">
        <ele>1460.2</ele>
        <time>2023-06-02T11:16:31Z</time>
      </trkpt>
      <trkpt lat="45.877754157409072" lon="9.78571948595345">
        <ele>1460.05</ele>
        <time>2023-06-02T11:16:32Z</time>
      </trkpt>
      <trkpt lat="45.8777648024261" lon="9.785726778209209">
        <ele>1459.8599999999999</ele>
        <time>2023-06-02T11:16:33Z</time>
      </trkpt>
      <trkpt lat="45.877767316997051" lon="9.785753348842263">
        <ele>1459.48</ele>
        <time>2023-06-02T11:16:35Z</time>
      </trkpt>
      <trkpt lat="45.87780780158937" lon="9.785874886438251">
        <ele>1455.8699999999999</ele>
        <time>2023-06-02T11:16:48Z</time>
      </trkpt>
      <trkpt lat="45.877822134643793" lon="9.785998770967126">
        <ele>1452.8900000000001</ele>
        <time>2023-06-02T11:17:02Z</time>
      </trkpt>
      <trkpt lat="45.87783127091825" lon="9.78613237850368">
        <ele>1451.1400000000001</ele>
        <time>2023-06-02T11:17:14Z</time>
      </trkpt>
      <trkpt lat="45.87788256816566" lon="9.786198595538735">
        <ele>1449.4300000000001</ele>
        <time>2023-06-02T11:17:30Z</time>
      </trkpt>
      <trkpt lat="45.87790503166616" lon="9.786272021010518">
        <ele>1447.75</ele>
        <time>2023-06-02T11:17:44Z</time>
      </trkpt>
      <trkpt lat="45.877982480451465" lon="9.786362461745739">
        <ele>1444.96</ele>
        <time>2023-06-02T11:17:59Z</time>
      </trkpt>
      <trkpt lat="45.87803989648819" lon="9.786433121189475">
        <ele>1442.5</ele>
        <time>2023-06-02T11:18:14Z</time>
      </trkpt>
      <trkpt lat="45.878069065511227" lon="9.786432618275285">
        <ele>1442.0599999999999</ele>
        <time>2023-06-02T11:18:17Z</time>
      </trkpt>
      <trkpt lat="45.878079794347286" lon="9.786433791741729">
        <ele>1441.95</ele>
        <time>2023-06-02T11:18:18Z</time>
      </trkpt>
      <trkpt lat="45.87815866805613" lon="9.786416525021195">
        <ele>1440.53</ele>
        <time>2023-06-02T11:18:31Z</time>
      </trkpt>
      <trkpt lat="45.878210803493857" lon="9.786418620496988">
        <ele>1438.6900000000001</ele>
        <time>2023-06-02T11:18:45Z</time>
      </trkpt>
      <trkpt lat="45.878268303349614" lon="9.786441335454583">
        <ele>1435.3199999999999</ele>
        <time>2023-06-02T11:19:00Z</time>
      </trkpt>
      <trkpt lat="45.878342567011714" lon="9.786459356546402">
        <ele>1430.5</ele>
        <time>2023-06-02T11:19:16Z</time>
      </trkpt>
      <trkpt lat="45.878394618630409" lon="9.786493889987469">
        <ele>1428.3399999999999</ele>
        <time>2023-06-02T11:19:28Z</time>
      </trkpt>
      <trkpt lat="45.878463434055448" lon="9.786472767591476">
        <ele>1425.22</ele>
        <time>2023-06-02T11:19:43Z</time>
      </trkpt>
      <trkpt lat="45.878516742959619" lon="9.786507887765765">
        <ele>1424.01</ele>
        <time>2023-06-02T11:19:56Z</time>
      </trkpt>
      <trkpt lat="45.878554712980986" lon="9.786494225263596">
        <ele>1423.23</ele>
        <time>2023-06-02T11:20:03Z</time>
      </trkpt>
      <trkpt lat="45.878623025491834" lon="9.786494644358754">
        <ele>1420.7</ele>
        <time>2023-06-02T11:20:15Z</time>
      </trkpt>
      <trkpt lat="45.878704665228724" lon="9.786511240527034">
        <ele>1419.3800000000001</ele>
        <time>2023-06-02T11:20:29Z</time>
      </trkpt>
      <trkpt lat="45.878741042688489" lon="9.786439156159759">
        <ele>1419.05</ele>
        <time>2023-06-02T11:20:42Z</time>
      </trkpt>
      <trkpt lat="45.878862664103508" lon="9.786386936903">
        <ele>1416.1099999999999</ele>
        <time>2023-06-02T11:20:59Z</time>
      </trkpt>
      <trkpt lat="45.878933742642403" lon="9.786438569426537">
        <ele>1413.1300000000001</ele>
        <time>2023-06-02T11:21:14Z</time>
      </trkpt>
      <trkpt lat="45.879021501168609" lon="9.786532782018185">
        <ele>1408.6700000000001</ele>
        <time>2023-06-02T11:21:33Z</time>
      </trkpt>
      <trkpt lat="45.879137674346566" lon="9.786603692919016">
        <ele>1405.1900000000001</ele>
        <time>2023-06-02T11:21:48Z</time>
      </trkpt>
      <trkpt lat="45.879149744287133" lon="9.786598831415176">
        <ele>1405.1900000000001</ele>
        <time>2023-06-02T11:21:49Z</time>
      </trkpt>
      <trkpt lat="45.879174303263426" lon="9.786589359864593">
        <ele>1405.23</ele>
        <time>2023-06-02T11:21:51Z</time>
      </trkpt>
      <trkpt lat="45.879298103973269" lon="9.786611907184124">
        <ele>1404.21</ele>
        <time>2023-06-02T11:22:05Z</time>
      </trkpt>
      <trkpt lat="45.879477644339204" lon="9.786624228581786">
        <ele>1398.2</ele>
        <time>2023-06-02T11:22:25Z</time>
      </trkpt>
      <trkpt lat="45.879625920206308" lon="9.786743670701981">
        <ele>1394.54</ele>
        <time>2023-06-02T11:22:44Z</time>
      </trkpt>
      <trkpt lat="45.879704877734184" lon="9.78678859770298">
        <ele>1390.5</ele>
        <time>2023-06-02T11:23:02Z</time>
      </trkpt>
      <trkpt lat="45.879722395911813" lon="9.786807708442211">
        <ele>1391.01</ele>
        <time>2023-06-02T11:23:18Z</time>
      </trkpt>
      <trkpt lat="45.87975550442934" lon="9.786821035668254">
        <ele>1392.1600000000001</ele>
        <time>2023-06-02T11:23:48Z</time>
      </trkpt>
      <trkpt lat="45.879772519692779" lon="9.786767391487956">
        <ele>1391.8599999999999</ele>
        <time>2023-06-02T11:24:21Z</time>
      </trkpt>
      <trkpt lat="45.879791378974915" lon="9.786755153909326">
        <ele>1393.9100000000001</ele>
        <time>2023-06-02T11:24:36Z</time>
      </trkpt>
      <trkpt lat="45.87979263626039" lon="9.786757584661245">
        <ele>1393.79</ele>
        <time>2023-06-02T11:24:45Z</time>
      </trkpt>
      <trkpt lat="45.879784589633346" lon="9.786773175001144">
        <ele>1393.8199999999999</ele>
        <time>2023-06-02T11:25:03Z</time>
      </trkpt>
      <trkpt lat="45.879793893545866" lon="9.786776527762413">
        <ele>1394.79</ele>
        <time>2023-06-02T11:25:24Z</time>
      </trkpt>
      <trkpt lat="45.879814429208636" lon="9.786786083132029">
        <ele>1396.6400000000001</ele>
        <time>2023-06-02T11:25:48Z</time>
      </trkpt>
      <trkpt lat="45.879820547997952" lon="9.786852383986116">
        <ele>1394.73</ele>
        <time>2023-06-02T11:26:08Z</time>
      </trkpt>
      <trkpt lat="45.87985809892416" lon="9.786775438115001">
        <ele>1390.9200000000001</ele>
        <time>2023-06-02T11:26:23Z</time>
      </trkpt>
      <trkpt lat="45.879836473613977" lon="9.786606458947063">
        <ele>1388.3699999999999</ele>
        <time>2023-06-02T11:26:38Z</time>
      </trkpt>
      <trkpt lat="45.879837898537517" lon="9.786590952426195">
        <ele>1388.2</ele>
        <time>2023-06-02T11:26:39Z</time>
      </trkpt>
      <trkpt lat="45.879806969314814" lon="9.786450052633882">
        <ele>1386.4200000000001</ele>
        <time>2023-06-02T11:26:55Z</time>
      </trkpt>
      <trkpt lat="45.879814010113478" lon="9.786370508372784">
        <ele>1384.4200000000001</ele>
        <time>2023-06-02T11:27:02Z</time>
      </trkpt>
      <trkpt lat="45.879822559654713" lon="9.786337818950415">
        <ele>1383.5899999999999</ele>
        <time>2023-06-02T11:27:04Z</time>
      </trkpt>
      <trkpt lat="45.87982683442533" lon="9.78631753474474">
        <ele>1383.22</ele>
        <time>2023-06-02T11:27:05Z</time>
      </trkpt>
      <trkpt lat="45.879895566031337" lon="9.786083260551095">
        <ele>1375.8699999999999</ele>
        <time>2023-06-02T11:27:22Z</time>
      </trkpt>
      <trkpt lat="45.879980307072401" lon="9.785845130681992">
        <ele>1370.24</ele>
        <time>2023-06-02T11:27:38Z</time>
      </trkpt>
      <trkpt lat="45.880035208538175" lon="9.785788971930742">
        <ele>1368.04</ele>
        <time>2023-06-02T11:27:44Z</time>
      </trkpt>
      <trkpt lat="45.880083404481411" lon="9.785657292231917">
        <ele>1365.4000000000001</ele>
        <time>2023-06-02T11:27:52Z</time>
      </trkpt>
      <trkpt lat="45.880109220743179" lon="9.785590572282672">
        <ele>1364.1800000000001</ele>
        <time>2023-06-02T11:27:57Z</time>
      </trkpt>
      <trkpt lat="45.880158925428987" lon="9.785443050786853">
        <ele>1360.3</ele>
        <time>2023-06-02T11:28:06Z</time>
      </trkpt>
      <trkpt lat="45.880217850208282" lon="9.785245740786195">
        <ele>1356.3099999999999</ele>
        <time>2023-06-02T11:28:20Z</time>
      </trkpt>
      <trkpt lat="45.880334274843335" lon="9.785096207633615">
        <ele>1351.71</ele>
        <time>2023-06-02T11:28:34Z</time>
      </trkpt>
      <trkpt lat="45.880343578755856" lon="9.785083215683699">
        <ele>1351.4400000000001</ele>
        <time>2023-06-02T11:28:35Z</time>
      </trkpt>
      <trkpt lat="45.880489172413945" lon="9.78489906527102">
        <ele>1347.3900000000001</ele>
        <time>2023-06-02T11:28:53Z</time>
      </trkpt>
      <trkpt lat="45.88053971529007" lon="9.784682141616941">
        <ele>1345.0799999999999</ele>
        <time>2023-06-02T11:29:07Z</time>
      </trkpt>
      <trkpt lat="45.880615655332804" lon="9.784474773332477">
        <ele>1341.3399999999999</ele>
        <time>2023-06-02T11:29:25Z</time>
      </trkpt>
      <trkpt lat="45.880649434402585" lon="9.784412495791912">
        <ele>1339.6800000000001</ele>
        <time>2023-06-02T11:29:30Z</time>
      </trkpt>
      <trkpt lat="45.880748508498073" lon="9.784292299300432">
        <ele>1337.8699999999999</ele>
        <time>2023-06-02T11:29:43Z</time>
      </trkpt>
      <trkpt lat="45.88075328618288" lon="9.78406690992415">
        <ele>1340.1700000000001</ele>
        <time>2023-06-02T11:30:01Z</time>
      </trkpt>
      <trkpt lat="45.880740378051996" lon="9.783807573840022">
        <ele>1341.73</ele>
        <time>2023-06-02T11:30:18Z</time>
      </trkpt>
      <trkpt lat="45.880660582333803" lon="9.783545387908816">
        <ele>1341.1700000000001</ele>
        <time>2023-06-02T11:30:37Z</time>
      </trkpt>
      <trkpt lat="45.880603501573205" lon="9.783284710720182">
        <ele>1338.53</ele>
        <time>2023-06-02T11:30:56Z</time>
      </trkpt>
      <trkpt lat="45.880577517673373" lon="9.783086143434048">
        <ele>1338.6400000000001</ele>
        <time>2023-06-02T11:31:16Z</time>
      </trkpt>
      <trkpt lat="45.880725793540478" lon="9.782995283603668">
        <ele>1338.49</ele>
        <time>2023-06-02T11:31:34Z</time>
      </trkpt>
      <trkpt lat="45.880789998918772" lon="9.782818676903844">
        <ele>1336.4400000000001</ele>
        <time>2023-06-02T11:31:49Z</time>
      </trkpt>
      <trkpt lat="45.880882451310754" lon="9.782611727714539">
        <ele>1335.1500000000001</ele>
        <time>2023-06-02T11:32:07Z</time>
      </trkpt>
      <trkpt lat="45.880948500707746" lon="9.782473929226399">
        <ele>1335.96</ele>
        <time>2023-06-02T11:32:27Z</time>
      </trkpt>
      <trkpt lat="45.880934167653322" lon="9.782326240092516">
        <ele>1336.95</ele>
        <time>2023-06-02T11:32:44Z</time>
      </trkpt>
      <trkpt lat="45.880888318642974" lon="9.782168241217732">
        <ele>1338.0899999999999</ele>
        <time>2023-06-02T11:33:08Z</time>
      </trkpt>
      <trkpt lat="45.880864430218935" lon="9.782024826854467">
        <ele>1340.72</ele>
        <time>2023-06-02T11:33:28Z</time>
      </trkpt>
      <trkpt lat="45.880838027223945" lon="9.781836401671171">
        <ele>1340.8399999999999</ele>
        <time>2023-06-02T11:33:48Z</time>
      </trkpt>
      <trkpt lat="45.880852611735463" lon="9.781792983412743">
        <ele>1341.3499999999999</ele>
        <time>2023-06-02T11:34:13Z</time>
      </trkpt>
      <trkpt lat="45.880812127143145" lon="9.781732801347971">
        <ele>1343.1199999999999</ele>
        <time>2023-06-02T11:34:38Z</time>
      </trkpt>
      <trkpt lat="45.880809528753161" lon="9.781628530472517">
        <ele>1344.5899999999999</ele>
        <time>2023-06-02T11:34:58Z</time>
      </trkpt>
      <trkpt lat="45.880823945626616" lon="9.78152115829289">
        <ele>1348.55</ele>
        <time>2023-06-02T11:35:16Z</time>
      </trkpt>
      <trkpt lat="45.880850851535797" lon="9.781463742256165">
        <ele>1349.28</ele>
        <time>2023-06-02T11:35:31Z</time>
      </trkpt>
      <trkpt lat="45.880835177376866" lon="9.781392412260175">
        <ele>1351.1500000000001</ele>
        <time>2023-06-02T11:35:49Z</time>
      </trkpt>
      <trkpt lat="45.880829896777868" lon="9.781275149434805">
        <ele>1352.0799999999999</ele>
        <time>2023-06-02T11:36:09Z</time>
      </trkpt>
      <trkpt lat="45.880840122699738" lon="9.781189737841487">
        <ele>1352.3800000000001</ele>
        <time>2023-06-02T11:36:26Z</time>
      </trkpt>
      <trkpt lat="45.880826627835631" lon="9.781025284901261">
        <ele>1352.27</ele>
        <time>2023-06-02T11:36:45Z</time>
      </trkpt>
      <trkpt lat="45.880851941183209" lon="9.780833423137665">
        <ele>1351.0899999999999</ele>
        <time>2023-06-02T11:37:02Z</time>
      </trkpt>
      <trkpt lat="45.880885636433959" lon="9.780752789229155">
        <ele>1351.52</ele>
        <time>2023-06-02T11:37:21Z</time>
      </trkpt>
      <trkpt lat="45.880969204008579" lon="9.780730996280909">
        <ele>1350.72</ele>
        <time>2023-06-02T11:37:41Z</time>
      </trkpt>
      <trkpt lat="45.881029050797224" lon="9.780654637143016">
        <ele>1350.24</ele>
        <time>2023-06-02T11:37:53Z</time>
      </trkpt>
      <trkpt lat="45.881112031638622" lon="9.780489429831505">
        <ele>1348.0799999999999</ele>
        <time>2023-06-02T11:38:07Z</time>
      </trkpt>
      <trkpt lat="45.88123650290072" lon="9.780350038781762">
        <ele>1346.79</ele>
        <time>2023-06-02T11:38:21Z</time>
      </trkpt>
      <trkpt lat="45.881333481520414" lon="9.780207127332687">
        <ele>1346.2</ele>
        <time>2023-06-02T11:38:33Z</time>
      </trkpt>
      <trkpt lat="45.881384359672666" lon="9.780028257519007">
        <ele>1344.53</ele>
        <time>2023-06-02T11:38:49Z</time>
      </trkpt>
      <trkpt lat="45.881466921418905" lon="9.779876545071602">
        <ele>1342.53</ele>
        <time>2023-06-02T11:39:07Z</time>
      </trkpt>
      <trkpt lat="45.881564654409885" lon="9.779727933928371">
        <ele>1342.3</ele>
        <time>2023-06-02T11:39:20Z</time>
      </trkpt>
      <trkpt lat="45.881610587239265" lon="9.779501873999834">
        <ele>1341.6400000000001</ele>
        <time>2023-06-02T11:39:33Z</time>
      </trkpt>
      <trkpt lat="45.881706979125738" lon="9.779281597584486">
        <ele>1339.79</ele>
        <time>2023-06-02T11:39:47Z</time>
      </trkpt>
      <trkpt lat="45.881786942481995" lon="9.779022596776485">
        <ele>1338.25</ele>
        <time>2023-06-02T11:40:03Z</time>
      </trkpt>
      <trkpt lat="45.881851734593511" lon="9.778773570433259">
        <ele>1336.97</ele>
        <time>2023-06-02T11:40:22Z</time>
      </trkpt>
      <trkpt lat="45.881950976327062" lon="9.778624372556806">
        <ele>1338.3699999999999</ele>
        <time>2023-06-02T11:40:37Z</time>
      </trkpt>
      <trkpt lat="45.882062455639243" lon="9.778483305126429">
        <ele>1340.97</ele>
        <time>2023-06-02T11:40:55Z</time>
      </trkpt>
      <trkpt lat="45.882148370146751" lon="9.77839445695281">
        <ele>1343.8800000000001</ele>
        <time>2023-06-02T11:41:10Z</time>
      </trkpt>
      <trkpt lat="45.882183909416199" lon="9.778355481103063">
        <ele>1345.27</ele>
        <time>2023-06-02T11:41:14Z</time>
      </trkpt>
      <trkpt lat="45.88229731656611" lon="9.778195219114423">
        <ele>1345.1800000000001</ele>
        <time>2023-06-02T11:41:30Z</time>
      </trkpt>
      <trkpt lat="45.88230662047863" lon="9.778184993192554">
        <ele>1344.9000000000001</ele>
        <time>2023-06-02T11:41:31Z</time>
      </trkpt>
      <trkpt lat="45.882334783673286" lon="9.778152890503407">
        <ele>1344.8199999999999</ele>
        <time>2023-06-02T11:41:34Z</time>
      </trkpt>
      <trkpt lat="45.88238675147295" lon="9.778143670409918">
        <ele>1343.54</ele>
        <time>2023-06-02T11:41:38Z</time>
      </trkpt>
      <trkpt lat="45.882440647110343" lon="9.778107209131122">
        <ele>1342.25</ele>
        <time>2023-06-02T11:41:43Z</time>
      </trkpt>
      <trkpt lat="45.882453890517354" lon="9.778043422847986">
        <ele>1342.8699999999999</ele>
        <time>2023-06-02T11:41:48Z</time>
      </trkpt>
      <trkpt lat="45.882443748414516" lon="9.778012493625283">
        <ele>1343.0599999999999</ele>
        <time>2023-06-02T11:41:50Z</time>
      </trkpt>
      <trkpt lat="45.882379794493318" lon="9.777942420914769">
        <ele>1342.46</ele>
        <time>2023-06-02T11:41:57Z</time>
      </trkpt>
      <trkpt lat="45.88236135430634" lon="9.777905372902751">
        <ele>1341.99</ele>
        <time>2023-06-02T11:42:00Z</time>
      </trkpt>
      <trkpt lat="45.882412064820528" lon="9.777784841135144">
        <ele>1339.3699999999999</ele>
        <time>2023-06-02T11:42:09Z</time>
      </trkpt>
      <trkpt lat="45.882465038448572" lon="9.777725161984563">
        <ele>1339.0799999999999</ele>
        <time>2023-06-02T11:42:14Z</time>
      </trkpt>
      <trkpt lat="45.882470654323697" lon="9.777651065960527">
        <ele>1339.6700000000001</ele>
        <time>2023-06-02T11:42:18Z</time>
      </trkpt>
      <trkpt lat="45.882486663758755" lon="9.777602199465036">
        <ele>1339.0599999999999</ele>
        <time>2023-06-02T11:42:21Z</time>
      </trkpt>
      <trkpt lat="45.882689338177443" lon="9.777337834239006">
        <ele>1335.6400000000001</ele>
        <time>2023-06-02T11:42:42Z</time>
      </trkpt>
      <trkpt lat="45.882807020097971" lon="9.777312101796269">
        <ele>1334.4000000000001</ele>
        <time>2023-06-02T11:42:52Z</time>
      </trkpt>
      <trkpt lat="45.882851192727685" lon="9.777271701022983">
        <ele>1336.27</ele>
        <time>2023-06-02T11:43:03Z</time>
      </trkpt>
      <trkpt lat="45.882854796946049" lon="9.777253177016974">
        <ele>1337.1500000000001</ele>
        <time>2023-06-02T11:43:06Z</time>
      </trkpt>
      <trkpt lat="45.882865777239203" lon="9.777198359370232">
        <ele>1336.9300000000001</ele>
        <time>2023-06-02T11:43:10Z</time>
      </trkpt>
      <trkpt lat="45.882890587672591" lon="9.777029966935515">
        <ele>1336.3</ele>
        <time>2023-06-02T11:43:29Z</time>
      </trkpt>
      <trkpt lat="45.882883882150054" lon="9.777024267241359">
        <ele>1336.6700000000001</ele>
        <time>2023-06-02T11:43:44Z</time>
      </trkpt>
      <trkpt lat="45.882877092808485" lon="9.777004485949874">
        <ele>1339.73</ele>
        <time>2023-06-02T11:44:04Z</time>
      </trkpt>
    </trkseg>
  </trk>

</gpx>